<?xml version="1.0" encoding="UTF-8" standalone="no" ?><gpx xmlns="http://www.topografix.com/GPX/1/1" xmlns:gpxx="http://www.garmin.com/xmlschemas/GpxExtensions/v3" xmlns:gpxtrkx="http://www.garmin.com/xmlschemas/TrackStatsExtension/v1" xmlns:wptx1="http://www.garmin.com/xmlschemas/WaypointExtension/v1" xmlns:gpxtpx="http://www.garmin.com/xmlschemas/TrackPointExtension/v1" creator="GPSMAP 65s" version="1.1" xmlns:xsi="http://www.w3.org/2001/XMLSchema-instance" xsi:schemaLocation="http://www.topografix.com/GPX/1/1 http://www.topografix.com/GPX/1/1/gpx.xsd http://www.garmin.com/xmlschemas/GpxExtensions/v3 http://www8.garmin.com/xmlschemas/GpxExtensionsv3.xsd http://www.garmin.com/xmlschemas/TrackStatsExtension/v1 http://www8.garmin.com/xmlschemas/TrackStatsExtension.xsd http://www.garmin.com/xmlschemas/WaypointExtension/v1 http://www8.garmin.com/xmlschemas/WaypointExtensionv1.xsd http://www.garmin.com/xmlschemas/TrackPointExtension/v1 http://www.garmin.com/xmlschemas/TrackPointExtensionv1.xsd"><metadata><link href="http://www.garmin.com"><text>Garmin International</text></link><time>2026-08-18T19:06:20Z</time></metadata><trk><name>20260818-avtonom4-smola</name><extensions><gpxx:TrackExtension><gpxx:DisplayColor>Cyan</gpxx:DisplayColor></gpxx:TrackExtension><gpxtrkx:TrackStatsExtension><gpxtrkx:Distance>16476.000</gpxtrkx:Distance><gpxtrkx:TotalElapsedTime>30447</gpxtrkx:TotalElapsedTime><gpxtrkx:MovingTime>12761</gpxtrkx:MovingTime><gpxtrkx:StoppedTime>17675</gpxtrkx:StoppedTime><gpxtrkx:MovingSpeed>1.291</gpxtrkx:MovingSpeed><gpxtrkx:MaxSpeed>3.286</gpxtrkx:MaxSpeed><gpxtrkx:MaxElevation>177.934</gpxtrkx:MaxElevation><gpxtrkx:MinElevation>155.861</gpxtrkx:MinElevation><gpxtrkx:Ascent>115.000</gpxtrkx:Ascent><gpxtrkx:Descent>112.760</gpxtrkx:Descent><gpxtrkx:AvgAscentRate>0.011</gpxtrkx:AvgAscentRate><gpxtrkx:MaxAscentRate>0.104</gpxtrkx:MaxAscentRate><gpxtrkx:AvgDescentRate>0.010</gpxtrkx:AvgDescentRate><gpxtrkx:MaxDescentRate>-0.081</gpxtrkx:MaxDescentRate></gpxtrkx:TrackStatsExtension></extensions><trkseg><trkpt lat="59.3335480336" lon="34.7026674170"><ele>160.86</ele><time>2026-08-18T10:38:53Z</time></trkpt><trkpt lat="59.3335504644" lon="34.7026631422"><ele>158.80</ele><time>2026-08-18T10:38:58Z</time></trkpt><trkpt lat="59.3335568346" lon="34.7026724461"><ele>158.81</ele><time>2026-08-18T10:39:46Z</time></trkpt><trkpt lat="59.3335540686" lon="34.7026645672"><ele>158.82</ele><time>2026-08-18T10:40:29Z</time></trkpt><trkpt lat="59.3335502967" lon="34.7026786488"><ele>157.84</ele><time>2026-08-18T10:41:05Z</time></trkpt><trkpt lat="59.3335361313" lon="34.7026581969"><ele>157.91</ele><time>2026-08-18T10:41:22Z</time></trkpt><trkpt lat="59.3335667253" lon="34.7026676685"><ele>157.86</ele><time>2026-08-18T10:41:52Z</time></trkpt><trkpt lat="59.3335651327" lon="34.7026585322"><ele>157.97</ele><time>2026-08-18T10:42:21Z</time></trkpt><trkpt lat="59.3335403223" lon="34.7026689257"><ele>157.86</ele><time>2026-08-18T10:43:06Z</time></trkpt><trkpt lat="59.3335291743" lon="34.7026589513"><ele>157.68</ele><time>2026-08-18T10:43:49Z</time></trkpt><trkpt lat="59.3335244805" lon="34.7026756313"><ele>157.51</ele><time>2026-08-18T10:44:16Z</time></trkpt><trkpt lat="59.3335207924" lon="34.7026695963"><ele>157.71</ele><time>2026-08-18T10:44:32Z</time></trkpt><trkpt lat="59.3334956467" lon="34.7027040459"><ele>157.43</ele><time>2026-08-18T10:44:48Z</time></trkpt><trkpt lat="59.3334961496" lon="34.7027080692"><ele>157.60</ele><time>2026-08-18T10:45:19Z</time></trkpt><trkpt lat="59.3334826548" lon="34.7026936524"><ele>157.54</ele><time>2026-08-18T10:45:22Z</time></trkpt><trkpt lat="59.3334339559" lon="34.7025349829"><ele>157.32</ele><time>2026-08-18T10:45:33Z</time></trkpt><trkpt lat="59.3334021885" lon="34.7023234237"><ele>156.83</ele><time>2026-08-18T10:45:44Z</time></trkpt><trkpt lat="59.3333907891" lon="34.7022483218"><ele>156.85</ele><time>2026-08-18T10:45:48Z</time></trkpt><trkpt lat="59.3333110772" lon="34.7020966932"><ele>156.40</ele><time>2026-08-18T10:45:58Z</time></trkpt><trkpt lat="59.3332084827" lon="34.7019853815"><ele>156.16</ele><time>2026-08-18T10:46:11Z</time></trkpt><trkpt lat="59.3332028668" lon="34.7019739822"><ele>156.17</ele><time>2026-08-18T10:46:12Z</time></trkpt><trkpt lat="59.3330915552" lon="34.7017962858"><ele>156.23</ele><time>2026-08-18T10:46:25Z</time></trkpt><trkpt lat="59.3330624700" lon="34.7017207649"><ele>155.91</ele><time>2026-08-18T10:46:29Z</time></trkpt><trkpt lat="59.3329575285" lon="34.7014724091"><ele>156.23</ele><time>2026-08-18T10:46:43Z</time></trkpt><trkpt lat="59.3329171278" lon="34.7013804596"><ele>156.43</ele><time>2026-08-18T10:46:48Z</time></trkpt><trkpt lat="59.3328000326" lon="34.7011268232"><ele>156.89</ele><time>2026-08-18T10:47:04Z</time></trkpt><trkpt lat="59.3326988630" lon="34.7008682415"><ele>156.69</ele><time>2026-08-18T10:47:20Z</time></trkpt><trkpt lat="59.3326929957" lon="34.7008297686"><ele>156.93</ele><time>2026-08-18T10:47:22Z</time></trkpt><trkpt lat="59.3326305505" lon="34.7006597836"><ele>157.08</ele><time>2026-08-18T10:47:32Z</time></trkpt><trkpt lat="59.3325428758" lon="34.7004374955"><ele>157.64</ele><time>2026-08-18T10:47:46Z</time></trkpt><trkpt lat="59.3324812688" lon="34.7002360784"><ele>157.39</ele><time>2026-08-18T10:47:57Z</time></trkpt><trkpt lat="59.3324242719" lon="34.7000889760"><ele>157.52</ele><time>2026-08-18T10:48:05Z</time></trkpt><trkpt lat="59.3323386926" lon="34.6998089366"><ele>157.83</ele><time>2026-08-18T10:48:21Z</time></trkpt><trkpt lat="59.3322964478" lon="34.6996675339"><ele>157.54</ele><time>2026-08-18T10:48:29Z</time></trkpt><trkpt lat="59.3322197534" lon="34.6994352713"><ele>157.49</ele><time>2026-08-18T10:48:42Z</time></trkpt><trkpt lat="59.3321909197" lon="34.6993475966"><ele>157.56</ele><time>2026-08-18T10:48:46Z</time></trkpt><trkpt lat="59.3321218528" lon="34.6990639530"><ele>157.83</ele><time>2026-08-18T10:49:00Z</time></trkpt><trkpt lat="59.3321139738" lon="34.6990018431"><ele>157.73</ele><time>2026-08-18T10:49:03Z</time></trkpt><trkpt lat="59.3320845533" lon="34.6988580935"><ele>157.12</ele><time>2026-08-18T10:49:09Z</time></trkpt><trkpt lat="59.3319864012" lon="34.6986874379"><ele>157.68</ele><time>2026-08-18T10:49:25Z</time></trkpt><trkpt lat="59.3319440726" lon="34.6986672375"><ele>157.55</ele><time>2026-08-18T10:49:30Z</time></trkpt><trkpt lat="59.3319204357" lon="34.6986481268"><ele>157.63</ele><time>2026-08-18T10:49:32Z</time></trkpt><trkpt lat="59.3318716530" lon="34.6984906308"><ele>157.77</ele><time>2026-08-18T10:49:41Z</time></trkpt><trkpt lat="59.3318417296" lon="34.6984344721"><ele>158.04</ele><time>2026-08-18T10:49:45Z</time></trkpt><trkpt lat="59.3317352794" lon="34.6980769839"><ele>158.20</ele><time>2026-08-18T10:50:01Z</time></trkpt><trkpt lat="59.3316767737" lon="34.6979055740"><ele>158.31</ele><time>2026-08-18T10:50:10Z</time></trkpt><trkpt lat="59.3316188548" lon="34.6977252793"><ele>157.86</ele><time>2026-08-18T10:50:19Z</time></trkpt><trkpt lat="59.3316278234" lon="34.6976383589"><ele>157.97</ele><time>2026-08-18T10:50:23Z</time></trkpt><trkpt lat="59.3315842375" lon="34.6974044200"><ele>157.72</ele><time>2026-08-18T10:50:34Z</time></trkpt><trkpt lat="59.3315370474" lon="34.6972247958"><ele>157.72</ele><time>2026-08-18T10:50:44Z</time></trkpt><trkpt lat="59.3314030208" lon="34.6970173437"><ele>157.89</ele><time>2026-08-18T10:50:55Z</time></trkpt><trkpt lat="59.3313785456" lon="34.6969643701"><ele>158.05</ele><time>2026-08-18T10:50:58Z</time></trkpt><trkpt lat="59.3312678207" lon="34.6967735980"><ele>157.94</ele><time>2026-08-18T10:51:11Z</time></trkpt><trkpt lat="59.3311645556" lon="34.6967003401"><ele>157.50</ele><time>2026-08-18T10:51:21Z</time></trkpt><trkpt lat="59.3310969975" lon="34.6966256574"><ele>157.39</ele><time>2026-08-18T10:51:27Z</time></trkpt><trkpt lat="59.3310658168" lon="34.6965623740"><ele>157.35</ele><time>2026-08-18T10:51:30Z</time></trkpt><trkpt lat="59.3310265895" lon="34.6965066344"><ele>157.44</ele><time>2026-08-18T10:51:34Z</time></trkpt><trkpt lat="59.3309155293" lon="34.6963038761"><ele>157.46</ele><time>2026-08-18T10:51:47Z</time></trkpt><trkpt lat="59.3308370747" lon="34.6961073205"><ele>157.33</ele><time>2026-08-18T10:52:01Z</time></trkpt><trkpt lat="59.3308228254" lon="34.6960790735"><ele>157.26</ele><time>2026-08-18T10:52:03Z</time></trkpt><trkpt lat="59.3306533433" lon="34.6958840266"><ele>157.71</ele><time>2026-08-18T10:52:16Z</time></trkpt><trkpt lat="59.3306103442" lon="34.6958243474"><ele>157.86</ele><time>2026-08-18T10:52:20Z</time></trkpt><trkpt lat="59.3304492440" lon="34.6955623291"><ele>158.05</ele><time>2026-08-18T10:52:35Z</time></trkpt><trkpt lat="59.3303911574" lon="34.6954237763"><ele>158.08</ele><time>2026-08-18T10:52:41Z</time></trkpt><trkpt lat="59.3302801810" lon="34.6951620933"><ele>158.11</ele><time>2026-08-18T10:52:55Z</time></trkpt><trkpt lat="59.3301338330" lon="34.6949342731"><ele>158.03</ele><time>2026-08-18T10:53:07Z</time></trkpt><trkpt lat="59.3300339207" lon="34.6946071275"><ele>158.08</ele><time>2026-08-18T10:53:22Z</time></trkpt><trkpt lat="59.3299827911" lon="34.6944902837"><ele>158.35</ele><time>2026-08-18T10:53:27Z</time></trkpt><trkpt lat="59.3299455754" lon="34.6943933889"><ele>158.20</ele><time>2026-08-18T10:53:31Z</time></trkpt><trkpt lat="59.3299225252" lon="34.6943076421"><ele>158.42</ele><time>2026-08-18T10:53:34Z</time></trkpt><trkpt lat="59.3299035821" lon="34.6942214761"><ele>158.41</ele><time>2026-08-18T10:53:38Z</time></trkpt><trkpt lat="59.3298879918" lon="34.6941881999"><ele>158.55</ele><time>2026-08-18T10:53:40Z</time></trkpt><trkpt lat="59.3298477586" lon="34.6940704342"><ele>158.47</ele><time>2026-08-18T10:53:46Z</time></trkpt><trkpt lat="59.3296784442" lon="34.6938523371"><ele>158.37</ele><time>2026-08-18T10:54:00Z</time></trkpt><trkpt lat="59.3295163382" lon="34.6936162189"><ele>158.81</ele><time>2026-08-18T10:54:15Z</time></trkpt><trkpt lat="59.3293664698" lon="34.6934143826"><ele>159.14</ele><time>2026-08-18T10:54:28Z</time></trkpt><trkpt lat="59.3293313496" lon="34.6933483332"><ele>159.17</ele><time>2026-08-18T10:54:32Z</time></trkpt><trkpt lat="59.3293032702" lon="34.6932975389"><ele>159.47</ele><time>2026-08-18T10:54:35Z</time></trkpt><trkpt lat="59.3291483726" lon="34.6930329222"><ele>159.04</ele><time>2026-08-18T10:54:49Z</time></trkpt><trkpt lat="59.3290323671" lon="34.6927723289"><ele>159.05</ele><time>2026-08-18T10:55:01Z</time></trkpt><trkpt lat="59.3289279286" lon="34.6924201213"><ele>158.76</ele><time>2026-08-18T10:55:16Z</time></trkpt><trkpt lat="59.3288477976" lon="34.6921082307"><ele>158.60</ele><time>2026-08-18T10:55:29Z</time></trkpt><trkpt lat="59.3288216460" lon="34.6920391638"><ele>158.43</ele><time>2026-08-18T10:55:32Z</time></trkpt><trkpt lat="59.3287952431" lon="34.6919616312"><ele>158.33</ele><time>2026-08-18T10:55:35Z</time></trkpt><trkpt lat="59.3287365697" lon="34.6917046420"><ele>158.25</ele><time>2026-08-18T10:55:46Z</time></trkpt><trkpt lat="59.3287305348" lon="34.6916666720"><ele>158.16</ele><time>2026-08-18T10:55:48Z</time></trkpt><trkpt lat="59.3287134357" lon="34.6915537678"><ele>158.22</ele><time>2026-08-18T10:55:52Z</time></trkpt><trkpt lat="59.3286782317" lon="34.6913788375"><ele>158.20</ele><time>2026-08-18T10:55:58Z</time></trkpt><trkpt lat="59.3286475539" lon="34.6913251933"><ele>158.39</ele><time>2026-08-18T10:56:01Z</time></trkpt><trkpt lat="59.3285429478" lon="34.6910206787"><ele>157.95</ele><time>2026-08-18T10:56:14Z</time></trkpt><trkpt lat="59.3284296244" lon="34.6906166710"><ele>157.52</ele><time>2026-08-18T10:56:31Z</time></trkpt><trkpt lat="59.3282839470" lon="34.6904498711"><ele>157.75</ele><time>2026-08-18T10:56:45Z</time></trkpt><trkpt lat="59.3282610644" lon="34.6904251445"><ele>157.97</ele><time>2026-08-18T10:56:48Z</time></trkpt><trkpt lat="59.3282320630" lon="34.6902920399"><ele>157.99</ele><time>2026-08-18T10:56:54Z</time></trkpt><trkpt lat="59.3281876389" lon="34.6901189536"><ele>158.36</ele><time>2026-08-18T10:57:01Z</time></trkpt><trkpt lat="59.3281664327" lon="34.6899777185"><ele>158.62</ele><time>2026-08-18T10:57:07Z</time></trkpt><trkpt lat="59.3280553725" lon="34.6895962581"><ele>158.79</ele><time>2026-08-18T10:57:22Z</time></trkpt><trkpt lat="59.3279982917" lon="34.6894230880"><ele>158.59</ele><time>2026-08-18T10:57:31Z</time></trkpt><trkpt lat="59.3279435579" lon="34.6892818529"><ele>158.53</ele><time>2026-08-18T10:57:38Z</time></trkpt><trkpt lat="59.3278063461" lon="34.6889360994"><ele>158.83</ele><time>2026-08-18T10:57:55Z</time></trkpt><trkpt lat="59.3277374469" lon="34.6888195910"><ele>158.99</ele><time>2026-08-18T10:58:02Z</time></trkpt><trkpt lat="59.3275682162" lon="34.6885017492"><ele>159.30</ele><time>2026-08-18T10:58:18Z</time></trkpt><trkpt lat="59.3275452498" lon="34.6884734184"><ele>159.23</ele><time>2026-08-18T10:58:20Z</time></trkpt><trkpt lat="59.3275085371" lon="34.6884322632"><ele>159.13</ele><time>2026-08-18T10:58:23Z</time></trkpt><trkpt lat="59.3273361214" lon="34.6881861705"><ele>159.17</ele><time>2026-08-18T10:58:38Z</time></trkpt><trkpt lat="59.3272430822" lon="34.6880361345"><ele>159.41</ele><time>2026-08-18T10:58:47Z</time></trkpt><trkpt lat="59.3271880969" lon="34.6879438497"><ele>159.17</ele><time>2026-08-18T10:58:53Z</time></trkpt><trkpt lat="59.3271256518" lon="34.6878457814"><ele>159.09</ele><time>2026-08-18T10:58:58Z</time></trkpt><trkpt lat="59.3270005938" lon="34.6875370760"><ele>158.85</ele><time>2026-08-18T10:59:12Z</time></trkpt><trkpt lat="59.3269727658" lon="34.6874360740"><ele>158.78</ele><time>2026-08-18T10:59:17Z</time></trkpt><trkpt lat="59.3268849235" lon="34.6871255245"><ele>158.09</ele><time>2026-08-18T10:59:30Z</time></trkpt><trkpt lat="59.3268281780" lon="34.6868109517"><ele>157.62</ele><time>2026-08-18T10:59:44Z</time></trkpt><trkpt lat="59.3267606199" lon="34.6866670344"><ele>157.63</ele><time>2026-08-18T10:59:56Z</time></trkpt><trkpt lat="59.3267581891" lon="34.6865459997"><ele>157.57</ele><time>2026-08-18T11:00:02Z</time></trkpt><trkpt lat="59.3266983423" lon="34.6862067841"><ele>157.56</ele><time>2026-08-18T11:00:16Z</time></trkpt><trkpt lat="59.3266649824" lon="34.6860438399"><ele>157.39</ele><time>2026-08-18T11:00:26Z</time></trkpt><trkpt lat="59.3266291078" lon="34.6859344561"><ele>157.73</ele><time>2026-08-18T11:00:32Z</time></trkpt><trkpt lat="59.3265937362" lon="34.6858258266"><ele>157.75</ele><time>2026-08-18T11:00:37Z</time></trkpt><trkpt lat="59.3265593704" lon="34.6857128385"><ele>157.93</ele><time>2026-08-18T11:00:43Z</time></trkpt><trkpt lat="59.3264773954" lon="34.6854763851"><ele>157.91</ele><time>2026-08-18T11:00:54Z</time></trkpt><trkpt lat="59.3264058977" lon="34.6852901392"><ele>157.91</ele><time>2026-08-18T11:01:05Z</time></trkpt><trkpt lat="59.3263256829" lon="34.6850012988"><ele>158.17</ele><time>2026-08-18T11:01:16Z</time></trkpt><trkpt lat="59.3263167981" lon="34.6849807631"><ele>158.19</ele><time>2026-08-18T11:01:17Z</time></trkpt><trkpt lat="59.3262959272" lon="34.6849372610"><ele>158.23</ele><time>2026-08-18T11:01:19Z</time></trkpt><trkpt lat="59.3262726255" lon="34.6848817728"><ele>158.27</ele><time>2026-08-18T11:01:22Z</time></trkpt><trkpt lat="59.3261748925" lon="34.6845912561"><ele>158.25</ele><time>2026-08-18T11:01:35Z</time></trkpt><trkpt lat="59.3261291273" lon="34.6844012383"><ele>158.39</ele><time>2026-08-18T11:01:42Z</time></trkpt><trkpt lat="59.3260643352" lon="34.6840076242"><ele>158.24</ele><time>2026-08-18T11:01:57Z</time></trkpt><trkpt lat="59.3260436319" lon="34.6837986633"><ele>158.14</ele><time>2026-08-18T11:02:05Z</time></trkpt><trkpt lat="59.3260368425" lon="34.6837432589"><ele>158.05</ele><time>2026-08-18T11:02:07Z</time></trkpt><trkpt lat="59.3259992916" lon="34.6834363975"><ele>157.65</ele><time>2026-08-18T11:02:20Z</time></trkpt><trkpt lat="59.3259765767" lon="34.6832332201"><ele>157.42</ele><time>2026-08-18T11:02:28Z</time></trkpt><trkpt lat="59.3260017224" lon="34.6830554400"><ele>157.25</ele><time>2026-08-18T11:02:36Z</time></trkpt><trkpt lat="59.3259900715" lon="34.6827732213"><ele>157.82</ele><time>2026-08-18T11:02:48Z</time></trkpt><trkpt lat="59.3259810191" lon="34.6827045735"><ele>157.84</ele><time>2026-08-18T11:02:51Z</time></trkpt><trkpt lat="59.3258994631" lon="34.6824345924"><ele>158.46</ele><time>2026-08-18T11:03:05Z</time></trkpt><trkpt lat="59.3258449808" lon="34.6822078619"><ele>158.69</ele><time>2026-08-18T11:03:15Z</time></trkpt><trkpt lat="59.3258345872" lon="34.6821433213"><ele>158.38</ele><time>2026-08-18T11:03:18Z</time></trkpt><trkpt lat="59.3258185778" lon="34.6820754278"><ele>158.47</ele><time>2026-08-18T11:03:21Z</time></trkpt><trkpt lat="59.3257825356" lon="34.6817102283"><ele>158.44</ele><time>2026-08-18T11:03:36Z</time></trkpt><trkpt lat="59.3257288914" lon="34.6815663949"><ele>158.32</ele><time>2026-08-18T11:03:45Z</time></trkpt><trkpt lat="59.3257118762" lon="34.6815472841"><ele>158.44</ele><time>2026-08-18T11:03:47Z</time></trkpt><trkpt lat="59.3256878201" lon="34.6813931409"><ele>158.39</ele><time>2026-08-18T11:03:54Z</time></trkpt><trkpt lat="59.3256850541" lon="34.6812759619"><ele>158.31</ele><time>2026-08-18T11:03:59Z</time></trkpt><trkpt lat="59.3256641831" lon="34.6811098326"><ele>158.51</ele><time>2026-08-18T11:04:05Z</time></trkpt><trkpt lat="59.3255890813" lon="34.6808853652"><ele>158.78</ele><time>2026-08-18T11:04:15Z</time></trkpt><trkpt lat="59.3254520372" lon="34.6805068385"><ele>158.98</ele><time>2026-08-18T11:04:32Z</time></trkpt><trkpt lat="59.3253645301" lon="34.6801078599"><ele>159.14</ele><time>2026-08-18T11:04:48Z</time></trkpt><trkpt lat="59.3253268953" lon="34.6797621902"><ele>159.30</ele><time>2026-08-18T11:05:02Z</time></trkpt><trkpt lat="59.3253450841" lon="34.6796143334"><ele>159.58</ele><time>2026-08-18T11:05:07Z</time></trkpt><trkpt lat="59.3253379595" lon="34.6794517245"><ele>159.90</ele><time>2026-08-18T11:05:14Z</time></trkpt><trkpt lat="59.3253111374" lon="34.6790772211"><ele>160.18</ele><time>2026-08-18T11:05:28Z</time></trkpt><trkpt lat="59.3252955470" lon="34.6789505705"><ele>160.27</ele><time>2026-08-18T11:05:33Z</time></trkpt><trkpt lat="59.3252433278" lon="34.6785702836"><ele>161.09</ele><time>2026-08-18T11:05:49Z</time></trkpt><trkpt lat="59.3252241332" lon="34.6782423835"><ele>162.02</ele><time>2026-08-18T11:06:03Z</time></trkpt><trkpt lat="59.3252248876" lon="34.6781108715"><ele>162.18</ele><time>2026-08-18T11:06:08Z</time></trkpt><trkpt lat="59.3252004962" lon="34.6778507810"><ele>162.68</ele><time>2026-08-18T11:06:19Z</time></trkpt><trkpt lat="59.3251950480" lon="34.6777421515"><ele>162.96</ele><time>2026-08-18T11:06:24Z</time></trkpt><trkpt lat="59.3251851574" lon="34.6776035987"><ele>163.11</ele><time>2026-08-18T11:06:31Z</time></trkpt><trkpt lat="59.3250981532" lon="34.6773979906"><ele>163.42</ele><time>2026-08-18T11:06:44Z</time></trkpt><trkpt lat="59.3250562437" lon="34.6772733517"><ele>163.41</ele><time>2026-08-18T11:06:55Z</time></trkpt><trkpt lat="59.3250428326" lon="34.6769880317"><ele>163.87</ele><time>2026-08-18T11:07:09Z</time></trkpt><trkpt lat="59.3250352889" lon="34.6769447811"><ele>164.12</ele><time>2026-08-18T11:07:11Z</time></trkpt><trkpt lat="59.3249891885" lon="34.6766168810"><ele>164.22</ele><time>2026-08-18T11:07:24Z</time></trkpt><trkpt lat="59.3249807227" lon="34.6765610576"><ele>164.10</ele><time>2026-08-18T11:07:26Z</time></trkpt><trkpt lat="59.3249207921" lon="34.6763459779"><ele>164.22</ele><time>2026-08-18T11:07:35Z</time></trkpt><trkpt lat="59.3248394877" lon="34.6760960296"><ele>164.04</ele><time>2026-08-18T11:07:46Z</time></trkpt><trkpt lat="59.3247096520" lon="34.6757801995"><ele>163.64</ele><time>2026-08-18T11:08:02Z</time></trkpt><trkpt lat="59.3246515654" lon="34.6756314207"><ele>163.95</ele><time>2026-08-18T11:08:09Z</time></trkpt><trkpt lat="59.3245604541" lon="34.6754947957"><ele>163.85</ele><time>2026-08-18T11:08:19Z</time></trkpt><trkpt lat="59.3244033772" lon="34.6753099747"><ele>163.27</ele><time>2026-08-18T11:08:33Z</time></trkpt><trkpt lat="59.3243179657" lon="34.6752264909"><ele>163.23</ele><time>2026-08-18T11:08:40Z</time></trkpt><trkpt lat="59.3241678458" lon="34.6750928834"><ele>163.32</ele><time>2026-08-18T11:08:53Z</time></trkpt><trkpt lat="59.3239908200" lon="34.6748603694"><ele>163.41</ele><time>2026-08-18T11:09:10Z</time></trkpt><trkpt lat="59.3239510898" lon="34.6748199686"><ele>163.47</ele><time>2026-08-18T11:09:13Z</time></trkpt><trkpt lat="59.3239019718" lon="34.6747493930"><ele>163.35</ele><time>2026-08-18T11:09:17Z</time></trkpt><trkpt lat="59.3238477409" lon="34.6746573597"><ele>163.17</ele><time>2026-08-18T11:09:23Z</time></trkpt><trkpt lat="59.3237160612" lon="34.6744983550"><ele>162.65</ele><time>2026-08-18T11:09:35Z</time></trkpt><trkpt lat="59.3235356826" lon="34.6744300425"><ele>161.89</ele><time>2026-08-18T11:09:49Z</time></trkpt><trkpt lat="59.3234609999" lon="34.6744190622"><ele>161.72</ele><time>2026-08-18T11:09:55Z</time></trkpt><trkpt lat="59.3234171625" lon="34.6744153742"><ele>161.78</ele><time>2026-08-18T11:09:58Z</time></trkpt><trkpt lat="59.3232265580" lon="34.6743709501"><ele>161.18</ele><time>2026-08-18T11:10:12Z</time></trkpt><trkpt lat="59.3231390510" lon="34.6743421163"><ele>160.81</ele><time>2026-08-18T11:10:18Z</time></trkpt><trkpt lat="59.3230666313" lon="34.6743160486"><ele>160.65</ele><time>2026-08-18T11:10:24Z</time></trkpt><trkpt lat="59.3228245620" lon="34.6742350794"><ele>159.25</ele><time>2026-08-18T11:10:40Z</time></trkpt><trkpt lat="59.3226283416" lon="34.6741380170"><ele>158.61</ele><time>2026-08-18T11:10:55Z</time></trkpt><trkpt lat="59.3224369828" lon="34.6740278788"><ele>159.05</ele><time>2026-08-18T11:11:10Z</time></trkpt><trkpt lat="59.3222392537" lon="34.6739137173"><ele>159.61</ele><time>2026-08-18T11:11:25Z</time></trkpt><trkpt lat="59.3220591266" lon="34.6737595741"><ele>159.32</ele><time>2026-08-18T11:11:39Z</time></trkpt><trkpt lat="59.3218886387" lon="34.6735432371"><ele>160.05</ele><time>2026-08-18T11:11:54Z</time></trkpt><trkpt lat="59.3217235990" lon="34.6732387226"><ele>159.88</ele><time>2026-08-18T11:12:10Z</time></trkpt><trkpt lat="59.3216097727" lon="34.6729766205"><ele>159.72</ele><time>2026-08-18T11:12:23Z</time></trkpt><trkpt lat="59.3214766681" lon="34.6726652328"><ele>159.60</ele><time>2026-08-18T11:12:38Z</time></trkpt><trkpt lat="59.3213287275" lon="34.6723649930"><ele>159.77</ele><time>2026-08-18T11:12:53Z</time></trkpt><trkpt lat="59.3211487681" lon="34.6720309742"><ele>160.08</ele><time>2026-08-18T11:13:10Z</time></trkpt><trkpt lat="59.3209879193" lon="34.6717700455"><ele>160.42</ele><time>2026-08-18T11:13:25Z</time></trkpt><trkpt lat="59.3208783679" lon="34.6715389565"><ele>160.59</ele><time>2026-08-18T11:13:38Z</time></trkpt><trkpt lat="59.3207523879" lon="34.6713004913"><ele>161.41</ele><time>2026-08-18T11:13:51Z</time></trkpt><trkpt lat="59.3207188603" lon="34.6712276526"><ele>161.55</ele><time>2026-08-18T11:13:55Z</time></trkpt><trkpt lat="59.3207072932" lon="34.6711787861"><ele>161.69</ele><time>2026-08-18T11:13:57Z</time></trkpt><trkpt lat="59.3206239771" lon="34.6708241478"><ele>161.75</ele><time>2026-08-18T11:14:11Z</time></trkpt><trkpt lat="59.3205528986" lon="34.6705288533"><ele>160.68</ele><time>2026-08-18T11:14:24Z</time></trkpt><trkpt lat="59.3204760365" lon="34.6701988578"><ele>160.42</ele><time>2026-08-18T11:14:38Z</time></trkpt><trkpt lat="59.3203672394" lon="34.6698521823"><ele>160.28</ele><time>2026-08-18T11:14:54Z</time></trkpt><trkpt lat="59.3203405850" lon="34.6697285492"><ele>160.27</ele><time>2026-08-18T11:14:59Z</time></trkpt><trkpt lat="59.3203272577" lon="34.6696572192"><ele>160.32</ele><time>2026-08-18T11:15:02Z</time></trkpt><trkpt lat="59.3202974182" lon="34.6695493441"><ele>160.46</ele><time>2026-08-18T11:15:07Z</time></trkpt><trkpt lat="59.3202011939" lon="34.6692059375"><ele>160.46</ele><time>2026-08-18T11:15:21Z</time></trkpt><trkpt lat="59.3201334681" lon="34.6689075418"><ele>160.28</ele><time>2026-08-18T11:15:34Z</time></trkpt><trkpt lat="59.3200749625" lon="34.6686238982"><ele>160.36</ele><time>2026-08-18T11:15:46Z</time></trkpt><trkpt lat="59.3200021237" lon="34.6683282685"><ele>160.27</ele><time>2026-08-18T11:15:58Z</time></trkpt><trkpt lat="59.3199194781" lon="34.6680180542"><ele>160.34</ele><time>2026-08-18T11:16:12Z</time></trkpt><trkpt lat="59.3198358268" lon="34.6677447204"><ele>159.85</ele><time>2026-08-18T11:16:24Z</time></trkpt><trkpt lat="59.3198036402" lon="34.6676015574"><ele>159.71</ele><time>2026-08-18T11:16:30Z</time></trkpt><trkpt lat="59.3197829369" lon="34.6674752422"><ele>159.54</ele><time>2026-08-18T11:16:35Z</time></trkpt><trkpt lat="59.3197123613" lon="34.6671756729"><ele>159.30</ele><time>2026-08-18T11:16:47Z</time></trkpt><trkpt lat="59.3196155503" lon="34.6668359544"><ele>159.83</ele><time>2026-08-18T11:17:01Z</time></trkpt><trkpt lat="59.3195163924" lon="34.6664509736"><ele>160.19</ele><time>2026-08-18T11:17:18Z</time></trkpt><trkpt lat="59.3194530252" lon="34.6660700999"><ele>161.68</ele><time>2026-08-18T11:17:34Z</time></trkpt><trkpt lat="59.3194270413" lon="34.6658876259"><ele>161.33</ele><time>2026-08-18T11:17:42Z</time></trkpt><trkpt lat="59.3194197491" lon="34.6658406872"><ele>161.42</ele><time>2026-08-18T11:17:44Z</time></trkpt><trkpt lat="59.3193467427" lon="34.6655061655"><ele>160.25</ele><time>2026-08-18T11:17:58Z</time></trkpt><trkpt lat="59.3193362653" lon="34.6654522698"><ele>160.09</ele><time>2026-08-18T11:18:00Z</time></trkpt><trkpt lat="59.3192789331" lon="34.6650363598"><ele>159.12</ele><time>2026-08-18T11:18:16Z</time></trkpt><trkpt lat="59.3192307372" lon="34.6647083759"><ele>158.87</ele><time>2026-08-18T11:18:29Z</time></trkpt><trkpt lat="59.3192092795" lon="34.6643213835"><ele>159.17</ele><time>2026-08-18T11:18:44Z</time></trkpt><trkpt lat="59.3192070164" lon="34.6643001772"><ele>159.30</ele><time>2026-08-18T11:18:45Z</time></trkpt><trkpt lat="59.3191699684" lon="34.6639188845"><ele>159.23</ele><time>2026-08-18T11:18:59Z</time></trkpt><trkpt lat="59.3190510292" lon="34.6636125259"><ele>159.43</ele><time>2026-08-18T11:19:14Z</time></trkpt><trkpt lat="59.3188877497" lon="34.6632416267"><ele>159.58</ele><time>2026-08-18T11:19:32Z</time></trkpt><trkpt lat="59.3187516276" lon="34.6629213542"><ele>159.19</ele><time>2026-08-18T11:19:47Z</time></trkpt><trkpt lat="59.3186293356" lon="34.6626186837"><ele>159.28</ele><time>2026-08-18T11:20:01Z</time></trkpt><trkpt lat="59.3185024336" lon="34.6622661408"><ele>159.08</ele><time>2026-08-18T11:20:17Z</time></trkpt><trkpt lat="59.3184026890" lon="34.6618044656"><ele>159.17</ele><time>2026-08-18T11:20:36Z</time></trkpt><trkpt lat="59.3183637969" lon="34.6614330634"><ele>159.36</ele><time>2026-08-18T11:20:51Z</time></trkpt><trkpt lat="59.3183488771" lon="34.6610673610"><ele>158.77</ele><time>2026-08-18T11:21:05Z</time></trkpt><trkpt lat="59.3183418363" lon="34.6608342603"><ele>158.78</ele><time>2026-08-18T11:21:14Z</time></trkpt><trkpt lat="59.3183407467" lon="34.6607482620"><ele>159.14</ele><time>2026-08-18T11:21:18Z</time></trkpt><trkpt lat="59.3183178641" lon="34.6603036858"><ele>159.55</ele><time>2026-08-18T11:21:35Z</time></trkpt><trkpt lat="59.3182759546" lon="34.6599025279"><ele>160.02</ele><time>2026-08-18T11:21:51Z</time></trkpt><trkpt lat="59.3182752840" lon="34.6598742809"><ele>159.92</ele><time>2026-08-18T11:21:52Z</time></trkpt><trkpt lat="59.3182405829" lon="34.6593841910"><ele>159.93</ele><time>2026-08-18T11:22:12Z</time></trkpt><trkpt lat="59.3182335421" lon="34.6592789982"><ele>160.27</ele><time>2026-08-18T11:22:34Z</time></trkpt><trkpt lat="59.3182302732" lon="34.6592747234"><ele>160.38</ele><time>2026-08-18T11:23:25Z</time></trkpt><trkpt lat="59.3182459474" lon="34.6592594683"><ele>160.22</ele><time>2026-08-18T11:23:51Z</time></trkpt><trkpt lat="59.3182451930" lon="34.6592648327"><ele>160.28</ele><time>2026-08-18T11:24:27Z</time></trkpt><trkpt lat="59.3182453606" lon="34.6592667606"><ele>160.57</ele><time>2026-08-18T11:25:06Z</time></trkpt><trkpt lat="59.3182359729" lon="34.6592764836"><ele>160.67</ele><time>2026-08-18T11:25:59Z</time></trkpt><trkpt lat="59.3182440195" lon="34.6592730470"><ele>161.08</ele><time>2026-08-18T11:26:39Z</time></trkpt><trkpt lat="59.3182477914" lon="34.6592728794"><ele>160.61</ele><time>2026-08-18T11:27:11Z</time></trkpt><trkpt lat="59.3182583526" lon="34.6592368372"><ele>160.47</ele><time>2026-08-18T11:27:40Z</time></trkpt><trkpt lat="59.3182765413" lon="34.6591951791"><ele>160.37</ele><time>2026-08-18T11:27:43Z</time></trkpt><trkpt lat="59.3184033595" lon="34.6589952707"><ele>159.94</ele><time>2026-08-18T11:27:58Z</time></trkpt><trkpt lat="59.3185661361" lon="34.6587897465"><ele>161.00</ele><time>2026-08-18T11:28:15Z</time></trkpt><trkpt lat="59.3187475204" lon="34.6586665325"><ele>162.16</ele><time>2026-08-18T11:28:31Z</time></trkpt><trkpt lat="59.3188016675" lon="34.6586216893"><ele>162.35</ele><time>2026-08-18T11:28:37Z</time></trkpt><trkpt lat="59.3189740833" lon="34.6584712341"><ele>163.42</ele><time>2026-08-18T11:28:55Z</time></trkpt><trkpt lat="59.3189755920" lon="34.6584893391"><ele>163.34</ele><time>2026-08-18T11:29:01Z</time></trkpt><trkpt lat="59.3190129753" lon="34.6584603377"><ele>163.03</ele><time>2026-08-18T11:29:05Z</time></trkpt><trkpt lat="59.3192472495" lon="34.6583445836"><ele>163.03</ele><time>2026-08-18T11:29:23Z</time></trkpt><trkpt lat="59.3194448948" lon="34.6582361218"><ele>162.78</ele><time>2026-08-18T11:29:38Z</time></trkpt><trkpt lat="59.3195910752" lon="34.6581740957"><ele>162.96</ele><time>2026-08-18T11:29:50Z</time></trkpt><trkpt lat="59.3197724596" lon="34.6580280829"><ele>163.90</ele><time>2026-08-18T11:30:05Z</time></trkpt><trkpt lat="59.3198448792" lon="34.6579396538"><ele>163.73</ele><time>2026-08-18T11:30:13Z</time></trkpt><trkpt lat="59.3198580388" lon="34.6579191182"><ele>163.42</ele><time>2026-08-18T11:30:15Z</time></trkpt><trkpt lat="59.3200040516" lon="34.6576276794"><ele>162.59</ele><time>2026-08-18T11:30:32Z</time></trkpt><trkpt lat="59.3201064784" lon="34.6573828440"><ele>162.49</ele><time>2026-08-18T11:30:44Z</time></trkpt><trkpt lat="59.3201984279" lon="34.6570864599"><ele>161.80</ele><time>2026-08-18T11:30:58Z</time></trkpt><trkpt lat="59.3203078955" lon="34.6568342485"><ele>161.05</ele><time>2026-08-18T11:31:11Z</time></trkpt><trkpt lat="59.3203572650" lon="34.6566949412"><ele>161.28</ele><time>2026-08-18T11:31:18Z</time></trkpt><trkpt lat="59.3204371445" lon="34.6565492637"><ele>160.88</ele><time>2026-08-18T11:31:28Z</time></trkpt><trkpt lat="59.3204921298" lon="34.6564578172"><ele>160.89</ele><time>2026-08-18T11:31:34Z</time></trkpt><trkpt lat="59.3205741886" lon="34.6562226210"><ele>161.20</ele><time>2026-08-18T11:31:48Z</time></trkpt><trkpt lat="59.3205811456" lon="34.6561815497"><ele>161.19</ele><time>2026-08-18T11:31:50Z</time></trkpt><trkpt lat="59.3206178583" lon="34.6558290906"><ele>161.17</ele><time>2026-08-18T11:32:06Z</time></trkpt><trkpt lat="59.3206755258" lon="34.6555771306"><ele>161.13</ele><time>2026-08-18T11:32:22Z</time></trkpt><trkpt lat="59.3207146693" lon="34.6552713588"><ele>161.29</ele><time>2026-08-18T11:32:37Z</time></trkpt><trkpt lat="59.3207616918" lon="34.6550061554"><ele>161.77</ele><time>2026-08-18T11:32:53Z</time></trkpt><trkpt lat="59.3208127376" lon="34.6547639184"><ele>162.27</ele><time>2026-08-18T11:33:07Z</time></trkpt><trkpt lat="59.3208560720" lon="34.6545238607"><ele>162.26</ele><time>2026-08-18T11:33:22Z</time></trkpt><trkpt lat="59.3208826426" lon="34.6544205956"><ele>162.68</ele><time>2026-08-18T11:33:28Z</time></trkpt><trkpt lat="59.3209830578" lon="34.6541323420"><ele>162.78</ele><time>2026-08-18T11:33:43Z</time></trkpt><trkpt lat="59.3210733309" lon="34.6539084613"><ele>162.51</ele><time>2026-08-18T11:33:54Z</time></trkpt><trkpt lat="59.3210606743" lon="34.6536726784"><ele>162.84</ele><time>2026-08-18T11:34:07Z</time></trkpt><trkpt lat="59.3210910168" lon="34.6535879374"><ele>162.53</ele><time>2026-08-18T11:34:14Z</time></trkpt><trkpt lat="59.3211486842" lon="34.6535362210"><ele>161.90</ele><time>2026-08-18T11:34:18Z</time></trkpt><trkpt lat="59.3212553859" lon="34.6532500628"><ele>161.65</ele><time>2026-08-18T11:34:32Z</time></trkpt><trkpt lat="59.3213164899" lon="34.6530888788"><ele>161.54</ele><time>2026-08-18T11:34:42Z</time></trkpt><trkpt lat="59.3213857245" lon="34.6529706940"><ele>161.20</ele><time>2026-08-18T11:34:51Z</time></trkpt><trkpt lat="59.3214292265" lon="34.6529073268"><ele>160.79</ele><time>2026-08-18T11:34:55Z</time></trkpt><trkpt lat="59.3214513548" lon="34.6528838575"><ele>160.46</ele><time>2026-08-18T11:34:57Z</time></trkpt><trkpt lat="59.3215579726" lon="34.6527401917"><ele>160.69</ele><time>2026-08-18T11:35:10Z</time></trkpt><trkpt lat="59.3216234352" lon="34.6526641678"><ele>160.18</ele><time>2026-08-18T11:35:17Z</time></trkpt><trkpt lat="59.3217039853" lon="34.6525950171"><ele>160.52</ele><time>2026-08-18T11:35:25Z</time></trkpt><trkpt lat="59.3218419515" lon="34.6524740662"><ele>160.73</ele><time>2026-08-18T11:35:40Z</time></trkpt><trkpt lat="59.3219830189" lon="34.6522990521"><ele>161.38</ele><time>2026-08-18T11:35:54Z</time></trkpt><trkpt lat="59.3220871221" lon="34.6522250399"><ele>161.73</ele><time>2026-08-18T11:36:09Z</time></trkpt><trkpt lat="59.3221126869" lon="34.6521836333"><ele>161.78</ele><time>2026-08-18T11:36:13Z</time></trkpt><trkpt lat="59.3222053908" lon="34.6522633452"><ele>162.28</ele><time>2026-08-18T11:36:26Z</time></trkpt><trkpt lat="59.3223395851" lon="34.6522567235"><ele>164.42</ele><time>2026-08-18T11:36:38Z</time></trkpt><trkpt lat="59.3224945664" lon="34.6521223616"><ele>165.44</ele><time>2026-08-18T11:36:52Z</time></trkpt><trkpt lat="59.3226318620" lon="34.6519683860"><ele>164.88</ele><time>2026-08-18T11:37:05Z</time></trkpt><trkpt lat="59.3227058742" lon="34.6518103871"><ele>164.25</ele><time>2026-08-18T11:37:17Z</time></trkpt><trkpt lat="59.3227584288" lon="34.6517288312"><ele>164.60</ele><time>2026-08-18T11:37:33Z</time></trkpt><trkpt lat="59.3228228856" lon="34.6516786236"><ele>164.73</ele><time>2026-08-18T11:37:40Z</time></trkpt><trkpt lat="59.3229259830" lon="34.6516444255"><ele>166.13</ele><time>2026-08-18T11:37:47Z</time></trkpt><trkpt lat="59.3229653779" lon="34.6516305953"><ele>164.78</ele><time>2026-08-18T11:37:50Z</time></trkpt><trkpt lat="59.3230005819" lon="34.6515993308"><ele>164.97</ele><time>2026-08-18T11:37:53Z</time></trkpt><trkpt lat="59.3230877537" lon="34.6514661424"><ele>164.81</ele><time>2026-08-18T11:38:06Z</time></trkpt><trkpt lat="59.3231354468" lon="34.6514288429"><ele>164.99</ele><time>2026-08-18T11:38:13Z</time></trkpt><trkpt lat="59.3232181761" lon="34.6513413358"><ele>165.63</ele><time>2026-08-18T11:38:22Z</time></trkpt><trkpt lat="59.3232592475" lon="34.6512504760"><ele>165.08</ele><time>2026-08-18T11:38:30Z</time></trkpt><trkpt lat="59.3233755883" lon="34.6511789784"><ele>164.80</ele><time>2026-08-18T11:38:42Z</time></trkpt><trkpt lat="59.3234379496" lon="34.6511120908"><ele>163.86</ele><time>2026-08-18T11:38:48Z</time></trkpt><trkpt lat="59.3235484231" lon="34.6509704366"><ele>163.26</ele><time>2026-08-18T11:38:59Z</time></trkpt><trkpt lat="59.3235936854" lon="34.6509149484"><ele>163.22</ele><time>2026-08-18T11:39:05Z</time></trkpt><trkpt lat="59.3237145524" lon="34.6507624816"><ele>162.49</ele><time>2026-08-18T11:39:19Z</time></trkpt><trkpt lat="59.3237909954" lon="34.6506075840"><ele>162.72</ele><time>2026-08-18T11:39:43Z</time></trkpt><trkpt lat="59.3237602338" lon="34.6506338194"><ele>162.62</ele><time>2026-08-18T11:39:57Z</time></trkpt><trkpt lat="59.3237634189" lon="34.6506426204"><ele>162.96</ele><time>2026-08-18T11:40:24Z</time></trkpt><trkpt lat="59.3237712979" lon="34.6506453864"><ele>162.64</ele><time>2026-08-18T11:40:38Z</time></trkpt><trkpt lat="59.3237996288" lon="34.6506424528"><ele>162.64</ele><time>2026-08-18T11:40:40Z</time></trkpt><trkpt lat="59.3239246868" lon="34.6505266987"><ele>162.10</ele><time>2026-08-18T11:40:56Z</time></trkpt><trkpt lat="59.3239912391" lon="34.6505112760"><ele>162.00</ele><time>2026-08-18T11:41:04Z</time></trkpt><trkpt lat="59.3240631558" lon="34.6504991222"><ele>162.26</ele><time>2026-08-18T11:41:18Z</time></trkpt><trkpt lat="59.3240870442" lon="34.6505087614"><ele>163.05</ele><time>2026-08-18T11:41:22Z</time></trkpt><trkpt lat="59.3241665885" lon="34.6504847892"><ele>162.08</ele><time>2026-08-18T11:41:34Z</time></trkpt><trkpt lat="59.3241859507" lon="34.6504536923"><ele>162.05</ele><time>2026-08-18T11:41:36Z</time></trkpt><trkpt lat="59.3242473900" lon="34.6503508464"><ele>162.26</ele><time>2026-08-18T11:41:45Z</time></trkpt><trkpt lat="59.3242819235" lon="34.6502894908"><ele>162.37</ele><time>2026-08-18T11:41:49Z</time></trkpt><trkpt lat="59.3243938219" lon="34.6501035802"><ele>162.02</ele><time>2026-08-18T11:42:03Z</time></trkpt><trkpt lat="59.3244580273" lon="34.6499782708"><ele>161.69</ele><time>2026-08-18T11:42:15Z</time></trkpt><trkpt lat="59.3244710192" lon="34.6499474254"><ele>161.59</ele><time>2026-08-18T11:42:19Z</time></trkpt><trkpt lat="59.3245124258" lon="34.6498674620"><ele>161.80</ele><time>2026-08-18T11:42:32Z</time></trkpt><trkpt lat="59.3245299440" lon="34.6498094592"><ele>161.60</ele><time>2026-08-18T11:42:51Z</time></trkpt><trkpt lat="59.3246030342" lon="34.6497146599"><ele>161.70</ele><time>2026-08-18T11:43:02Z</time></trkpt><trkpt lat="59.3246142659" lon="34.6497010812"><ele>161.63</ele><time>2026-08-18T11:43:03Z</time></trkpt><trkpt lat="59.3246805668" lon="34.6496050246"><ele>161.35</ele><time>2026-08-18T11:43:10Z</time></trkpt><trkpt lat="59.3247320317" lon="34.6494035237"><ele>161.36</ele><time>2026-08-18T11:43:25Z</time></trkpt><trkpt lat="59.3247899506" lon="34.6492775436"><ele>161.34</ele><time>2026-08-18T11:43:34Z</time></trkpt><trkpt lat="59.3249140866" lon="34.6490894537"><ele>161.38</ele><time>2026-08-18T11:43:46Z</time></trkpt><trkpt lat="59.3249503803" lon="34.6490012761"><ele>161.41</ele><time>2026-08-18T11:43:50Z</time></trkpt><trkpt lat="59.3250127416" lon="34.6489052195"><ele>161.25</ele><time>2026-08-18T11:43:58Z</time></trkpt><trkpt lat="59.3251491990" lon="34.6486700233"><ele>161.45</ele><time>2026-08-18T11:44:14Z</time></trkpt><trkpt lat="59.3251754344" lon="34.6486118529"><ele>161.45</ele><time>2026-08-18T11:44:17Z</time></trkpt><trkpt lat="59.3252053577" lon="34.6485870425"><ele>161.97</ele><time>2026-08-18T11:44:20Z</time></trkpt><trkpt lat="59.3252322637" lon="34.6485699434"><ele>161.97</ele><time>2026-08-18T11:44:22Z</time></trkpt><trkpt lat="59.3253865745" lon="34.6483845357"><ele>162.14</ele><time>2026-08-18T11:44:38Z</time></trkpt><trkpt lat="59.3254403863" lon="34.6482962742"><ele>162.17</ele><time>2026-08-18T11:44:44Z</time></trkpt><trkpt lat="59.3254960421" lon="34.6481442265"><ele>162.80</ele><time>2026-08-18T11:44:52Z</time></trkpt><trkpt lat="59.3255512789" lon="34.6479441505"><ele>163.17</ele><time>2026-08-18T11:45:03Z</time></trkpt><trkpt lat="59.3255546317" lon="34.6479261294"><ele>163.29</ele><time>2026-08-18T11:45:04Z</time></trkpt><trkpt lat="59.3256289791" lon="34.6476612613"><ele>163.72</ele><time>2026-08-18T11:45:18Z</time></trkpt><trkpt lat="59.3256451562" lon="34.6475643665"><ele>163.61</ele><time>2026-08-18T11:45:23Z</time></trkpt><trkpt lat="59.3257302325" lon="34.6474071220"><ele>163.85</ele><time>2026-08-18T11:45:34Z</time></trkpt><trkpt lat="59.3257577252" lon="34.6473525558"><ele>164.12</ele><time>2026-08-18T11:45:40Z</time></trkpt><trkpt lat="59.3258197512" lon="34.6472075488"><ele>164.07</ele><time>2026-08-18T11:45:54Z</time></trkpt><trkpt lat="59.3258629180" lon="34.6470209677"><ele>164.33</ele><time>2026-08-18T11:46:07Z</time></trkpt><trkpt lat="59.3258700427" lon="34.6469475422"><ele>164.58</ele><time>2026-08-18T11:46:11Z</time></trkpt><trkpt lat="59.3258954398" lon="34.6467634756"><ele>164.68</ele><time>2026-08-18T11:46:25Z</time></trkpt><trkpt lat="59.3259652611" lon="34.6465004515"><ele>164.45</ele><time>2026-08-18T11:46:39Z</time></trkpt><trkpt lat="59.3260129541" lon="34.6463585459"><ele>165.13</ele><time>2026-08-18T11:46:46Z</time></trkpt><trkpt lat="59.3260333221" lon="34.6462071687"><ele>164.82</ele><time>2026-08-18T11:46:53Z</time></trkpt><trkpt lat="59.3261324801" lon="34.6459743194"><ele>164.26</ele><time>2026-08-18T11:47:06Z</time></trkpt><trkpt lat="59.3261433765" lon="34.6459210943"><ele>163.83</ele><time>2026-08-18T11:47:08Z</time></trkpt><trkpt lat="59.3261601403" lon="34.6458558831"><ele>164.88</ele><time>2026-08-18T11:47:11Z</time></trkpt><trkpt lat="59.3262576219" lon="34.6455998998"><ele>163.72</ele><time>2026-08-18T11:47:25Z</time></trkpt><trkpt lat="59.3262770679" lon="34.6455363650"><ele>163.54</ele><time>2026-08-18T11:47:28Z</time></trkpt><trkpt lat="59.3263683468" lon="34.6452848241"><ele>163.78</ele><time>2026-08-18T11:47:41Z</time></trkpt><trkpt lat="59.3264705222" lon="34.6449878532"><ele>163.77</ele><time>2026-08-18T11:47:54Z</time></trkpt><trkpt lat="59.3264775630" lon="34.6448792238"><ele>163.44</ele><time>2026-08-18T11:48:00Z</time></trkpt><trkpt lat="59.3265428580" lon="34.6446980909"><ele>163.44</ele><time>2026-08-18T11:48:12Z</time></trkpt><trkpt lat="59.3265507370" lon="34.6446579415"><ele>164.08</ele><time>2026-08-18T11:48:14Z</time></trkpt><trkpt lat="59.3266338855" lon="34.6443857811"><ele>163.58</ele><time>2026-08-18T11:48:28Z</time></trkpt><trkpt lat="59.3266434409" lon="34.6443566959"><ele>164.42</ele><time>2026-08-18T11:48:30Z</time></trkpt><trkpt lat="59.3266647309" lon="34.6442251839"><ele>164.13</ele><time>2026-08-18T11:48:41Z</time></trkpt><trkpt lat="59.3266941514" lon="34.6441489924"><ele>163.98</ele><time>2026-08-18T11:49:17Z</time></trkpt><trkpt lat="59.3267303612" lon="34.6439176518"><ele>163.24</ele><time>2026-08-18T11:49:27Z</time></trkpt><trkpt lat="59.3267683312" lon="34.6436092816"><ele>163.29</ele><time>2026-08-18T11:49:41Z</time></trkpt><trkpt lat="59.3267660681" lon="34.6433410607"><ele>163.47</ele><time>2026-08-18T11:49:55Z</time></trkpt><trkpt lat="59.3267640565" lon="34.6432523802"><ele>163.23</ele><time>2026-08-18T11:49:58Z</time></trkpt><trkpt lat="59.3267838378" lon="34.6429761127"><ele>164.11</ele><time>2026-08-18T11:50:12Z</time></trkpt><trkpt lat="59.3268140126" lon="34.6427203808"><ele>164.16</ele><time>2026-08-18T11:50:26Z</time></trkpt><trkpt lat="59.3268629629" lon="34.6425275970"><ele>163.79</ele><time>2026-08-18T11:50:39Z</time></trkpt><trkpt lat="59.3269540742" lon="34.6422930714"><ele>163.46</ele><time>2026-08-18T11:50:52Z</time></trkpt><trkpt lat="59.3269796390" lon="34.6422387566"><ele>164.96</ele><time>2026-08-18T11:50:55Z</time></trkpt><trkpt lat="59.3270605244" lon="34.6420462243"><ele>164.81</ele><time>2026-08-18T11:51:07Z</time></trkpt><trkpt lat="59.3271795474" lon="34.6418181527"><ele>165.00</ele><time>2026-08-18T11:51:20Z</time></trkpt><trkpt lat="59.3272524700" lon="34.6415758319"><ele>164.06</ele><time>2026-08-18T11:51:34Z</time></trkpt><trkpt lat="59.3273384683" lon="34.6414625924"><ele>164.64</ele><time>2026-08-18T11:51:53Z</time></trkpt><trkpt lat="59.3274274841" lon="34.6414745785"><ele>164.83</ele><time>2026-08-18T11:51:59Z</time></trkpt><trkpt lat="59.3274855707" lon="34.6414165758"><ele>164.41</ele><time>2026-08-18T11:52:06Z</time></trkpt><trkpt lat="59.3275662884" lon="34.6413362771"><ele>164.35</ele><time>2026-08-18T11:52:14Z</time></trkpt><trkpt lat="59.3276130594" lon="34.6412838902"><ele>164.62</ele><time>2026-08-18T11:52:18Z</time></trkpt><trkpt lat="59.3277142290" lon="34.6410974767"><ele>163.78</ele><time>2026-08-18T11:52:34Z</time></trkpt><trkpt lat="59.3277124688" lon="34.6411143243"><ele>163.81</ele><time>2026-08-18T11:53:08Z</time></trkpt><trkpt lat="59.3277093675" lon="34.6411323454"><ele>163.60</ele><time>2026-08-18T11:53:59Z</time></trkpt><trkpt lat="59.3277092837" lon="34.6411336865"><ele>163.79</ele><time>2026-08-18T11:54:32Z</time></trkpt><trkpt lat="59.3277159892" lon="34.6411150787"><ele>164.00</ele><time>2026-08-18T11:54:49Z</time></trkpt><trkpt lat="59.3276973814" lon="34.6411225386"><ele>164.07</ele><time>2026-08-18T11:55:12Z</time></trkpt><trkpt lat="59.3276944477" lon="34.6411149949"><ele>163.93</ele><time>2026-08-18T11:55:30Z</time></trkpt><trkpt lat="59.3276957888" lon="34.6411047690"><ele>163.90</ele><time>2026-08-18T11:55:59Z</time></trkpt><trkpt lat="59.3276957888" lon="34.6411089599"><ele>163.45</ele><time>2026-08-18T11:56:28Z</time></trkpt><trkpt lat="59.3276810367" lon="34.6411412302"><ele>163.83</ele><time>2026-08-18T11:56:43Z</time></trkpt><trkpt lat="59.3277031649" lon="34.6411682200"><ele>163.70</ele><time>2026-08-18T11:57:04Z</time></trkpt><trkpt lat="59.3276908435" lon="34.6411446668"><ele>163.51</ele><time>2026-08-18T11:57:25Z</time></trkpt><trkpt lat="59.3276754208" lon="34.6411476843"><ele>163.51</ele><time>2026-08-18T11:57:38Z</time></trkpt><trkpt lat="59.3277015723" lon="34.6411233768"><ele>163.30</ele><time>2026-08-18T11:58:08Z</time></trkpt><trkpt lat="59.3277117144" lon="34.6411341056"><ele>163.03</ele><time>2026-08-18T11:58:28Z</time></trkpt><trkpt lat="59.3276835512" lon="34.6411222871"><ele>163.07</ele><time>2026-08-18T11:58:50Z</time></trkpt><trkpt lat="59.3277132232" lon="34.6411171742"><ele>163.10</ele><time>2026-08-18T11:59:58Z</time></trkpt><trkpt lat="59.3277081940" lon="34.6411032602"><ele>162.82</ele><time>2026-08-18T12:00:42Z</time></trkpt><trkpt lat="59.3277158216" lon="34.6411123965"><ele>163.03</ele><time>2026-08-18T12:01:19Z</time></trkpt><trkpt lat="59.3277229462" lon="34.6411226224"><ele>162.85</ele><time>2026-08-18T12:02:01Z</time></trkpt><trkpt lat="59.3277219404" lon="34.6411296632"><ele>162.80</ele><time>2026-08-18T12:02:48Z</time></trkpt><trkpt lat="59.3277043384" lon="34.6411463432"><ele>162.88</ele><time>2026-08-18T12:03:34Z</time></trkpt><trkpt lat="59.3277095351" lon="34.6411336865"><ele>163.02</ele><time>2026-08-18T12:03:53Z</time></trkpt><trkpt lat="59.3277118821" lon="34.6410992369"><ele>163.17</ele><time>2026-08-18T12:04:30Z</time></trkpt><trkpt lat="59.3277187552" lon="34.6410635300"><ele>163.20</ele><time>2026-08-18T12:04:55Z</time></trkpt><trkpt lat="59.3277228624" lon="34.6410603449"><ele>163.24</ele><time>2026-08-18T12:05:51Z</time></trkpt><trkpt lat="59.3277106248" lon="34.6410262305"><ele>163.68</ele><time>2026-08-18T12:06:19Z</time></trkpt><trkpt lat="59.3277297355" lon="34.6409648750"><ele>163.49</ele><time>2026-08-18T12:06:56Z</time></trkpt><trkpt lat="59.3277345970" lon="34.6407829877"><ele>162.66</ele><time>2026-08-18T12:07:11Z</time></trkpt><trkpt lat="59.3277358543" lon="34.6404980868"><ele>163.04</ele><time>2026-08-18T12:07:29Z</time></trkpt><trkpt lat="59.3277667835" lon="34.6403097454"><ele>163.13</ele><time>2026-08-18T12:07:42Z</time></trkpt><trkpt lat="59.3277669512" lon="34.6402151976"><ele>163.06</ele><time>2026-08-18T12:07:55Z</time></trkpt><trkpt lat="59.3277765904" lon="34.6401992720"><ele>162.35</ele><time>2026-08-18T12:09:03Z</time></trkpt><trkpt lat="59.3277663644" lon="34.6401768923"><ele>162.71</ele><time>2026-08-18T12:09:40Z</time></trkpt><trkpt lat="59.3277490139" lon="34.6400595456"><ele>162.72</ele><time>2026-08-18T12:10:07Z</time></trkpt><trkpt lat="59.3276962917" lon="34.6398991998"><ele>162.63</ele><time>2026-08-18T12:10:22Z</time></trkpt><trkpt lat="59.3276667874" lon="34.6396832820"><ele>162.91</ele><time>2026-08-18T12:10:37Z</time></trkpt><trkpt lat="59.3276048452" lon="34.6394998860"><ele>162.95</ele><time>2026-08-18T12:10:49Z</time></trkpt><trkpt lat="59.3276040908" lon="34.6394610777"><ele>162.36</ele><time>2026-08-18T12:11:09Z</time></trkpt><trkpt lat="59.3276156578" lon="34.6394579764"><ele>160.41</ele><time>2026-08-18T12:11:26Z</time></trkpt><trkpt lat="59.3276161607" lon="34.6394545399"><ele>162.73</ele><time>2026-08-18T12:11:33Z</time></trkpt><trkpt lat="59.3276064377" lon="34.6394338366"><ele>163.18</ele><time>2026-08-18T12:12:14Z</time></trkpt><trkpt lat="59.3276134785" lon="34.6394242812"><ele>162.61</ele><time>2026-08-18T12:12:47Z</time></trkpt><trkpt lat="59.3276120536" lon="34.6393934358"><ele>163.02</ele><time>2026-08-18T12:13:15Z</time></trkpt><trkpt lat="59.3276233692" lon="34.6392373648"><ele>163.02</ele><time>2026-08-18T12:13:44Z</time></trkpt><trkpt lat="59.3276055995" lon="34.6390632726"><ele>163.12</ele><time>2026-08-18T12:13:52Z</time></trkpt><trkpt lat="59.3276001513" lon="34.6388252266"><ele>162.16</ele><time>2026-08-18T12:14:05Z</time></trkpt><trkpt lat="59.3276020791" lon="34.6387573332"><ele>164.50</ele><time>2026-08-18T12:14:13Z</time></trkpt><trkpt lat="59.3276008219" lon="34.6386624500"><ele>163.09</ele><time>2026-08-18T12:14:19Z</time></trkpt><trkpt lat="59.3276417255" lon="34.6386630367"><ele>162.86</ele><time>2026-08-18T12:14:46Z</time></trkpt><trkpt lat="59.3275980558" lon="34.6386537328"><ele>163.46</ele><time>2026-08-18T12:15:48Z</time></trkpt><trkpt lat="59.3275953736" lon="34.6386298444"><ele>163.43</ele><time>2026-08-18T12:16:05Z</time></trkpt><trkpt lat="59.3276233692" lon="34.6386540681"><ele>164.35</ele><time>2026-08-18T12:16:44Z</time></trkpt><trkpt lat="59.3276188429" lon="34.6385995857"><ele>163.33</ele><time>2026-08-18T12:16:59Z</time></trkpt><trkpt lat="59.3275871594" lon="34.6384790540"><ele>163.52</ele><time>2026-08-18T12:17:09Z</time></trkpt><trkpt lat="59.3275406398" lon="34.6383547504"><ele>163.32</ele><time>2026-08-18T12:17:18Z</time></trkpt><trkpt lat="59.3275067769" lon="34.6381971706"><ele>163.35</ele><time>2026-08-18T12:17:30Z</time></trkpt><trkpt lat="59.3274929468" lon="34.6381644811"><ele>163.40</ele><time>2026-08-18T12:17:32Z</time></trkpt><trkpt lat="59.3274589162" lon="34.6379968431"><ele>163.24</ele><time>2026-08-18T12:17:45Z</time></trkpt><trkpt lat="59.3274516240" lon="34.6377619822"><ele>163.60</ele><time>2026-08-18T12:18:05Z</time></trkpt><trkpt lat="59.3274417333" lon="34.6377554443"><ele>163.06</ele><time>2026-08-18T12:18:29Z</time></trkpt><trkpt lat="59.3274515402" lon="34.6377529297"><ele>161.34</ele><time>2026-08-18T12:18:43Z</time></trkpt><trkpt lat="59.3274467625" lon="34.6377388481"><ele>163.77</ele><time>2026-08-18T12:19:08Z</time></trkpt><trkpt lat="59.3274310883" lon="34.6377172228"><ele>163.58</ele><time>2026-08-18T12:19:33Z</time></trkpt><trkpt lat="59.3274423201" lon="34.6375485789"><ele>163.66</ele><time>2026-08-18T12:20:08Z</time></trkpt><trkpt lat="59.3274248857" lon="34.6373809408"><ele>163.79</ele><time>2026-08-18T12:20:19Z</time></trkpt><trkpt lat="59.3274058588" lon="34.6372287255"><ele>163.77</ele><time>2026-08-18T12:20:32Z</time></trkpt><trkpt lat="59.3274210300" lon="34.6370524541"><ele>163.88</ele><time>2026-08-18T12:20:44Z</time></trkpt><trkpt lat="59.3274256401" lon="34.6369247977"><ele>163.13</ele><time>2026-08-18T12:20:55Z</time></trkpt><trkpt lat="59.3274297472" lon="34.6369231213"><ele>164.45</ele><time>2026-08-18T12:21:05Z</time></trkpt><trkpt lat="59.3274379615" lon="34.6369520389"><ele>162.99</ele><time>2026-08-18T12:21:28Z</time></trkpt><trkpt lat="59.3274387997" lon="34.6369269770"><ele>163.48</ele><time>2026-08-18T12:22:19Z</time></trkpt><trkpt lat="59.3274298310" lon="34.6369210258"><ele>163.49</ele><time>2026-08-18T12:22:42Z</time></trkpt><trkpt lat="59.3274294958" lon="34.6369149908"><ele>163.28</ele><time>2026-08-18T12:23:13Z</time></trkpt><trkpt lat="59.3274357822" lon="34.6369254682"><ele>163.20</ele><time>2026-08-18T12:24:05Z</time></trkpt><trkpt lat="59.3274337705" lon="34.6368729975"><ele>163.77</ele><time>2026-08-18T12:24:32Z</time></trkpt><trkpt lat="59.3274231255" lon="34.6367850713"><ele>164.21</ele><time>2026-08-18T12:24:47Z</time></trkpt><trkpt lat="59.3274176773" lon="34.6366400644"><ele>164.76</ele><time>2026-08-18T12:25:03Z</time></trkpt><trkpt lat="59.3274191860" lon="34.6365083847"><ele>165.12</ele><time>2026-08-18T12:25:23Z</time></trkpt><trkpt lat="59.3274034280" lon="34.6363590192"><ele>164.71</ele><time>2026-08-18T12:25:39Z</time></trkpt><trkpt lat="59.3274245504" lon="34.6362733562"><ele>164.47</ele><time>2026-08-18T12:25:51Z</time></trkpt><trkpt lat="59.3274352793" lon="34.6362797264"><ele>164.70</ele><time>2026-08-18T12:26:13Z</time></trkpt><trkpt lat="59.3274272326" lon="34.6362865996"><ele>164.61</ele><time>2026-08-18T12:27:01Z</time></trkpt><trkpt lat="59.3274373747" lon="34.6362507250"><ele>164.86</ele><time>2026-08-18T12:27:28Z</time></trkpt><trkpt lat="59.3274447508" lon="34.6362443548"><ele>164.74</ele><time>2026-08-18T12:27:57Z</time></trkpt><trkpt lat="59.3274220359" lon="34.6361991763"><ele>164.69</ele><time>2026-08-18T12:28:29Z</time></trkpt><trkpt lat="59.3274277356" lon="34.6360981744"><ele>165.04</ele><time>2026-08-18T12:28:43Z</time></trkpt><trkpt lat="59.3274045177" lon="34.6360190492"><ele>165.58</ele><time>2026-08-18T12:29:00Z</time></trkpt><trkpt lat="59.3273997400" lon="34.6359251719"><ele>165.71</ele><time>2026-08-18T12:29:09Z</time></trkpt><trkpt lat="59.3273880892" lon="34.6358074900"><ele>165.50</ele><time>2026-08-18T12:29:23Z</time></trkpt><trkpt lat="59.3273550645" lon="34.6357080806"><ele>166.35</ele><time>2026-08-18T12:29:36Z</time></trkpt><trkpt lat="59.3273484427" lon="34.6356915683"><ele>165.41</ele><time>2026-08-18T12:29:38Z</time></trkpt><trkpt lat="59.3273148313" lon="34.6356290393"><ele>165.03</ele><time>2026-08-18T12:29:53Z</time></trkpt><trkpt lat="59.3273055274" lon="34.6354911570"><ele>164.35</ele><time>2026-08-18T12:30:05Z</time></trkpt><trkpt lat="59.3272766937" lon="34.6354109421"><ele>165.00</ele><time>2026-08-18T12:30:17Z</time></trkpt><trkpt lat="59.3272701558" lon="34.6353608184"><ele>164.87</ele><time>2026-08-18T12:30:35Z</time></trkpt><trkpt lat="59.3272733409" lon="34.6353427973"><ele>165.01</ele><time>2026-08-18T12:30:55Z</time></trkpt><trkpt lat="59.3272683956" lon="34.6353093535"><ele>164.59</ele><time>2026-08-18T12:31:37Z</time></trkpt><trkpt lat="59.3272695690" lon="34.6353127901"><ele>164.33</ele><time>2026-08-18T12:32:09Z</time></trkpt><trkpt lat="59.3272576667" lon="34.6352170687"><ele>164.98</ele><time>2026-08-18T12:32:44Z</time></trkpt><trkpt lat="59.3272655457" lon="34.6350751631"><ele>165.05</ele><time>2026-08-18T12:32:57Z</time></trkpt><trkpt lat="59.3272549845" lon="34.6350134723"><ele>165.02</ele><time>2026-08-18T12:33:43Z</time></trkpt><trkpt lat="59.3272670545" lon="34.6349630971"><ele>165.41</ele><time>2026-08-18T12:34:50Z</time></trkpt><trkpt lat="59.3272623606" lon="34.6347735822"><ele>165.44</ele><time>2026-08-18T12:35:02Z</time></trkpt><trkpt lat="59.3272419926" lon="34.6345803794"><ele>165.66</ele><time>2026-08-18T12:35:15Z</time></trkpt><trkpt lat="59.3272062857" lon="34.6344743483"><ele>165.35</ele><time>2026-08-18T12:35:29Z</time></trkpt><trkpt lat="59.3272083811" lon="34.6345049422"><ele>165.20</ele><time>2026-08-18T12:35:43Z</time></trkpt><trkpt lat="59.3272124883" lon="34.6345260646"><ele>165.11</ele><time>2026-08-18T12:36:08Z</time></trkpt><trkpt lat="59.3272137456" lon="34.6344962250"><ele>165.07</ele><time>2026-08-18T12:36:40Z</time></trkpt><trkpt lat="59.3272178527" lon="34.6345094685"><ele>164.82</ele><time>2026-08-18T12:37:08Z</time></trkpt><trkpt lat="59.3271979876" lon="34.6345423255"><ele>164.83</ele><time>2026-08-18T12:37:22Z</time></trkpt><trkpt lat="59.3272291683" lon="34.6345157549"><ele>164.66</ele><time>2026-08-18T12:37:43Z</time></trkpt><trkpt lat="59.3272292521" lon="34.6344787907"><ele>164.67</ele><time>2026-08-18T12:38:17Z</time></trkpt><trkpt lat="59.3272266537" lon="34.6344781201"><ele>164.94</ele><time>2026-08-18T12:38:46Z</time></trkpt><trkpt lat="59.3272235524" lon="34.6345013380"><ele>164.86</ele><time>2026-08-18T12:39:09Z</time></trkpt><trkpt lat="59.3272403162" lon="34.6345128212"><ele>164.54</ele><time>2026-08-18T12:39:40Z</time></trkpt><trkpt lat="59.3272283301" lon="34.6344885975"><ele>164.65</ele><time>2026-08-18T12:40:03Z</time></trkpt><trkpt lat="59.3272454292" lon="34.6344699897"><ele>164.86</ele><time>2026-08-18T12:40:25Z</time></trkpt><trkpt lat="59.3272395618" lon="34.6344614401"><ele>162.96</ele><time>2026-08-18T12:40:45Z</time></trkpt><trkpt lat="59.3272286654" lon="34.6344573330"><ele>165.69</ele><time>2026-08-18T12:40:54Z</time></trkpt><trkpt lat="59.3272055313" lon="34.6344417427"><ele>164.92</ele><time>2026-08-18T12:41:15Z</time></trkpt><trkpt lat="59.3272098899" lon="34.6344418265"><ele>163.85</ele><time>2026-08-18T12:41:44Z</time></trkpt><trkpt lat="59.3272079621" lon="34.6344353724"><ele>165.19</ele><time>2026-08-18T12:41:49Z</time></trkpt><trkpt lat="59.3272003345" lon="34.6342961490"><ele>164.98</ele><time>2026-08-18T12:42:13Z</time></trkpt><trkpt lat="59.3271974847" lon="34.6341656428"><ele>165.00</ele><time>2026-08-18T12:42:24Z</time></trkpt><trkpt lat="59.3271690700" lon="34.6339924727"><ele>164.99</ele><time>2026-08-18T12:42:36Z</time></trkpt><trkpt lat="59.3271440919" lon="34.6339128446"><ele>165.91</ele><time>2026-08-18T12:42:43Z</time></trkpt><trkpt lat="59.3271483667" lon="34.6337801591"><ele>165.05</ele><time>2026-08-18T12:42:58Z</time></trkpt><trkpt lat="59.3271410745" lon="34.6337484755"><ele>162.11</ele><time>2026-08-18T12:43:03Z</time></trkpt><trkpt lat="59.3271350395" lon="34.6337244194"><ele>165.76</ele><time>2026-08-18T12:43:07Z</time></trkpt><trkpt lat="59.3271344528" lon="34.6337223239"><ele>165.27</ele><time>2026-08-18T12:43:08Z</time></trkpt><trkpt lat="59.3271537311" lon="34.6335811727"><ele>165.24</ele><time>2026-08-18T12:43:30Z</time></trkpt><trkpt lat="59.3271556590" lon="34.6334515885"><ele>165.50</ele><time>2026-08-18T12:43:41Z</time></trkpt><trkpt lat="59.3271431699" lon="34.6333658416"><ele>164.89</ele><time>2026-08-18T12:44:04Z</time></trkpt><trkpt lat="59.3271357939" lon="34.6333544422"><ele>166.33</ele><time>2026-08-18T12:44:11Z</time></trkpt><trkpt lat="59.3271288369" lon="34.6333747264"><ele>165.51</ele><time>2026-08-18T12:45:01Z</time></trkpt><trkpt lat="59.3271406554" lon="34.6333395224"><ele>165.99</ele><time>2026-08-18T12:45:29Z</time></trkpt><trkpt lat="59.3271131627" lon="34.6333562862"><ele>166.14</ele><time>2026-08-18T12:46:03Z</time></trkpt><trkpt lat="59.3271154258" lon="34.6333949268"><ele>165.88</ele><time>2026-08-18T12:46:38Z</time></trkpt><trkpt lat="59.3271018472" lon="34.6333838627"><ele>166.31</ele><time>2026-08-18T12:47:11Z</time></trkpt><trkpt lat="59.3270757794" lon="34.6331548691"><ele>166.04</ele><time>2026-08-18T12:47:35Z</time></trkpt><trkpt lat="59.3270256557" lon="34.6329271328"><ele>165.17</ele><time>2026-08-18T12:47:51Z</time></trkpt><trkpt lat="59.3269843329" lon="34.6327434853"><ele>166.34</ele><time>2026-08-18T12:48:19Z</time></trkpt><trkpt lat="59.3269698322" lon="34.6325817984"><ele>166.23</ele><time>2026-08-18T12:48:35Z</time></trkpt><trkpt lat="59.3269792199" lon="34.6326152422"><ele>166.45</ele><time>2026-08-18T12:49:38Z</time></trkpt><trkpt lat="59.3269305211" lon="34.6325183474"><ele>166.72</ele><time>2026-08-18T12:50:21Z</time></trkpt><trkpt lat="59.3269688264" lon="34.6324699000"><ele>166.95</ele><time>2026-08-18T12:51:15Z</time></trkpt><trkpt lat="59.3269691616" lon="34.6322184429"><ele>166.93</ele><time>2026-08-18T12:51:30Z</time></trkpt><trkpt lat="59.3270000909" lon="34.6319988370"><ele>166.64</ele><time>2026-08-18T12:51:46Z</time></trkpt><trkpt lat="59.3270218000" lon="34.6318694204"><ele>165.94</ele><time>2026-08-18T12:52:03Z</time></trkpt><trkpt lat="59.3270118255" lon="34.6316785645"><ele>166.40</ele><time>2026-08-18T12:52:17Z</time></trkpt><trkpt lat="59.3270172738" lon="34.6316125989"><ele>166.22</ele><time>2026-08-18T12:52:42Z</time></trkpt><trkpt lat="59.3270194530" lon="34.6315858606"><ele>166.28</ele><time>2026-08-18T12:53:10Z</time></trkpt><trkpt lat="59.3270055391" lon="34.6315650735"><ele>166.55</ele><time>2026-08-18T12:53:55Z</time></trkpt><trkpt lat="59.3270311877" lon="34.6315602958"><ele>166.54</ele><time>2026-08-18T12:54:19Z</time></trkpt><trkpt lat="59.3270462751" lon="34.6314145345"><ele>166.67</ele><time>2026-08-18T12:54:47Z</time></trkpt><trkpt lat="59.3270819820" lon="34.6312789991"><ele>166.88</ele><time>2026-08-18T12:55:01Z</time></trkpt><trkpt lat="59.3270955607" lon="34.6310990397"><ele>166.58</ele><time>2026-08-18T12:55:17Z</time></trkpt><trkpt lat="59.3270310201" lon="34.6311001293"><ele>166.50</ele><time>2026-08-18T12:55:33Z</time></trkpt><trkpt lat="59.3270024378" lon="34.6311128698"><ele>166.44</ele><time>2026-08-18T12:55:58Z</time></trkpt><trkpt lat="59.3271030206" lon="34.6309691202"><ele>166.95</ele><time>2026-08-18T12:56:16Z</time></trkpt><trkpt lat="59.3271521386" lon="34.6308820322"><ele>167.01</ele><time>2026-08-18T12:56:31Z</time></trkpt><trkpt lat="59.3271339498" lon="34.6308125462"><ele>166.95</ele><time>2026-08-18T12:56:45Z</time></trkpt><trkpt lat="59.3271094747" lon="34.6308050863"><ele>166.32</ele><time>2026-08-18T12:57:00Z</time></trkpt><trkpt lat="59.3271057867" lon="34.6308104508"><ele>166.30</ele><time>2026-08-18T12:57:50Z</time></trkpt><trkpt lat="59.3271102291" lon="34.6307717264"><ele>166.30</ele><time>2026-08-18T12:58:14Z</time></trkpt><trkpt lat="59.3271141686" lon="34.6307802759"><ele>166.29</ele><time>2026-08-18T12:59:01Z</time></trkpt><trkpt lat="59.3270997517" lon="34.6307232790"><ele>166.31</ele><time>2026-08-18T12:59:20Z</time></trkpt><trkpt lat="59.3270891905" lon="34.6305296570"><ele>166.94</ele><time>2026-08-18T12:59:31Z</time></trkpt><trkpt lat="59.3270935491" lon="34.6304981411"><ele>166.47</ele><time>2026-08-18T12:59:56Z</time></trkpt><trkpt lat="59.3270316906" lon="34.6303852368"><ele>166.70</ele><time>2026-08-18T13:00:10Z</time></trkpt><trkpt lat="59.3269621208" lon="34.6302399784"><ele>166.77</ele><time>2026-08-18T13:00:25Z</time></trkpt><trkpt lat="59.3268978316" lon="34.6300735977"><ele>166.75</ele><time>2026-08-18T13:00:43Z</time></trkpt><trkpt lat="59.3268625438" lon="34.6300045308"><ele>166.01</ele><time>2026-08-18T13:00:57Z</time></trkpt><trkpt lat="59.3268596940" lon="34.6299968194"><ele>166.24</ele><time>2026-08-18T13:01:38Z</time></trkpt><trkpt lat="59.3268597778" lon="34.6299352963"><ele>166.31</ele><time>2026-08-18T13:02:10Z</time></trkpt><trkpt lat="59.3268534914" lon="34.6299344581"><ele>166.12</ele><time>2026-08-18T13:02:45Z</time></trkpt><trkpt lat="59.3268586881" lon="34.6297788899"><ele>166.35</ele><time>2026-08-18T13:03:04Z</time></trkpt><trkpt lat="59.3268527370" lon="34.6295855194"><ele>166.39</ele><time>2026-08-18T13:03:17Z</time></trkpt><trkpt lat="59.3268452771" lon="34.6294188872"><ele>166.30</ele><time>2026-08-18T13:03:30Z</time></trkpt><trkpt lat="59.3268366437" lon="34.6292567812"><ele>166.59</ele><time>2026-08-18T13:03:42Z</time></trkpt><trkpt lat="59.3268122524" lon="34.6291293763"><ele>166.15</ele><time>2026-08-18T13:03:57Z</time></trkpt><trkpt lat="59.3268139288" lon="34.6291324776"><ele>165.97</ele><time>2026-08-18T13:04:23Z</time></trkpt><trkpt lat="59.3268057983" lon="34.6290832758"><ele>166.06</ele><time>2026-08-18T13:05:01Z</time></trkpt><trkpt lat="59.3268010207" lon="34.6290723793"><ele>165.35</ele><time>2026-08-18T13:05:29Z</time></trkpt><trkpt lat="59.3267901242" lon="34.6289763227"><ele>165.65</ele><time>2026-08-18T13:05:56Z</time></trkpt><trkpt lat="59.3267773837" lon="34.6288836189"><ele>165.64</ele><time>2026-08-18T13:06:11Z</time></trkpt><trkpt lat="59.3268021941" lon="34.6287710499"><ele>166.03</ele><time>2026-08-18T13:06:23Z</time></trkpt><trkpt lat="59.3267971650" lon="34.6285734884"><ele>166.18</ele><time>2026-08-18T13:06:38Z</time></trkpt><trkpt lat="59.3268051278" lon="34.6284166630"><ele>166.56</ele><time>2026-08-18T13:06:51Z</time></trkpt><trkpt lat="59.3268466182" lon="34.6283795312"><ele>167.50</ele><time>2026-08-18T13:07:09Z</time></trkpt><trkpt lat="59.3269045372" lon="34.6284081973"><ele>167.68</ele><time>2026-08-18T13:07:24Z</time></trkpt><trkpt lat="59.3269189540" lon="34.6283888351"><ele>167.82</ele><time>2026-08-18T13:07:49Z</time></trkpt><trkpt lat="59.3269139249" lon="34.6283726580"><ele>167.96</ele><time>2026-08-18T13:08:34Z</time></trkpt><trkpt lat="59.3269266654" lon="34.6283842251"><ele>167.74</ele><time>2026-08-18T13:09:19Z</time></trkpt><trkpt lat="59.3268566765" lon="34.6284180880"><ele>166.18</ele><time>2026-08-18T13:09:43Z</time></trkpt><trkpt lat="59.3267938960" lon="34.6283899248"><ele>165.98</ele><time>2026-08-18T13:10:07Z</time></trkpt><trkpt lat="59.3267958239" lon="34.6281753480"><ele>166.32</ele><time>2026-08-18T13:10:22Z</time></trkpt><trkpt lat="59.3267802335" lon="34.6281514596"><ele>166.39</ele><time>2026-08-18T13:10:37Z</time></trkpt><trkpt lat="59.3267463706" lon="34.6280533914"><ele>165.12</ele><time>2026-08-18T13:10:48Z</time></trkpt><trkpt lat="59.3267104123" lon="34.6280281618"><ele>165.60</ele><time>2026-08-18T13:11:00Z</time></trkpt><trkpt lat="59.3266814947" lon="34.6279612742"><ele>165.02</ele><time>2026-08-18T13:11:18Z</time></trkpt><trkpt lat="59.3266579416" lon="34.6278218832"><ele>165.22</ele><time>2026-08-18T13:11:32Z</time></trkpt><trkpt lat="59.3266233243" lon="34.6277054586"><ele>165.09</ele><time>2026-08-18T13:11:52Z</time></trkpt><trkpt lat="59.3265984301" lon="34.6276846714"><ele>165.13</ele><time>2026-08-18T13:12:23Z</time></trkpt><trkpt lat="59.3265832588" lon="34.6276510600"><ele>165.16</ele><time>2026-08-18T13:13:08Z</time></trkpt><trkpt lat="59.3265720271" lon="34.6276076417"><ele>165.10</ele><time>2026-08-18T13:13:37Z</time></trkpt><trkpt lat="59.3265895452" lon="34.6275332943"><ele>165.44</ele><time>2026-08-18T13:14:13Z</time></trkpt><trkpt lat="59.3265544251" lon="34.6273641475"><ele>165.84</ele><time>2026-08-18T13:14:25Z</time></trkpt><trkpt lat="59.3265591189" lon="34.6272094175"><ele>165.48</ele><time>2026-08-18T13:14:40Z</time></trkpt><trkpt lat="59.3265808281" lon="34.6270388458"><ele>165.47</ele><time>2026-08-18T13:14:55Z</time></trkpt><trkpt lat="59.3266203906" lon="34.6268991195"><ele>163.58</ele><time>2026-08-18T13:15:10Z</time></trkpt><trkpt lat="59.3266103324" lon="34.6268403623"><ele>166.15</ele><time>2026-08-18T13:15:15Z</time></trkpt><trkpt lat="59.3266038783" lon="34.6267831977"><ele>165.63</ele><time>2026-08-18T13:15:44Z</time></trkpt><trkpt lat="59.3266022857" lon="34.6267357562"><ele>165.55</ele><time>2026-08-18T13:16:31Z</time></trkpt><trkpt lat="59.3266024534" lon="34.6267162263"><ele>165.56</ele><time>2026-08-18T13:16:57Z</time></trkpt><trkpt lat="59.3265934009" lon="34.6266367659"><ele>166.03</ele><time>2026-08-18T13:17:17Z</time></trkpt><trkpt lat="59.3265479710" lon="34.6266010590"><ele>166.48</ele><time>2026-08-18T13:17:29Z</time></trkpt><trkpt lat="59.3265480548" lon="34.6264791861"><ele>166.83</ele><time>2026-08-18T13:17:47Z</time></trkpt><trkpt lat="59.3265720271" lon="34.6263313293"><ele>166.76</ele><time>2026-08-18T13:18:00Z</time></trkpt><trkpt lat="59.3265420198" lon="34.6262120549"><ele>167.00</ele><time>2026-08-18T13:18:14Z</time></trkpt><trkpt lat="59.3265366554" lon="34.6260621864"><ele>167.79</ele><time>2026-08-18T13:18:28Z</time></trkpt><trkpt lat="59.3265192211" lon="34.6261070296"><ele>167.03</ele><time>2026-08-18T13:18:54Z</time></trkpt><trkpt lat="59.3265152816" lon="34.6260799561"><ele>166.96</ele><time>2026-08-18T13:19:17Z</time></trkpt><trkpt lat="59.3265317939" lon="34.6260616835"><ele>167.06</ele><time>2026-08-18T13:19:53Z</time></trkpt><trkpt lat="59.3265374936" lon="34.6260535531"><ele>166.83</ele><time>2026-08-18T13:20:52Z</time></trkpt><trkpt lat="59.3265381642" lon="34.6259430796"><ele>167.40</ele><time>2026-08-18T13:21:02Z</time></trkpt><trkpt lat="59.3265291955" lon="34.6258744318"><ele>167.78</ele><time>2026-08-18T13:21:15Z</time></trkpt><trkpt lat="59.3265146948" lon="34.6258674748"><ele>167.43</ele><time>2026-08-18T13:21:44Z</time></trkpt><trkpt lat="59.3265174609" lon="34.6258658823"><ele>167.49</ele><time>2026-08-18T13:22:35Z</time></trkpt><trkpt lat="59.3265234958" lon="34.6258737613"><ele>167.39</ele><time>2026-08-18T13:23:15Z</time></trkpt><trkpt lat="59.3265311234" lon="34.6258042753"><ele>167.03</ele><time>2026-08-18T13:23:38Z</time></trkpt><trkpt lat="59.3265243340" lon="34.6256075520"><ele>166.34</ele><time>2026-08-18T13:23:50Z</time></trkpt><trkpt lat="59.3265119288" lon="34.6254734416"><ele>166.62</ele><time>2026-08-18T13:24:02Z</time></trkpt><trkpt lat="59.3265232444" lon="34.6254486311"><ele>164.57</ele><time>2026-08-18T13:24:10Z</time></trkpt><trkpt lat="59.3264999427" lon="34.6253717691"><ele>166.49</ele><time>2026-08-18T13:24:16Z</time></trkpt><trkpt lat="59.3264923990" lon="34.6252142731"><ele>166.29</ele><time>2026-08-18T13:24:27Z</time></trkpt><trkpt lat="59.3264647387" lon="34.6250941604"><ele>166.04</ele><time>2026-08-18T13:24:37Z</time></trkpt><trkpt lat="59.3264245894" lon="34.6250266861"><ele>166.63</ele><time>2026-08-18T13:24:52Z</time></trkpt><trkpt lat="59.3264284451" lon="34.6249839384"><ele>166.07</ele><time>2026-08-18T13:25:50Z</time></trkpt><trkpt lat="59.3264148664" lon="34.6249450464"><ele>165.98</ele><time>2026-08-18T13:26:27Z</time></trkpt><trkpt lat="59.3264311273" lon="34.6248256881"><ele>165.95</ele><time>2026-08-18T13:26:52Z</time></trkpt><trkpt lat="59.3264333904" lon="34.6246538591"><ele>165.79</ele><time>2026-08-18T13:27:08Z</time></trkpt><trkpt lat="59.3264011201" lon="34.6245188266"><ele>166.92</ele><time>2026-08-18T13:27:23Z</time></trkpt><trkpt lat="59.3263993599" lon="34.6243498474"><ele>166.85</ele><time>2026-08-18T13:27:38Z</time></trkpt><trkpt lat="59.3263712805" lon="34.6241264697"><ele>166.48</ele><time>2026-08-18T13:27:55Z</time></trkpt><trkpt lat="59.3263702746" lon="34.6240386274"><ele>166.38</ele><time>2026-08-18T13:28:26Z</time></trkpt><trkpt lat="59.3263444584" lon="34.6240247972"><ele>166.33</ele><time>2026-08-18T13:29:11Z</time></trkpt><trkpt lat="59.3263677601" lon="34.6240505297"><ele>166.34</ele><time>2026-08-18T13:29:40Z</time></trkpt><trkpt lat="59.3263491523" lon="34.6239243820"><ele>166.61</ele><time>2026-08-18T13:30:05Z</time></trkpt><trkpt lat="59.3263384234" lon="34.6237577498"><ele>167.08</ele><time>2026-08-18T13:30:16Z</time></trkpt><trkpt lat="59.3263093382" lon="34.6235255711"><ele>167.21</ele><time>2026-08-18T13:30:32Z</time></trkpt><trkpt lat="59.3263011239" lon="34.6233495511"><ele>166.40</ele><time>2026-08-18T13:30:44Z</time></trkpt><trkpt lat="59.3262944184" lon="34.6232265886"><ele>165.75</ele><time>2026-08-18T13:30:57Z</time></trkpt><trkpt lat="59.3262785766" lon="34.6231279336"><ele>166.30</ele><time>2026-08-18T13:31:25Z</time></trkpt><trkpt lat="59.3262485694" lon="34.6230934840"><ele>166.72</ele><time>2026-08-18T13:32:04Z</time></trkpt><trkpt lat="59.3262719549" lon="34.6230680868"><ele>166.72</ele><time>2026-08-18T13:32:28Z</time></trkpt><trkpt lat="59.3262749724" lon="34.6229450405"><ele>166.87</ele><time>2026-08-18T13:33:02Z</time></trkpt><trkpt lat="59.3262646627" lon="34.6227056533"><ele>166.94</ele><time>2026-08-18T13:33:18Z</time></trkpt><trkpt lat="59.3262905627" lon="34.6225841995"><ele>167.10</ele><time>2026-08-18T13:33:30Z</time></trkpt><trkpt lat="59.3262698594" lon="34.6223302279"><ele>167.70</ele><time>2026-08-18T13:33:50Z</time></trkpt><trkpt lat="59.3262192328" lon="34.6222843789"><ele>167.26</ele><time>2026-08-18T13:34:09Z</time></trkpt><trkpt lat="59.3262517545" lon="34.6222799364"><ele>167.05</ele><time>2026-08-18T13:34:26Z</time></trkpt><trkpt lat="59.3262424506" lon="34.6222254541"><ele>167.30</ele><time>2026-08-18T13:35:09Z</time></trkpt><trkpt lat="59.3262562808" lon="34.6221723966"><ele>166.90</ele><time>2026-08-18T13:35:43Z</time></trkpt><trkpt lat="59.3262371700" lon="34.6221729834"><ele>166.86</ele><time>2026-08-18T13:36:34Z</time></trkpt><trkpt lat="59.3262347393" lon="34.6219915990"><ele>167.00</ele><time>2026-08-18T13:36:48Z</time></trkpt><trkpt lat="59.3262387626" lon="34.6217807941"><ele>168.64</ele><time>2026-08-18T13:37:03Z</time></trkpt><trkpt lat="59.3262286205" lon="34.6216983162"><ele>168.55</ele><time>2026-08-18T13:37:15Z</time></trkpt><trkpt lat="59.3262300454" lon="34.6215438377"><ele>167.46</ele><time>2026-08-18T13:37:28Z</time></trkpt><trkpt lat="59.3262544367" lon="34.6214159299"><ele>165.65</ele><time>2026-08-18T13:37:42Z</time></trkpt><trkpt lat="59.3262469769" lon="34.6213566698"><ele>168.04</ele><time>2026-08-18T13:37:47Z</time></trkpt><trkpt lat="59.3262382597" lon="34.6213442646"><ele>168.08</ele><time>2026-08-18T13:37:49Z</time></trkpt><trkpt lat="59.3262119405" lon="34.6212788858"><ele>167.73</ele><time>2026-08-18T13:38:02Z</time></trkpt><trkpt lat="59.3261807598" lon="34.6212649718"><ele>167.92</ele><time>2026-08-18T13:38:34Z</time></trkpt><trkpt lat="59.3261802569" lon="34.6212116629"><ele>168.05</ele><time>2026-08-18T13:39:13Z</time></trkpt><trkpt lat="59.3262062408" lon="34.6211873554"><ele>167.97</ele><time>2026-08-18T13:39:40Z</time></trkpt><trkpt lat="59.3261972722" lon="34.6212038677"><ele>167.87</ele><time>2026-08-18T13:40:11Z</time></trkpt><trkpt lat="59.3261910696" lon="34.6210673265"><ele>167.52</ele><time>2026-08-18T13:40:25Z</time></trkpt><trkpt lat="59.3261616491" lon="34.6209235769"><ele>167.85</ele><time>2026-08-18T13:40:46Z</time></trkpt><trkpt lat="59.3261460587" lon="34.6207642369"><ele>167.93</ele><time>2026-08-18T13:41:02Z</time></trkpt><trkpt lat="59.3261422869" lon="34.6205458883"><ele>167.41</ele><time>2026-08-18T13:41:17Z</time></trkpt><trkpt lat="59.3261540215" lon="34.6203762386"><ele>167.42</ele><time>2026-08-18T13:41:37Z</time></trkpt><trkpt lat="59.3261033949" lon="34.6203337424"><ele>166.98</ele><time>2026-08-18T13:41:49Z</time></trkpt><trkpt lat="59.3260495830" lon="34.6202207543"><ele>167.23</ele><time>2026-08-18T13:42:03Z</time></trkpt><trkpt lat="59.3260290474" lon="34.6202089358"><ele>166.93</ele><time>2026-08-18T13:42:20Z</time></trkpt><trkpt lat="59.3260182347" lon="34.6202060860"><ele>165.71</ele><time>2026-08-18T13:42:33Z</time></trkpt><trkpt lat="59.3260136247" lon="34.6202300582"><ele>167.27</ele><time>2026-08-18T13:42:49Z</time></trkpt><trkpt lat="59.3260206655" lon="34.6202253643"><ele>166.96</ele><time>2026-08-18T13:43:17Z</time></trkpt><trkpt lat="59.3260075897" lon="34.6201961953"><ele>166.97</ele><time>2026-08-18T13:43:45Z</time></trkpt><trkpt lat="59.3259911612" lon="34.6200621687"><ele>167.23</ele><time>2026-08-18T13:44:20Z</time></trkpt><trkpt lat="59.3259895686" lon="34.6198696364"><ele>167.25</ele><time>2026-08-18T13:44:34Z</time></trkpt><trkpt lat="59.3259773310" lon="34.6197309997"><ele>167.18</ele><time>2026-08-18T13:44:48Z</time></trkpt><trkpt lat="59.3259351701" lon="34.6195465978"><ele>167.10</ele><time>2026-08-18T13:45:02Z</time></trkpt><trkpt lat="59.3259182386" lon="34.6194102243"><ele>167.56</ele><time>2026-08-18T13:45:15Z</time></trkpt><trkpt lat="59.3259264529" lon="34.6193546522"><ele>167.43</ele><time>2026-08-18T13:45:50Z</time></trkpt><trkpt lat="59.3259262852" lon="34.6193694882"><ele>167.02</ele><time>2026-08-18T13:46:36Z</time></trkpt><trkpt lat="59.3259212561" lon="34.6193381399"><ele>167.16</ele><time>2026-08-18T13:47:00Z</time></trkpt><trkpt lat="59.3259099405" lon="34.6192481183"><ele>167.57</ele><time>2026-08-18T13:47:27Z</time></trkpt><trkpt lat="59.3258555420" lon="34.6190215554"><ele>167.39</ele><time>2026-08-18T13:47:39Z</time></trkpt><trkpt lat="59.3258594815" lon="34.6187815815"><ele>167.37</ele><time>2026-08-18T13:47:53Z</time></trkpt><trkpt lat="59.3258885667" lon="34.6185721178"><ele>167.94</ele><time>2026-08-18T13:48:08Z</time></trkpt><trkpt lat="59.3258994631" lon="34.6184517536"><ele>169.24</ele><time>2026-08-18T13:48:27Z</time></trkpt><trkpt lat="59.3259171490" lon="34.6183618996"><ele>169.23</ele><time>2026-08-18T13:48:44Z</time></trkpt><trkpt lat="59.3259462342" lon="34.6183505841"><ele>167.73</ele><time>2026-08-18T13:49:01Z</time></trkpt><trkpt lat="59.3259457313" lon="34.6183525957"><ele>169.60</ele><time>2026-08-18T13:49:18Z</time></trkpt><trkpt lat="59.3259303924" lon="34.6183003765"><ele>169.37</ele><time>2026-08-18T13:49:42Z</time></trkpt><trkpt lat="59.3259049952" lon="34.6182247717"><ele>169.13</ele><time>2026-08-18T13:50:27Z</time></trkpt><trkpt lat="59.3259303924" lon="34.6180012263"><ele>168.71</ele><time>2026-08-18T13:50:43Z</time></trkpt><trkpt lat="59.3259776663" lon="34.6176499408"><ele>168.40</ele><time>2026-08-18T13:51:02Z</time></trkpt><trkpt lat="59.3260293826" lon="34.6174288262"><ele>168.49</ele><time>2026-08-18T13:51:18Z</time></trkpt><trkpt lat="59.3260429613" lon="34.6172170155"><ele>169.20</ele><time>2026-08-18T13:51:34Z</time></trkpt><trkpt lat="59.3260529358" lon="34.6171741839"><ele>169.78</ele><time>2026-08-18T13:51:37Z</time></trkpt><trkpt lat="59.3261289597" lon="34.6171369683"><ele>171.17</ele><time>2026-08-18T13:51:50Z</time></trkpt><trkpt lat="59.3261461426" lon="34.6171165165"><ele>171.23</ele><time>2026-08-18T13:52:02Z</time></trkpt><trkpt lat="59.3261621520" lon="34.6171996649"><ele>171.44</ele><time>2026-08-18T13:52:44Z</time></trkpt><trkpt lat="59.3261392694" lon="34.6171578392"><ele>171.44</ele><time>2026-08-18T13:53:20Z</time></trkpt><trkpt lat="59.3261471484" lon="34.6171223000"><ele>171.47</ele><time>2026-08-18T13:53:46Z</time></trkpt><trkpt lat="59.3261230923" lon="34.6171185281"><ele>171.43</ele><time>2026-08-18T13:54:29Z</time></trkpt><trkpt lat="59.3260885589" lon="34.6171359625"><ele>171.26</ele><time>2026-08-18T13:54:42Z</time></trkpt><trkpt lat="59.3260629941" lon="34.6170795523"><ele>170.61</ele><time>2026-08-18T13:55:37Z</time></trkpt><trkpt lat="59.3260080926" lon="34.6171397343"><ele>169.54</ele><time>2026-08-18T13:55:54Z</time></trkpt><trkpt lat="59.3259591423" lon="34.6171891876"><ele>169.20</ele><time>2026-08-18T13:56:00Z</time></trkpt><trkpt lat="59.3258537818" lon="34.6172590926"><ele>168.67</ele><time>2026-08-18T13:56:14Z</time></trkpt><trkpt lat="59.3257919233" lon="34.6172745991"><ele>168.98</ele><time>2026-08-18T13:56:31Z</time></trkpt><trkpt lat="59.3257302325" lon="34.6173680574"><ele>168.63</ele><time>2026-08-18T13:56:42Z</time></trkpt><trkpt lat="59.3256487604" lon="34.6174285747"><ele>169.01</ele><time>2026-08-18T13:56:59Z</time></trkpt><trkpt lat="59.3255292345" lon="34.6175863221"><ele>169.40</ele><time>2026-08-18T13:57:10Z</time></trkpt><trkpt lat="59.3254076969" lon="34.6176962927"><ele>170.44</ele><time>2026-08-18T13:57:23Z</time></trkpt><trkpt lat="59.3253725767" lon="34.6176712308"><ele>170.24</ele><time>2026-08-18T13:57:50Z</time></trkpt><trkpt lat="59.3253457546" lon="34.6176579874"><ele>170.18</ele><time>2026-08-18T13:58:31Z</time></trkpt><trkpt lat="59.3253333494" lon="34.6176767629"><ele>170.04</ele><time>2026-08-18T13:58:48Z</time></trkpt><trkpt lat="59.3253548909" lon="34.6176684648"><ele>169.83</ele><time>2026-08-18T13:59:32Z</time></trkpt><trkpt lat="59.3254165817" lon="34.6176693868"><ele>169.67</ele><time>2026-08-18T13:59:59Z</time></trkpt><trkpt lat="59.3254975509" lon="34.6175209433"><ele>168.87</ele><time>2026-08-18T14:00:15Z</time></trkpt><trkpt lat="59.3254369497" lon="34.6174593363"><ele>169.65</ele><time>2026-08-18T14:00:34Z</time></trkpt><trkpt lat="59.3254355248" lon="34.6173718292"><ele>169.92</ele><time>2026-08-18T14:00:49Z</time></trkpt><trkpt lat="59.3254261371" lon="34.6173966397"><ele>169.67</ele><time>2026-08-18T14:01:11Z</time></trkpt><trkpt lat="59.3254233710" lon="34.6174165886"><ele>169.66</ele><time>2026-08-18T14:01:42Z</time></trkpt><trkpt lat="59.3254164979" lon="34.6174278203"><ele>169.68</ele><time>2026-08-18T14:02:47Z</time></trkpt><trkpt lat="59.3253950402" lon="34.6173991542"><ele>169.70</ele><time>2026-08-18T14:03:34Z</time></trkpt><trkpt lat="59.3253910169" lon="34.6173959691"><ele>170.02</ele><time>2026-08-18T14:04:10Z</time></trkpt><trkpt lat="59.3253643624" lon="34.6174088772"><ele>170.25</ele><time>2026-08-18T14:05:21Z</time></trkpt><trkpt lat="59.3254041765" lon="34.6174216177"><ele>170.34</ele><time>2026-08-18T14:05:59Z</time></trkpt><trkpt lat="59.3253917713" lon="34.6174460929"><ele>170.50</ele><time>2026-08-18T14:07:24Z</time></trkpt><trkpt lat="59.3254220299" lon="34.6174137387"><ele>170.87</ele><time>2026-08-18T14:08:10Z</time></trkpt><trkpt lat="59.3254245445" lon="34.6174137387"><ele>170.83</ele><time>2026-08-18T14:09:38Z</time></trkpt><trkpt lat="59.3254405539" lon="34.6173972264"><ele>170.54</ele><time>2026-08-18T14:10:17Z</time></trkpt><trkpt lat="59.3254190963" lon="34.6174255572"><ele>170.65</ele><time>2026-08-18T14:10:40Z</time></trkpt><trkpt lat="59.3254647776" lon="34.6174130682"><ele>170.49</ele><time>2026-08-18T14:11:47Z</time></trkpt><trkpt lat="59.3254256342" lon="34.6173907723"><ele>170.67</ele><time>2026-08-18T14:12:22Z</time></trkpt><trkpt lat="59.3254452478" lon="34.6174008306"><ele>170.83</ele><time>2026-08-18T14:12:53Z</time></trkpt><trkpt lat="59.3254419789" lon="34.6173583344"><ele>170.82</ele><time>2026-08-18T14:13:15Z</time></trkpt><trkpt lat="59.3254292384" lon="34.6173529699"><ele>170.83</ele><time>2026-08-18T14:13:31Z</time></trkpt><trkpt lat="59.3254026677" lon="34.6173553169"><ele>170.88</ele><time>2026-08-18T14:14:06Z</time></trkpt><trkpt lat="59.3253999855" lon="34.6173758525"><ele>170.74</ele><time>2026-08-18T14:14:30Z</time></trkpt><trkpt lat="59.3254111335" lon="34.6174240485"><ele>170.79</ele><time>2026-08-18T14:15:05Z</time></trkpt><trkpt lat="59.3254175875" lon="34.6173981484"><ele>170.72</ele><time>2026-08-18T14:15:48Z</time></trkpt><trkpt lat="59.3254084513" lon="34.6174022555"><ele>170.91</ele><time>2026-08-18T14:16:41Z</time></trkpt><trkpt lat="59.3254137319" lon="34.6173957177"><ele>170.97</ele><time>2026-08-18T14:17:09Z</time></trkpt><trkpt lat="59.3254207727" lon="34.6174392197"><ele>171.02</ele><time>2026-08-18T14:17:45Z</time></trkpt><trkpt lat="59.3254578207" lon="34.6174050216"><ele>171.04</ele><time>2026-08-18T14:18:11Z</time></trkpt><trkpt lat="59.3254694715" lon="34.6175021678"><ele>170.76</ele><time>2026-08-18T14:18:38Z</time></trkpt><trkpt lat="59.3254617602" lon="34.6174571570"><ele>170.76</ele><time>2026-08-18T14:18:58Z</time></trkpt><trkpt lat="59.3254366983" lon="34.6173778642"><ele>170.78</ele><time>2026-08-18T14:19:25Z</time></trkpt><trkpt lat="59.3254482653" lon="34.6173906885"><ele>170.78</ele><time>2026-08-18T14:19:55Z</time></trkpt><trkpt lat="59.3254385423" lon="34.6174243838"><ele>171.13</ele><time>2026-08-18T14:20:33Z</time></trkpt><trkpt lat="59.3255210202" lon="34.6174893435"><ele>170.07</ele><time>2026-08-18T14:20:49Z</time></trkpt><trkpt lat="59.3256061804" lon="34.6174268145"><ele>169.73</ele><time>2026-08-18T14:21:02Z</time></trkpt><trkpt lat="59.3257027399" lon="34.6172938775"><ele>169.73</ele><time>2026-08-18T14:21:20Z</time></trkpt><trkpt lat="59.3258028198" lon="34.6172999963"><ele>169.90</ele><time>2026-08-18T14:21:35Z</time></trkpt><trkpt lat="59.3258942664" lon="34.6172713302"><ele>169.55</ele><time>2026-08-18T14:21:48Z</time></trkpt><trkpt lat="59.3260016385" lon="34.6171870921"><ele>169.99</ele><time>2026-08-18T14:22:00Z</time></trkpt><trkpt lat="59.3260119483" lon="34.6171828173"><ele>170.73</ele><time>2026-08-18T14:22:20Z</time></trkpt><trkpt lat="59.3260072544" lon="34.6171815600"><ele>169.65</ele><time>2026-08-18T14:22:41Z</time></trkpt><trkpt lat="59.3260039855" lon="34.6171599347"><ele>170.90</ele><time>2026-08-18T14:23:02Z</time></trkpt><trkpt lat="59.3259954359" lon="34.6169908717"><ele>170.51</ele><time>2026-08-18T14:23:16Z</time></trkpt><trkpt lat="59.3259567954" lon="34.6169119980"><ele>169.96</ele><time>2026-08-18T14:23:29Z</time></trkpt><trkpt lat="59.3258755747" lon="34.6167082340"><ele>170.14</ele><time>2026-08-18T14:23:43Z</time></trkpt><trkpt lat="59.3258266244" lon="34.6165605448"><ele>169.90</ele><time>2026-08-18T14:24:02Z</time></trkpt><trkpt lat="59.3257600721" lon="34.6164835989"><ele>169.59</ele><time>2026-08-18T14:24:40Z</time></trkpt><trkpt lat="59.3257518578" lon="34.6165049728"><ele>170.15</ele><time>2026-08-18T14:25:18Z</time></trkpt><trkpt lat="59.3257459905" lon="34.6164791565"><ele>170.28</ele><time>2026-08-18T14:25:43Z</time></trkpt><trkpt lat="59.3257535342" lon="34.6164590400"><ele>170.62</ele><time>2026-08-18T14:25:58Z</time></trkpt><trkpt lat="59.3256928492" lon="34.6164098382"><ele>170.30</ele><time>2026-08-18T14:26:29Z</time></trkpt><trkpt lat="59.3257203419" lon="34.6162002906"><ele>170.58</ele><time>2026-08-18T14:26:44Z</time></trkpt><trkpt lat="59.3257287238" lon="34.6159360930"><ele>170.56</ele><time>2026-08-18T14:27:01Z</time></trkpt><trkpt lat="59.3257511873" lon="34.6157748252"><ele>170.48</ele><time>2026-08-18T14:27:17Z</time></trkpt><trkpt lat="59.3257858045" lon="34.6155796107"><ele>170.90</ele><time>2026-08-18T14:27:31Z</time></trkpt><trkpt lat="59.3257553782" lon="34.6155140642"><ele>170.20</ele><time>2026-08-18T14:27:55Z</time></trkpt><trkpt lat="59.3257680349" lon="34.6154869907"><ele>170.67</ele><time>2026-08-18T14:28:41Z</time></trkpt><trkpt lat="59.3257685378" lon="34.6154754236"><ele>170.79</ele><time>2026-08-18T14:29:18Z</time></trkpt><trkpt lat="59.3257521931" lon="34.6153002419"><ele>170.81</ele><time>2026-08-18T14:29:49Z</time></trkpt><trkpt lat="59.3257327471" lon="34.6150758583"><ele>170.81</ele><time>2026-08-18T14:30:04Z</time></trkpt><trkpt lat="59.3257429730" lon="34.6149546560"><ele>170.86</ele><time>2026-08-18T14:30:15Z</time></trkpt><trkpt lat="59.3257450685" lon="34.6148229763"><ele>170.83</ele><time>2026-08-18T14:30:30Z</time></trkpt><trkpt lat="59.3256951962" lon="34.6147977468"><ele>169.98</ele><time>2026-08-18T14:30:48Z</time></trkpt><trkpt lat="59.3256805278" lon="34.6147461981"><ele>170.77</ele><time>2026-08-18T14:31:28Z</time></trkpt><trkpt lat="59.3256812822" lon="34.6147557534"><ele>170.38</ele><time>2026-08-18T14:32:09Z</time></trkpt><trkpt lat="59.3256702181" lon="34.6147262491"><ele>170.38</ele><time>2026-08-18T14:32:49Z</time></trkpt><trkpt lat="59.3256857246" lon="34.6147108264"><ele>170.26</ele><time>2026-08-18T14:33:32Z</time></trkpt><trkpt lat="59.3256920949" lon="34.6146545839"><ele>169.96</ele><time>2026-08-18T14:33:37Z</time></trkpt><trkpt lat="59.3256441504" lon="34.6145799849"><ele>170.34</ele><time>2026-08-18T14:33:54Z</time></trkpt><trkpt lat="59.3256135564" lon="34.6144599561"><ele>170.25</ele><time>2026-08-18T14:34:06Z</time></trkpt><trkpt lat="59.3255729880" lon="34.6144667454"><ele>170.40</ele><time>2026-08-18T14:34:18Z</time></trkpt><trkpt lat="59.3255413882" lon="34.6143623907"><ele>169.39</ele><time>2026-08-18T14:34:34Z</time></trkpt><trkpt lat="59.3254910968" lon="34.6143151168"><ele>170.05</ele><time>2026-08-18T14:34:50Z</time></trkpt><trkpt lat="59.3254629336" lon="34.6142309625"><ele>170.68</ele><time>2026-08-18T14:35:12Z</time></trkpt><trkpt lat="59.3254397996" lon="34.6140769869"><ele>171.92</ele><time>2026-08-18T14:35:25Z</time></trkpt><trkpt lat="59.3254062720" lon="34.6139955986"><ele>172.02</ele><time>2026-08-18T14:35:42Z</time></trkpt><trkpt lat="59.3254485168" lon="34.6139253583"><ele>172.24</ele><time>2026-08-18T14:36:00Z</time></trkpt><trkpt lat="59.3254447449" lon="34.6139526833"><ele>172.70</ele><time>2026-08-18T14:36:13Z</time></trkpt><trkpt lat="59.3254466727" lon="34.6139506716"><ele>171.73</ele><time>2026-08-18T14:36:38Z</time></trkpt><trkpt lat="59.3254433200" lon="34.6139456425"><ele>171.57</ele><time>2026-08-18T14:37:33Z</time></trkpt><trkpt lat="59.3254593294" lon="34.6139105223"><ele>171.58</ele><time>2026-08-18T14:37:50Z</time></trkpt><trkpt lat="59.3254454993" lon="34.6139067505"><ele>171.88</ele><time>2026-08-18T14:38:24Z</time></trkpt><trkpt lat="59.3254331779" lon="34.6139110252"><ele>171.91</ele><time>2026-08-18T14:38:45Z</time></trkpt><trkpt lat="59.3254334293" lon="34.6139115281"><ele>171.50</ele><time>2026-08-18T14:39:16Z</time></trkpt><trkpt lat="59.3254411407" lon="34.6139202453"><ele>171.63</ele><time>2026-08-18T14:39:47Z</time></trkpt><trkpt lat="59.3254376203" lon="34.6139162220"><ele>171.61</ele><time>2026-08-18T14:40:11Z</time></trkpt><trkpt lat="59.3254673760" lon="34.6139255259"><ele>171.89</ele><time>2026-08-18T14:40:44Z</time></trkpt><trkpt lat="59.3254861515" lon="34.6139148809"><ele>172.18</ele><time>2026-08-18T14:41:14Z</time></trkpt><trkpt lat="59.3254747521" lon="34.6138541959"><ele>171.37</ele><time>2026-08-18T14:41:40Z</time></trkpt><trkpt lat="59.3254785240" lon="34.6138424613"><ele>171.14</ele><time>2026-08-18T14:42:09Z</time></trkpt><trkpt lat="59.3254458345" lon="34.6137255337"><ele>169.50</ele><time>2026-08-18T14:42:27Z</time></trkpt><trkpt lat="59.3253862392" lon="34.6134892479"><ele>168.87</ele><time>2026-08-18T14:42:38Z</time></trkpt><trkpt lat="59.3253699783" lon="34.6133539639"><ele>169.12</ele><time>2026-08-18T14:42:49Z</time></trkpt><trkpt lat="59.3253515381" lon="34.6131920256"><ele>169.49</ele><time>2026-08-18T14:43:02Z</time></trkpt><trkpt lat="59.3253507838" lon="34.6130751818"><ele>168.43</ele><time>2026-08-18T14:43:14Z</time></trkpt><trkpt lat="59.3253381271" lon="34.6130722482"><ele>170.06</ele><time>2026-08-18T14:43:23Z</time></trkpt><trkpt lat="59.3253445812" lon="34.6130688954"><ele>169.87</ele><time>2026-08-18T14:43:47Z</time></trkpt><trkpt lat="59.3253357802" lon="34.6130452584"><ele>171.32</ele><time>2026-08-18T14:44:08Z</time></trkpt><trkpt lat="59.3253307510" lon="34.6130526345"><ele>170.07</ele><time>2026-08-18T14:44:38Z</time></trkpt><trkpt lat="59.3253213633" lon="34.6130604297"><ele>169.30</ele><time>2026-08-18T14:45:06Z</time></trkpt><trkpt lat="59.3253214471" lon="34.6130535565"><ele>170.55</ele><time>2026-08-18T14:45:20Z</time></trkpt><trkpt lat="59.3253321759" lon="34.6130520478"><ele>170.10</ele><time>2026-08-18T14:45:54Z</time></trkpt><trkpt lat="59.3253327627" lon="34.6130405646"><ele>171.13</ele><time>2026-08-18T14:46:05Z</time></trkpt><trkpt lat="59.3253379595" lon="34.6128962282"><ele>169.71</ele><time>2026-08-18T14:46:32Z</time></trkpt><trkpt lat="59.3253536336" lon="34.6127100661"><ele>171.24</ele><time>2026-08-18T14:46:45Z</time></trkpt><trkpt lat="59.3253432401" lon="34.6126002632"><ele>170.78</ele><time>2026-08-18T14:46:58Z</time></trkpt><trkpt lat="59.3253058568" lon="34.6125010215"><ele>170.99</ele><time>2026-08-18T14:47:10Z</time></trkpt><trkpt lat="59.3252760172" lon="34.6123180445"><ele>170.76</ele><time>2026-08-18T14:47:22Z</time></trkpt><trkpt lat="59.3253031746" lon="34.6121788211"><ele>169.69</ele><time>2026-08-18T14:47:37Z</time></trkpt><trkpt lat="59.3253097963" lon="34.6120379213"><ele>169.78</ele><time>2026-08-18T14:47:50Z</time></trkpt><trkpt lat="59.3253040966" lon="34.6120058186"><ele>169.48</ele><time>2026-08-18T14:48:15Z</time></trkpt><trkpt lat="59.3252802920" lon="34.6120238397"><ele>169.57</ele><time>2026-08-18T14:48:49Z</time></trkpt><trkpt lat="59.3252835609" lon="34.6120275278"><ele>169.59</ele><time>2026-08-18T14:49:11Z</time></trkpt><trkpt lat="59.3252873328" lon="34.6120687667"><ele>169.81</ele><time>2026-08-18T14:49:48Z</time></trkpt><trkpt lat="59.3252839800" lon="34.6119843610"><ele>169.81</ele><time>2026-08-18T14:50:23Z</time></trkpt><trkpt lat="59.3252381310" lon="34.6118583810"><ele>169.93</ele><time>2026-08-18T14:50:36Z</time></trkpt><trkpt lat="59.3251972273" lon="34.6117299702"><ele>169.92</ele><time>2026-08-18T14:50:49Z</time></trkpt><trkpt lat="59.3251748476" lon="34.6115739830"><ele>170.17</ele><time>2026-08-18T14:51:03Z</time></trkpt><trkpt lat="59.3251518812" lon="34.6113996394"><ele>170.22</ele><time>2026-08-18T14:51:18Z</time></trkpt><trkpt lat="59.3251074571" lon="34.6113164909"><ele>169.86</ele><time>2026-08-18T14:51:38Z</time></trkpt><trkpt lat="59.3250955548" lon="34.6113360208"><ele>169.89</ele><time>2026-08-18T14:51:40Z</time></trkpt><trkpt lat="59.3249933794" lon="34.6114091948"><ele>169.99</ele><time>2026-08-18T14:51:54Z</time></trkpt><trkpt lat="59.3249270786" lon="34.6114170738"><ele>170.09</ele><time>2026-08-18T14:52:07Z</time></trkpt><trkpt lat="59.3250072934" lon="34.6113409661"><ele>169.86</ele><time>2026-08-18T14:52:36Z</time></trkpt><trkpt lat="59.3250897713" lon="34.6112322528"><ele>170.18</ele><time>2026-08-18T14:52:50Z</time></trkpt><trkpt lat="59.3250946328" lon="34.6112235356"><ele>169.86</ele><time>2026-08-18T14:53:10Z</time></trkpt><trkpt lat="59.3250904419" lon="34.6112214401"><ele>169.76</ele><time>2026-08-18T14:53:37Z</time></trkpt><trkpt lat="59.3250832334" lon="34.6111886669"><ele>169.89</ele><time>2026-08-18T14:53:57Z</time></trkpt><trkpt lat="59.3250659667" lon="34.6111906786"><ele>169.98</ele><time>2026-08-18T14:54:13Z</time></trkpt><trkpt lat="59.3250622787" lon="34.6111826319"><ele>169.70</ele><time>2026-08-18T14:54:51Z</time></trkpt><trkpt lat="59.3250053655" lon="34.6110596694"><ele>169.73</ele><time>2026-08-18T14:55:12Z</time></trkpt><trkpt lat="59.3249839079" lon="34.6109646186"><ele>170.42</ele><time>2026-08-18T14:55:21Z</time></trkpt><trkpt lat="59.3249553256" lon="34.6107872576"><ele>169.28</ele><time>2026-08-18T14:55:33Z</time></trkpt><trkpt lat="59.3249510508" lon="34.6105923783"><ele>170.30</ele><time>2026-08-18T14:55:47Z</time></trkpt><trkpt lat="59.3249468599" lon="34.6104575973"><ele>171.68</ele><time>2026-08-18T14:56:04Z</time></trkpt><trkpt lat="59.3248763680" lon="34.6102941502"><ele>170.61</ele><time>2026-08-18T14:56:20Z</time></trkpt><trkpt lat="59.3248054571" lon="34.6102477983"><ele>170.94</ele><time>2026-08-18T14:56:40Z</time></trkpt><trkpt lat="59.3247914594" lon="34.6101804916"><ele>171.27</ele><time>2026-08-18T14:56:52Z</time></trkpt><trkpt lat="59.3247817364" lon="34.6101536695"><ele>171.19</ele><time>2026-08-18T14:57:24Z</time></trkpt><trkpt lat="59.3247839995" lon="34.6101423539"><ele>171.29</ele><time>2026-08-18T14:57:55Z</time></trkpt><trkpt lat="59.3247883581" lon="34.6100978460"><ele>171.19</ele><time>2026-08-18T14:58:12Z</time></trkpt><trkpt lat="59.3247976620" lon="34.6101033781"><ele>171.19</ele><time>2026-08-18T14:58:50Z</time></trkpt><trkpt lat="59.3247953989" lon="34.6100955829"><ele>171.44</ele><time>2026-08-18T14:59:24Z</time></trkpt><trkpt lat="59.3247850053" lon="34.6100923140"><ele>171.52</ele><time>2026-08-18T14:59:56Z</time></trkpt><trkpt lat="59.3247431796" lon="34.6101027913"><ele>172.32</ele><time>2026-08-18T15:00:16Z</time></trkpt><trkpt lat="59.3246999290" lon="34.6101184655"><ele>172.65</ele><time>2026-08-18T15:01:01Z</time></trkpt><trkpt lat="59.3245774694" lon="34.6100024600"><ele>172.40</ele><time>2026-08-18T15:01:13Z</time></trkpt><trkpt lat="59.3244641460" lon="34.6099388413"><ele>171.05</ele><time>2026-08-18T15:01:29Z</time></trkpt><trkpt lat="59.3244334683" lon="34.6099227481"><ele>172.66</ele><time>2026-08-18T15:01:32Z</time></trkpt><trkpt lat="59.3243397586" lon="34.6098648291"><ele>172.02</ele><time>2026-08-18T15:01:47Z</time></trkpt><trkpt lat="59.3242973462" lon="34.6098757256"><ele>172.63</ele><time>2026-08-18T15:02:21Z</time></trkpt><trkpt lat="59.3242827617" lon="34.6098474786"><ele>172.36</ele><time>2026-08-18T15:03:04Z</time></trkpt><trkpt lat="59.3242767267" lon="34.6098603867"><ele>172.51</ele><time>2026-08-18T15:03:33Z</time></trkpt><trkpt lat="59.3242218252" lon="34.6098455507"><ele>172.83</ele><time>2026-08-18T15:04:13Z</time></trkpt><trkpt lat="59.3241206557" lon="34.6097906493"><ele>172.47</ele><time>2026-08-18T15:04:28Z</time></trkpt><trkpt lat="59.3240508344" lon="34.6098736301"><ele>171.98</ele><time>2026-08-18T15:04:40Z</time></trkpt><trkpt lat="59.3240270298" lon="34.6100284439"><ele>172.50</ele><time>2026-08-18T15:04:51Z</time></trkpt><trkpt lat="59.3239919934" lon="34.6101825032"><ele>173.31</ele><time>2026-08-18T15:05:08Z</time></trkpt><trkpt lat="59.3239493296" lon="34.6101886220"><ele>172.87</ele><time>2026-08-18T15:05:28Z</time></trkpt><trkpt lat="59.3239303865" lon="34.6101922262"><ele>173.05</ele><time>2026-08-18T15:06:05Z</time></trkpt><trkpt lat="59.3239046540" lon="34.6102434397"><ele>173.21</ele><time>2026-08-18T15:06:43Z</time></trkpt><trkpt lat="59.3238936737" lon="34.6102138516"><ele>173.09</ele><time>2026-08-18T15:07:31Z</time></trkpt><trkpt lat="59.3237749860" lon="34.6102207247"><ele>172.42</ele><time>2026-08-18T15:07:46Z</time></trkpt><trkpt lat="59.3236883171" lon="34.6102293581"><ele>173.61</ele><time>2026-08-18T15:07:58Z</time></trkpt><trkpt lat="59.3235906679" lon="34.6101788990"><ele>174.51</ele><time>2026-08-18T15:08:11Z</time></trkpt><trkpt lat="59.3235212658" lon="34.6100849379"><ele>173.92</ele><time>2026-08-18T15:08:24Z</time></trkpt><trkpt lat="59.3235102855" lon="34.6100398432"><ele>174.23</ele><time>2026-08-18T15:08:49Z</time></trkpt><trkpt lat="59.3235109560" lon="34.6100468840"><ele>173.69</ele><time>2026-08-18T15:09:51Z</time></trkpt><trkpt lat="59.3234546296" lon="34.6100153681"><ele>173.20</ele><time>2026-08-18T15:10:31Z</time></trkpt><trkpt lat="59.3233427312" lon="34.6100025438"><ele>173.51</ele><time>2026-08-18T15:10:44Z</time></trkpt><trkpt lat="59.3232582416" lon="34.6100025438"><ele>173.81</ele><time>2026-08-18T15:10:57Z</time></trkpt><trkpt lat="59.3232064415" lon="34.6099032182"><ele>173.90</ele><time>2026-08-18T15:11:12Z</time></trkpt><trkpt lat="59.3231367879" lon="34.6097478177"><ele>173.58</ele><time>2026-08-18T15:11:24Z</time></trkpt><trkpt lat="59.3230825569" lon="34.6097294614"><ele>176.56</ele><time>2026-08-18T15:11:48Z</time></trkpt><trkpt lat="59.3230378814" lon="34.6097072493"><ele>176.65</ele><time>2026-08-18T15:12:22Z</time></trkpt><trkpt lat="59.3229969777" lon="34.6096563712"><ele>176.71</ele><time>2026-08-18T15:13:27Z</time></trkpt><trkpt lat="59.3229869194" lon="34.6096428763"><ele>176.93</ele><time>2026-08-18T15:13:52Z</time></trkpt><trkpt lat="59.3230135739" lon="34.6095491666"><ele>176.29</ele><time>2026-08-18T15:14:36Z</time></trkpt><trkpt lat="59.3230548967" lon="34.6092782635"><ele>174.37</ele><time>2026-08-18T15:14:58Z</time></trkpt><trkpt lat="59.3231137376" lon="34.6091710590"><ele>175.36</ele><time>2026-08-18T15:15:11Z</time></trkpt><trkpt lat="59.3232155778" lon="34.6091073565"><ele>175.00</ele><time>2026-08-18T15:15:26Z</time></trkpt><trkpt lat="59.3232712336" lon="34.6090474259"><ele>174.62</ele><time>2026-08-18T15:15:37Z</time></trkpt><trkpt lat="59.3233023304" lon="34.6090640221"><ele>174.51</ele><time>2026-08-18T15:15:40Z</time></trkpt><trkpt lat="59.3233313318" lon="34.6090438217"><ele>173.75</ele><time>2026-08-18T15:15:57Z</time></trkpt><trkpt lat="59.3233293202" lon="34.6090390440"><ele>174.20</ele><time>2026-08-18T15:16:32Z</time></trkpt><trkpt lat="59.3233266380" lon="34.6090342663"><ele>174.20</ele><time>2026-08-18T15:17:17Z</time></trkpt><trkpt lat="59.3233357742" lon="34.6090748347"><ele>174.15</ele><time>2026-08-18T15:17:54Z</time></trkpt><trkpt lat="59.3234074395" lon="34.6090518683"><ele>173.72</ele><time>2026-08-18T15:18:01Z</time></trkpt><trkpt lat="59.3235181645" lon="34.6091443207"><ele>171.79</ele><time>2026-08-18T15:18:16Z</time></trkpt><trkpt lat="59.3235475849" lon="34.6091341786"><ele>171.79</ele><time>2026-08-18T15:18:20Z</time></trkpt><trkpt lat="59.3235782627" lon="34.6091263834"><ele>171.80</ele><time>2026-08-18T15:18:22Z</time></trkpt><trkpt lat="59.3236145563" lon="34.6091202646"><ele>173.92</ele><time>2026-08-18T15:18:24Z</time></trkpt><trkpt lat="59.3236419652" lon="34.6091110446"><ele>173.69</ele><time>2026-08-18T15:18:27Z</time></trkpt><trkpt lat="59.3236983754" lon="34.6090241242"><ele>173.70</ele><time>2026-08-18T15:18:38Z</time></trkpt><trkpt lat="59.3236931786" lon="34.6090242919"><ele>173.80</ele><time>2026-08-18T15:18:51Z</time></trkpt><trkpt lat="59.3237405363" lon="34.6089921892"><ele>173.29</ele><time>2026-08-18T15:19:07Z</time></trkpt><trkpt lat="59.3237317353" lon="34.6089700609"><ele>173.54</ele><time>2026-08-18T15:19:44Z</time></trkpt><trkpt lat="59.3237550370" lon="34.6089770179"><ele>173.37</ele><time>2026-08-18T15:20:14Z</time></trkpt><trkpt lat="59.3237578031" lon="34.6089967154"><ele>173.26</ele><time>2026-08-18T15:20:55Z</time></trkpt><trkpt lat="59.3236437254" lon="34.6090056840"><ele>173.54</ele><time>2026-08-18T15:21:08Z</time></trkpt><trkpt lat="59.3235626724" lon="34.6091091167"><ele>173.96</ele><time>2026-08-18T15:21:22Z</time></trkpt><trkpt lat="59.3235242832" lon="34.6090933587"><ele>173.85</ele><time>2026-08-18T15:21:26Z</time></trkpt><trkpt lat="59.3235023227" lon="34.6090790257"><ele>173.81</ele><time>2026-08-18T15:21:28Z</time></trkpt><trkpt lat="59.3234303221" lon="34.6090841386"><ele>173.06</ele><time>2026-08-18T15:21:40Z</time></trkpt><trkpt lat="59.3233971298" lon="34.6090235375"><ele>173.78</ele><time>2026-08-18T15:21:55Z</time></trkpt><trkpt lat="59.3233351875" lon="34.6089457534"><ele>174.42</ele><time>2026-08-18T15:22:07Z</time></trkpt><trkpt lat="59.3232520390" lon="34.6088143252"><ele>174.36</ele><time>2026-08-18T15:22:22Z</time></trkpt><trkpt lat="59.3232317548" lon="34.6086586732"><ele>173.84</ele><time>2026-08-18T15:22:33Z</time></trkpt><trkpt lat="59.3231621850" lon="34.6085636225"><ele>175.11</ele><time>2026-08-18T15:22:49Z</time></trkpt><trkpt lat="59.3231572397" lon="34.6085390635"><ele>175.01</ele><time>2026-08-18T15:23:19Z</time></trkpt><trkpt lat="59.3231476843" lon="34.6085274965"><ele>175.39</ele><time>2026-08-18T15:24:13Z</time></trkpt><trkpt lat="59.3231595866" lon="34.6084706672"><ele>175.37</ele><time>2026-08-18T15:24:48Z</time></trkpt><trkpt lat="59.3232343532" lon="34.6084462758"><ele>173.92</ele><time>2026-08-18T15:25:16Z</time></trkpt><trkpt lat="59.3233426474" lon="34.6083508898"><ele>173.74</ele><time>2026-08-18T15:25:28Z</time></trkpt><trkpt lat="59.3234058470" lon="34.6082262509"><ele>173.73</ele><time>2026-08-18T15:25:42Z</time></trkpt><trkpt lat="59.3234769255" lon="34.6081643924"><ele>173.56</ele><time>2026-08-18T15:25:58Z</time></trkpt><trkpt lat="59.3235231936" lon="34.6081466228"><ele>173.72</ele><time>2026-08-18T15:26:12Z</time></trkpt><trkpt lat="59.3235399574" lon="34.6081471257"><ele>173.82</ele><time>2026-08-18T15:26:33Z</time></trkpt><trkpt lat="59.3235445675" lon="34.6081368998"><ele>173.57</ele><time>2026-08-18T15:27:02Z</time></trkpt><trkpt lat="59.3235410471" lon="34.6081502270"><ele>173.47</ele><time>2026-08-18T15:27:33Z</time></trkpt><trkpt lat="59.3235411309" lon="34.6081436891"><ele>173.40</ele><time>2026-08-18T15:28:02Z</time></trkpt><trkpt lat="59.3235579785" lon="34.6081206389"><ele>173.43</ele><time>2026-08-18T15:28:22Z</time></trkpt><trkpt lat="59.3236067612" lon="34.6081106644"><ele>173.10</ele><time>2026-08-18T15:29:08Z</time></trkpt><trkpt lat="59.3236302305" lon="34.6081379894"><ele>173.19</ele><time>2026-08-18T15:29:13Z</time></trkpt><trkpt lat="59.3237246946" lon="34.6082215570"><ele>173.77</ele><time>2026-08-18T15:29:27Z</time></trkpt><trkpt lat="59.3237591442" lon="34.6082519833"><ele>173.84</ele><time>2026-08-18T15:29:42Z</time></trkpt><trkpt lat="59.3237631675" lon="34.6082374826"><ele>173.22</ele><time>2026-08-18T15:29:50Z</time></trkpt><trkpt lat="59.3238056637" lon="34.6083730180"><ele>173.00</ele><time>2026-08-18T15:30:07Z</time></trkpt><trkpt lat="59.3238528538" lon="34.6085332800"><ele>172.86</ele><time>2026-08-18T15:30:23Z</time></trkpt><trkpt lat="59.3238551170" lon="34.6086048614"><ele>173.54</ele><time>2026-08-18T15:30:43Z</time></trkpt><trkpt lat="59.3238627445" lon="34.6086087171"><ele>171.50</ele><time>2026-08-18T15:30:57Z</time></trkpt><trkpt lat="59.3238618225" lon="34.6086226311"><ele>173.94</ele><time>2026-08-18T15:31:17Z</time></trkpt><trkpt lat="59.3238662649" lon="34.6086531412"><ele>173.38</ele><time>2026-08-18T15:31:56Z</time></trkpt><trkpt lat="59.3238920812" lon="34.6086652949"><ele>173.59</ele><time>2026-08-18T15:32:18Z</time></trkpt><trkpt lat="59.3239287939" lon="34.6086792927"><ele>173.23</ele><time>2026-08-18T15:32:47Z</time></trkpt><trkpt lat="59.3240009621" lon="34.6086469386"><ele>172.96</ele><time>2026-08-18T15:33:01Z</time></trkpt><trkpt lat="59.3240468949" lon="34.6086245589"><ele>172.83</ele><time>2026-08-18T15:33:14Z</time></trkpt><trkpt lat="59.3241201527" lon="34.6086023469"><ele>173.23</ele><time>2026-08-18T15:33:27Z</time></trkpt><trkpt lat="59.3241448794" lon="34.6086000837"><ele>173.23</ele><time>2026-08-18T15:33:29Z</time></trkpt><trkpt lat="59.3242891319" lon="34.6085281670"><ele>172.67</ele><time>2026-08-18T15:33:44Z</time></trkpt><trkpt lat="59.3243443687" lon="34.6085164323"><ele>172.75</ele><time>2026-08-18T15:33:57Z</time></trkpt><trkpt lat="59.3243436981" lon="34.6085211262"><ele>172.31</ele><time>2026-08-18T15:34:50Z</time></trkpt><trkpt lat="59.3243716937" lon="34.6084808931"><ele>172.45</ele><time>2026-08-18T15:35:04Z</time></trkpt><trkpt lat="59.3243570253" lon="34.6084672306"><ele>172.42</ele><time>2026-08-18T15:35:40Z</time></trkpt><trkpt lat="59.3243728671" lon="34.6083292644"><ele>172.43</ele><time>2026-08-18T15:35:52Z</time></trkpt><trkpt lat="59.3244195543" lon="34.6081152745"><ele>172.95</ele><time>2026-08-18T15:36:05Z</time></trkpt><trkpt lat="59.3244696781" lon="34.6080091596"><ele>173.18</ele><time>2026-08-18T15:36:17Z</time></trkpt><trkpt lat="59.3244914711" lon="34.6079685912"><ele>173.51</ele><time>2026-08-18T15:36:21Z</time></trkpt><trkpt lat="59.3245574366" lon="34.6078607999"><ele>173.57</ele><time>2026-08-18T15:36:35Z</time></trkpt><trkpt lat="59.3245738652" lon="34.6077675931"><ele>172.21</ele><time>2026-08-18T15:36:52Z</time></trkpt><trkpt lat="59.3245717697" lon="34.6077550203"><ele>173.45</ele><time>2026-08-18T15:37:12Z</time></trkpt><trkpt lat="59.3245920539" lon="34.6077390946"><ele>170.47</ele><time>2026-08-18T15:37:51Z</time></trkpt><trkpt lat="59.3245946523" lon="34.6077542659"><ele>172.22</ele><time>2026-08-18T15:37:56Z</time></trkpt><trkpt lat="59.3246033695" lon="34.6077279467"><ele>171.92</ele><time>2026-08-18T15:38:24Z</time></trkpt><trkpt lat="59.3245957419" lon="34.6076926589"><ele>171.85</ele><time>2026-08-18T15:39:08Z</time></trkpt><trkpt lat="59.3245483004" lon="34.6077038907"><ele>171.86</ele><time>2026-08-18T15:39:35Z</time></trkpt><trkpt lat="59.3244711868" lon="34.6076818462"><ele>172.21</ele><time>2026-08-18T15:39:48Z</time></trkpt><trkpt lat="59.3244775571" lon="34.6074772440"><ele>172.01</ele><time>2026-08-18T15:40:05Z</time></trkpt><trkpt lat="59.3245769665" lon="34.6073321532"><ele>172.47</ele><time>2026-08-18T15:40:18Z</time></trkpt><trkpt lat="59.3246293534" lon="34.6072437242"><ele>171.43</ele><time>2026-08-18T15:40:33Z</time></trkpt><trkpt lat="59.3246078957" lon="34.6070893295"><ele>172.75</ele><time>2026-08-18T15:40:52Z</time></trkpt><trkpt lat="59.3246604502" lon="34.6069534589"><ele>172.24</ele><time>2026-08-18T15:41:05Z</time></trkpt><trkpt lat="59.3247172795" lon="34.6068657842"><ele>173.12</ele><time>2026-08-18T15:41:18Z</time></trkpt><trkpt lat="59.3247596920" lon="34.6067736670"><ele>173.09</ele><time>2026-08-18T15:41:35Z</time></trkpt><trkpt lat="59.3247564230" lon="34.6067860723"><ele>173.20</ele><time>2026-08-18T15:42:02Z</time></trkpt><trkpt lat="59.3247685768" lon="34.6068042610"><ele>173.17</ele><time>2026-08-18T15:42:47Z</time></trkpt><trkpt lat="59.3247998413" lon="34.6067467611"><ele>173.24</ele><time>2026-08-18T15:43:14Z</time></trkpt><trkpt lat="59.3247788027" lon="34.6067396365"><ele>173.25</ele><time>2026-08-18T15:43:42Z</time></trkpt><trkpt lat="59.3248241488" lon="34.6066207811"><ele>173.94</ele><time>2026-08-18T15:44:06Z</time></trkpt><trkpt lat="59.3249166850" lon="34.6065054461"><ele>172.65</ele><time>2026-08-18T15:44:20Z</time></trkpt><trkpt lat="59.3249756936" lon="34.6062436793"><ele>172.42</ele><time>2026-08-18T15:44:37Z</time></trkpt><trkpt lat="59.3249641266" lon="34.6061157715"><ele>172.83</ele><time>2026-08-18T15:44:54Z</time></trkpt><trkpt lat="59.3250047788" lon="34.6059520729"><ele>172.90</ele><time>2026-08-18T15:45:06Z</time></trkpt><trkpt lat="59.3250654638" lon="34.6059246641"><ele>171.90</ele><time>2026-08-18T15:45:17Z</time></trkpt><trkpt lat="59.3250975665" lon="34.6059035417"><ele>172.07</ele><time>2026-08-18T15:45:34Z</time></trkpt><trkpt lat="59.3250976503" lon="34.6058997698"><ele>172.07</ele><time>2026-08-18T15:46:10Z</time></trkpt><trkpt lat="59.3250942975" lon="34.6058992669"><ele>172.22</ele><time>2026-08-18T15:46:56Z</time></trkpt><trkpt lat="59.3250268232" lon="34.6059351414"><ele>172.78</ele><time>2026-08-18T15:47:16Z</time></trkpt><trkpt lat="59.3249850813" lon="34.6059194673"><ele>172.82</ele><time>2026-08-18T15:47:46Z</time></trkpt><trkpt lat="59.3249864224" lon="34.6059044637"><ele>172.72</ele><time>2026-08-18T15:48:22Z</time></trkpt><trkpt lat="59.3249921221" lon="34.6058976743"><ele>172.64</ele><time>2026-08-18T15:49:16Z</time></trkpt><trkpt lat="59.3250119872" lon="34.6058946569"><ele>172.50</ele><time>2026-08-18T15:49:36Z</time></trkpt><trkpt lat="59.3249835726" lon="34.6058267634"><ele>172.47</ele><time>2026-08-18T15:50:21Z</time></trkpt><trkpt lat="59.3249434233" lon="34.6057234984"><ele>172.37</ele><time>2026-08-18T15:50:33Z</time></trkpt><trkpt lat="59.3248871807" lon="34.6055043954"><ele>172.34</ele><time>2026-08-18T15:50:48Z</time></trkpt><trkpt lat="59.3248569220" lon="34.6055510826"><ele>172.42</ele><time>2026-08-18T15:51:10Z</time></trkpt><trkpt lat="59.3247880228" lon="34.6054437943"><ele>172.63</ele><time>2026-08-18T15:51:24Z</time></trkpt><trkpt lat="59.3247431796" lon="34.6053862944"><ele>170.74</ele><time>2026-08-18T15:51:49Z</time></trkpt><trkpt lat="59.3247397430" lon="34.6053862944"><ele>170.73</ele><time>2026-08-18T15:51:50Z</time></trkpt><trkpt lat="59.3247219734" lon="34.6053279564"><ele>172.50</ele><time>2026-08-18T15:51:55Z</time></trkpt><trkpt lat="59.3246616237" lon="34.6052268706"><ele>172.45</ele><time>2026-08-18T15:52:07Z</time></trkpt><trkpt lat="59.3246664852" lon="34.6050755773"><ele>172.22</ele><time>2026-08-18T15:52:20Z</time></trkpt><trkpt lat="59.3246693350" lon="34.6049694624"><ele>172.15</ele><time>2026-08-18T15:52:34Z</time></trkpt><trkpt lat="59.3246720172" lon="34.6049869806"><ele>172.27</ele><time>2026-08-18T15:53:13Z</time></trkpt><trkpt lat="59.3246811535" lon="34.6049417183"><ele>172.38</ele><time>2026-08-18T15:53:40Z</time></trkpt><trkpt lat="59.3246741965" lon="34.6049444843"><ele>172.28</ele><time>2026-08-18T15:54:13Z</time></trkpt><trkpt lat="59.3246779684" lon="34.6049345937"><ele>172.33</ele><time>2026-08-18T15:54:48Z</time></trkpt><trkpt lat="59.3245996814" lon="34.6049784310"><ele>172.66</ele><time>2026-08-18T15:55:18Z</time></trkpt><trkpt lat="59.3245610408" lon="34.6049887408"><ele>172.19</ele><time>2026-08-18T15:55:22Z</time></trkpt><trkpt lat="59.3244936503" lon="34.6050501801"><ele>172.32</ele><time>2026-08-18T15:55:30Z</time></trkpt><trkpt lat="59.3244267628" lon="34.6051644254"><ele>172.44</ele><time>2026-08-18T15:55:41Z</time></trkpt><trkpt lat="59.3243812490" lon="34.6052859630"><ele>172.36</ele><time>2026-08-18T15:55:55Z</time></trkpt><trkpt lat="59.3243001960" lon="34.6053764876"><ele>172.95</ele><time>2026-08-18T15:56:07Z</time></trkpt><trkpt lat="59.3242401816" lon="34.6053680219"><ele>171.09</ele><time>2026-08-18T15:56:15Z</time></trkpt><trkpt lat="59.3242228311" lon="34.6053097676"><ele>172.77</ele><time>2026-08-18T15:56:22Z</time></trkpt><trkpt lat="59.3242131919" lon="34.6051871404"><ele>172.06</ele><time>2026-08-18T15:56:36Z</time></trkpt><trkpt lat="59.3241372518" lon="34.6051769983"><ele>172.06</ele><time>2026-08-18T15:56:57Z</time></trkpt><trkpt lat="59.3241520878" lon="34.6051664371"><ele>172.48</ele><time>2026-08-18T15:57:35Z</time></trkpt><trkpt lat="59.3241177220" lon="34.6051474940"><ele>172.24</ele><time>2026-08-18T15:58:19Z</time></trkpt><trkpt lat="59.3241010420" lon="34.6051032376"><ele>172.19</ele><time>2026-08-18T15:58:49Z</time></trkpt><trkpt lat="59.3240826018" lon="34.6050219331"><ele>172.12</ele><time>2026-08-18T15:59:08Z</time></trkpt><trkpt lat="59.3241041433" lon="34.6047795285"><ele>172.33</ele><time>2026-08-18T15:59:23Z</time></trkpt><trkpt lat="59.3241712824" lon="34.6045638621"><ele>172.25</ele><time>2026-08-18T15:59:37Z</time></trkpt><trkpt lat="59.3242164608" lon="34.6044614352"><ele>172.12</ele><time>2026-08-18T15:59:51Z</time></trkpt><trkpt lat="59.3241940811" lon="34.6044436656"><ele>172.20</ele><time>2026-08-18T16:00:15Z</time></trkpt><trkpt lat="59.3240787461" lon="34.6044587530"><ele>171.73</ele><time>2026-08-18T16:00:27Z</time></trkpt><trkpt lat="59.3239922449" lon="34.6043991577"><ele>171.92</ele><time>2026-08-18T16:00:45Z</time></trkpt><trkpt lat="59.3239622377" lon="34.6044168435"><ele>172.10</ele><time>2026-08-18T16:01:02Z</time></trkpt><trkpt lat="59.3239496648" lon="34.6043829806"><ele>172.26</ele><time>2026-08-18T16:02:00Z</time></trkpt><trkpt lat="59.3239508383" lon="34.6044006664"><ele>172.32</ele><time>2026-08-18T16:02:27Z</time></trkpt><trkpt lat="59.3239982799" lon="34.6040747780"><ele>172.67</ele><time>2026-08-18T16:03:19Z</time></trkpt><trkpt lat="59.3240661733" lon="34.6040658094"><ele>172.73</ele><time>2026-08-18T16:03:28Z</time></trkpt><trkpt lat="59.3241735455" lon="34.6039023623"><ele>172.48</ele><time>2026-08-18T16:03:41Z</time></trkpt><trkpt lat="59.3241438735" lon="34.6037118416"><ele>172.37</ele><time>2026-08-18T16:03:55Z</time></trkpt><trkpt lat="59.3241214938" lon="34.6035838500"><ele>172.63</ele><time>2026-08-18T16:04:06Z</time></trkpt><trkpt lat="59.3241211586" lon="34.6035331395"><ele>172.40</ele><time>2026-08-18T16:04:20Z</time></trkpt><trkpt lat="59.3241230864" lon="34.6035271883"><ele>172.38</ele><time>2026-08-18T16:05:01Z</time></trkpt><trkpt lat="59.3241199851" lon="34.6034854464"><ele>172.18</ele><time>2026-08-18T16:05:27Z</time></trkpt><trkpt lat="59.3241180573" lon="34.6035167947"><ele>172.37</ele><time>2026-08-18T16:05:52Z</time></trkpt><trkpt lat="59.3241154589" lon="34.6035586204"><ele>173.01</ele><time>2026-08-18T16:06:32Z</time></trkpt><trkpt lat="59.3241333961" lon="34.6035548486"><ele>172.10</ele><time>2026-08-18T16:07:03Z</time></trkpt><trkpt lat="59.3241069932" lon="34.6035404317"><ele>171.87</ele><time>2026-08-18T16:07:47Z</time></trkpt><trkpt lat="59.3241097592" lon="34.6035290323"><ele>171.57</ele><time>2026-08-18T16:09:10Z</time></trkpt><trkpt lat="59.3241141178" lon="34.6035309602"><ele>171.46</ele><time>2026-08-18T16:10:33Z</time></trkpt><trkpt lat="59.3241314683" lon="34.6035120171"><ele>171.70</ele><time>2026-08-18T16:11:36Z</time></trkpt><trkpt lat="59.3241280317" lon="34.6035256796"><ele>171.67</ele><time>2026-08-18T16:12:59Z</time></trkpt><trkpt lat="59.3241345696" lon="34.6035194770"><ele>171.15</ele><time>2026-08-18T16:13:37Z</time></trkpt><trkpt lat="59.3241356593" lon="34.6035151184"><ele>172.67</ele><time>2026-08-18T16:13:45Z</time></trkpt><trkpt lat="59.3241453823" lon="34.6035434492"><ele>171.54</ele><time>2026-08-18T16:15:01Z</time></trkpt><trkpt lat="59.3241406884" lon="34.6035512444"><ele>171.74</ele><time>2026-08-18T16:15:54Z</time></trkpt><trkpt lat="59.3241352402" lon="34.6035781503"><ele>171.84</ele><time>2026-08-18T16:17:28Z</time></trkpt><trkpt lat="59.3241323903" lon="34.6035778988"><ele>171.74</ele><time>2026-08-18T16:18:55Z</time></trkpt><trkpt lat="59.3241424486" lon="34.6035470534"><ele>171.78</ele><time>2026-08-18T16:19:34Z</time></trkpt><trkpt lat="59.3241250981" lon="34.6035551839"><ele>171.99</ele><time>2026-08-18T16:19:59Z</time></trkpt><trkpt lat="59.3241113517" lon="34.6034671739"><ele>171.69</ele><time>2026-08-18T16:20:43Z</time></trkpt><trkpt lat="59.3240158819" lon="34.6032727975"><ele>171.97</ele><time>2026-08-18T16:20:57Z</time></trkpt><trkpt lat="59.3239148799" lon="34.6031202469"><ele>171.88</ele><time>2026-08-18T16:21:11Z</time></trkpt><trkpt lat="59.3238131236" lon="34.6030605678"><ele>173.10</ele><time>2026-08-18T16:21:26Z</time></trkpt><trkpt lat="59.3237613235" lon="34.6030044928"><ele>172.03</ele><time>2026-08-18T16:21:38Z</time></trkpt><trkpt lat="59.3237283826" lon="34.6029538661"><ele>172.30</ele><time>2026-08-18T16:21:55Z</time></trkpt><trkpt lat="59.3237168994" lon="34.6029032394"><ele>172.12</ele><time>2026-08-18T16:22:23Z</time></trkpt><trkpt lat="59.3237089366" lon="34.6028657723"><ele>172.38</ele><time>2026-08-18T16:22:55Z</time></trkpt><trkpt lat="59.3237192463" lon="34.6028621681"><ele>172.65</ele><time>2026-08-18T16:23:40Z</time></trkpt><trkpt lat="59.3237765785" lon="34.6026880760"><ele>171.76</ele><time>2026-08-18T16:24:27Z</time></trkpt><trkpt lat="59.3237917498" lon="34.6024499461"><ele>172.47</ele><time>2026-08-18T16:24:41Z</time></trkpt><trkpt lat="59.3238704558" lon="34.6023477707"><ele>172.27</ele><time>2026-08-18T16:24:52Z</time></trkpt><trkpt lat="59.3239613995" lon="34.6022704896"><ele>172.10</ele><time>2026-08-18T16:25:04Z</time></trkpt><trkpt lat="59.3240159657" lon="34.6021097247"><ele>171.57</ele><time>2026-08-18T16:25:18Z</time></trkpt><trkpt lat="59.3240918219" lon="34.6019770391"><ele>171.75</ele><time>2026-08-18T16:25:33Z</time></trkpt><trkpt lat="59.3240627367" lon="34.6019948926"><ele>171.43</ele><time>2026-08-18T16:25:56Z</time></trkpt><trkpt lat="59.3239812646" lon="34.6019901987"><ele>171.62</ele><time>2026-08-18T16:26:12Z</time></trkpt><trkpt lat="59.3239645846" lon="34.6019700821"><ele>171.30</ele><time>2026-08-18T16:26:54Z</time></trkpt><trkpt lat="59.3239576276" lon="34.6019554976"><ele>171.54</ele><time>2026-08-18T16:27:26Z</time></trkpt><trkpt lat="59.3239799235" lon="34.6019457746"><ele>171.77</ele><time>2026-08-18T16:27:51Z</time></trkpt><trkpt lat="59.3239694461" lon="34.6019229759"><ele>171.31</ele><time>2026-08-18T16:28:09Z</time></trkpt><trkpt lat="59.3239293806" lon="34.6018173639"><ele>171.37</ele><time>2026-08-18T16:28:22Z</time></trkpt><trkpt lat="59.3239178974" lon="34.6016899589"><ele>171.19</ele><time>2026-08-18T16:28:31Z</time></trkpt><trkpt lat="59.3238662649" lon="34.6015950758"><ele>171.15</ele><time>2026-08-18T16:28:44Z</time></trkpt><trkpt lat="59.3238408677" lon="34.6015899628"><ele>171.15</ele><time>2026-08-18T16:28:50Z</time></trkpt><trkpt lat="59.3237772491" lon="34.6014496498"><ele>171.18</ele><time>2026-08-18T16:29:03Z</time></trkpt><trkpt lat="59.3237249460" lon="34.6013270225"><ele>171.18</ele><time>2026-08-18T16:29:16Z</time></trkpt><trkpt lat="59.3236772530" lon="34.6011840273"><ele>171.80</ele><time>2026-08-18T16:29:29Z</time></trkpt><trkpt lat="59.3236744870" lon="34.6011540201"><ele>171.55</ele><time>2026-08-18T16:29:44Z</time></trkpt><trkpt lat="59.3236884847" lon="34.6011675987"><ele>171.57</ele><time>2026-08-18T16:30:25Z</time></trkpt><trkpt lat="59.3236725591" lon="34.6010862943"><ele>172.16</ele><time>2026-08-18T16:30:53Z</time></trkpt><trkpt lat="59.3236322422" lon="34.6009676903"><ele>171.50</ele><time>2026-08-18T16:31:38Z</time></trkpt><trkpt lat="59.3235856388" lon="34.6008053329"><ele>171.25</ele><time>2026-08-18T16:31:50Z</time></trkpt><trkpt lat="59.3234989699" lon="34.6006610803"><ele>171.69</ele><time>2026-08-18T16:32:03Z</time></trkpt><trkpt lat="59.3233887479" lon="34.6005445719"><ele>171.92</ele><time>2026-08-18T16:32:18Z</time></trkpt><trkpt lat="59.3233559746" lon="34.6005607489"><ele>172.03</ele><time>2026-08-18T16:32:34Z</time></trkpt><trkpt lat="59.3233558908" lon="34.6005864814"><ele>171.80</ele><time>2026-08-18T16:32:58Z</time></trkpt><trkpt lat="59.3233268894" lon="34.6005480085"><ele>171.60</ele><time>2026-08-18T16:33:32Z</time></trkpt><trkpt lat="59.3233174179" lon="34.6005343460"><ele>171.99</ele><time>2026-08-18T16:33:52Z</time></trkpt><trkpt lat="59.3233197648" lon="34.6004810371"><ele>171.64</ele><time>2026-08-18T16:34:44Z</time></trkpt><trkpt lat="59.3233382888" lon="34.6005082782"><ele>171.68</ele><time>2026-08-18T16:35:57Z</time></trkpt><trkpt lat="59.3233342655" lon="34.6005250420"><ele>171.85</ele><time>2026-08-18T16:36:45Z</time></trkpt><trkpt lat="59.3233215250" lon="34.6005119663"><ele>172.11</ele><time>2026-08-18T16:37:32Z</time></trkpt><trkpt lat="59.3233255483" lon="34.6005227789"><ele>172.59</ele><time>2026-08-18T16:38:05Z</time></trkpt><trkpt lat="59.3233353551" lon="34.6005514450"><ele>171.84</ele><time>2026-08-18T16:38:56Z</time></trkpt><trkpt lat="59.3233508617" lon="34.6005435660"><ele>171.64</ele><time>2026-08-18T16:39:49Z</time></trkpt><trkpt lat="59.3233280629" lon="34.6005334239"><ele>171.49</ele><time>2026-08-18T16:40:29Z</time></trkpt><trkpt lat="59.3233264703" lon="34.6005592402"><ele>171.79</ele><time>2026-08-18T16:40:58Z</time></trkpt><trkpt lat="59.3233169988" lon="34.6005188394"><ele>171.60</ele><time>2026-08-18T16:41:26Z</time></trkpt><trkpt lat="59.3233298231" lon="34.6005117986"><ele>171.13</ele><time>2026-08-18T16:42:07Z</time></trkpt><trkpt lat="59.3233326729" lon="34.6004855633"><ele>170.97</ele><time>2026-08-18T16:43:06Z</time></trkpt><trkpt lat="59.3233349361" lon="34.6005003992"><ele>171.05</ele><time>2026-08-18T16:43:56Z</time></trkpt><trkpt lat="59.3233344331" lon="34.6004978847"><ele>171.04</ele><time>2026-08-18T16:44:33Z</time></trkpt><trkpt lat="59.3233108800" lon="34.6004837193"><ele>170.97</ele><time>2026-08-18T16:45:29Z</time></trkpt><trkpt lat="59.3233109638" lon="34.6004502755"><ele>171.33</ele><time>2026-08-18T16:46:19Z</time></trkpt><trkpt lat="59.3233177532" lon="34.6004377864"><ele>169.54</ele><time>2026-08-18T16:46:46Z</time></trkpt><trkpt lat="59.3233175855" lon="34.6004390437"><ele>169.54</ele><time>2026-08-18T16:46:47Z</time></trkpt><trkpt lat="59.3233213574" lon="34.6004772652"><ele>171.06</ele><time>2026-08-18T16:47:25Z</time></trkpt><trkpt lat="59.3233214412" lon="34.6004823782"><ele>171.29</ele><time>2026-08-18T16:47:50Z</time></trkpt><trkpt lat="59.3233245425" lon="34.6005045902"><ele>170.92</ele><time>2026-08-18T16:48:27Z</time></trkpt><trkpt lat="59.3233167473" lon="34.6004692186"><ele>170.68</ele><time>2026-08-18T16:49:33Z</time></trkpt><trkpt lat="59.3233080301" lon="34.6004431508"><ele>170.71</ele><time>2026-08-18T16:50:22Z</time></trkpt><trkpt lat="59.3233094551" lon="34.6004549693"><ele>170.78</ele><time>2026-08-18T16:50:46Z</time></trkpt><trkpt lat="59.3234082777" lon="34.6005762555"><ele>170.64</ele><time>2026-08-18T16:51:04Z</time></trkpt><trkpt lat="59.3235231098" lon="34.6007433068"><ele>170.20</ele><time>2026-08-18T16:51:19Z</time></trkpt><trkpt lat="59.3236309849" lon="34.6009671874"><ele>170.00</ele><time>2026-08-18T16:51:46Z</time></trkpt><trkpt lat="59.3236848805" lon="34.6010728832"><ele>170.27</ele><time>2026-08-18T16:52:01Z</time></trkpt><trkpt lat="59.3236678652" lon="34.6010898985"><ele>169.96</ele><time>2026-08-18T16:52:26Z</time></trkpt><trkpt lat="59.3236635905" lon="34.6009459812"><ele>169.12</ele><time>2026-08-18T16:52:59Z</time></trkpt><trkpt lat="59.3236541189" lon="34.6009243559"><ele>169.47</ele><time>2026-08-18T16:53:39Z</time></trkpt><trkpt lat="59.3236305658" lon="34.6008946840"><ele>169.19</ele><time>2026-08-18T16:54:05Z</time></trkpt><trkpt lat="59.3236779235" lon="34.6011564508"><ele>170.58</ele><time>2026-08-18T16:54:33Z</time></trkpt><trkpt lat="59.3236775883" lon="34.6013373323"><ele>170.48</ele><time>2026-08-18T16:54:53Z</time></trkpt><trkpt lat="59.3237575516" lon="34.6017011907"><ele>169.44</ele><time>2026-08-18T16:55:15Z</time></trkpt><trkpt lat="59.3238291331" lon="34.6019795537"><ele>169.48</ele><time>2026-08-18T16:55:31Z</time></trkpt><trkpt lat="59.3239014689" lon="34.6022585873"><ele>170.36</ele><time>2026-08-18T16:55:46Z</time></trkpt><trkpt lat="59.3238523509" lon="34.6024299972"><ele>169.76</ele><time>2026-08-18T16:56:03Z</time></trkpt><trkpt lat="59.3237720523" lon="34.6026654448"><ele>169.81</ele><time>2026-08-18T16:56:19Z</time></trkpt><trkpt lat="59.3237570487" lon="34.6029231884"><ele>170.40</ele><time>2026-08-18T16:56:34Z</time></trkpt><trkpt lat="59.3238359224" lon="34.6031562891"><ele>171.07</ele><time>2026-08-18T16:56:49Z</time></trkpt><trkpt lat="59.3238875549" lon="34.6032961830"><ele>169.89</ele><time>2026-08-18T16:57:04Z</time></trkpt><trkpt lat="59.3239088450" lon="34.6033497434"><ele>169.78</ele><time>2026-08-18T16:57:07Z</time></trkpt><trkpt lat="59.3239823543" lon="34.6035630628"><ele>170.58</ele><time>2026-08-18T16:57:21Z</time></trkpt><trkpt lat="59.3240079191" lon="34.6037786454"><ele>170.89</ele><time>2026-08-18T16:57:34Z</time></trkpt><trkpt lat="59.3240382615" lon="34.6039850079"><ele>170.32</ele><time>2026-08-18T16:57:50Z</time></trkpt><trkpt lat="59.3239781633" lon="34.6041675657"><ele>169.90</ele><time>2026-08-18T16:58:05Z</time></trkpt><trkpt lat="59.3239908200" lon="34.6043682285"><ele>170.05</ele><time>2026-08-18T16:58:20Z</time></trkpt><trkpt lat="59.3240165524" lon="34.6045200247"><ele>170.70</ele><time>2026-08-18T16:58:28Z</time></trkpt><trkpt lat="59.3240518402" lon="34.6048001479"><ele>171.15</ele><time>2026-08-18T16:58:42Z</time></trkpt><trkpt lat="59.3240515888" lon="34.6050092764"><ele>170.72</ele><time>2026-08-18T16:58:55Z</time></trkpt><trkpt lat="59.3241090886" lon="34.6051436383"><ele>170.59</ele><time>2026-08-18T16:59:07Z</time></trkpt><trkpt lat="59.3241793290" lon="34.6053711232"><ele>171.58</ele><time>2026-08-18T16:59:21Z</time></trkpt><trkpt lat="59.3242234178" lon="34.6054504998"><ele>171.66</ele><time>2026-08-18T16:59:36Z</time></trkpt><trkpt lat="59.3243194744" lon="34.6054497454"><ele>171.34</ele><time>2026-08-18T16:59:50Z</time></trkpt><trkpt lat="59.3244364858" lon="34.6054473985"><ele>171.42</ele><time>2026-08-18T17:00:07Z</time></trkpt><trkpt lat="59.3245191313" lon="34.6055057365"><ele>172.34</ele><time>2026-08-18T17:00:18Z</time></trkpt><trkpt lat="59.3246202171" lon="34.6056616399"><ele>173.63</ele><time>2026-08-18T17:00:32Z</time></trkpt><trkpt lat="59.3247232307" lon="34.6057748795"><ele>173.57</ele><time>2026-08-18T17:00:46Z</time></trkpt><trkpt lat="59.3247599434" lon="34.6059625503"><ele>173.42</ele><time>2026-08-18T17:00:59Z</time></trkpt><trkpt lat="59.3247382343" lon="34.6061164420"><ele>174.18</ele><time>2026-08-18T17:01:07Z</time></trkpt><trkpt lat="59.3246982526" lon="34.6063335333"><ele>173.90</ele><time>2026-08-18T17:01:19Z</time></trkpt><trkpt lat="59.3246613722" lon="34.6065375488"><ele>173.75</ele><time>2026-08-18T17:01:32Z</time></trkpt><trkpt lat="59.3245692551" lon="34.6066834778"><ele>172.97</ele><time>2026-08-18T17:01:44Z</time></trkpt><trkpt lat="59.3245527428" lon="34.6067159995"><ele>172.97</ele><time>2026-08-18T17:01:46Z</time></trkpt><trkpt lat="59.3244700972" lon="34.6068501938"><ele>173.14</ele><time>2026-08-18T17:01:58Z</time></trkpt><trkpt lat="59.3244484719" lon="34.6069076937"><ele>173.08</ele><time>2026-08-18T17:02:00Z</time></trkpt><trkpt lat="59.3244149443" lon="34.6070324164"><ele>172.58</ele><time>2026-08-18T17:02:09Z</time></trkpt><trkpt lat="59.3243526667" lon="34.6070369426"><ele>171.93</ele><time>2026-08-18T17:02:21Z</time></trkpt><trkpt lat="59.3242467195" lon="34.6070360206"><ele>172.75</ele><time>2026-08-18T17:02:36Z</time></trkpt><trkpt lat="59.3241699412" lon="34.6071374416"><ele>173.42</ele><time>2026-08-18T17:02:45Z</time></trkpt><trkpt lat="59.3240705319" lon="34.6073240228"><ele>173.35</ele><time>2026-08-18T17:02:59Z</time></trkpt><trkpt lat="59.3240398541" lon="34.6073999628"><ele>173.43</ele><time>2026-08-18T17:03:15Z</time></trkpt><trkpt lat="59.3240072485" lon="34.6074214205"><ele>173.09</ele><time>2026-08-18T17:03:23Z</time></trkpt><trkpt lat="59.3239297997" lon="34.6074655931"><ele>172.61</ele><time>2026-08-18T17:03:36Z</time></trkpt><trkpt lat="59.3238348328" lon="34.6076035593"><ele>171.86</ele><time>2026-08-18T17:03:48Z</time></trkpt><trkpt lat="59.3237793446" lon="34.6077940799"><ele>172.12</ele><time>2026-08-18T17:04:01Z</time></trkpt><trkpt lat="59.3237595633" lon="34.6078942437"><ele>172.22</ele><time>2026-08-18T17:04:06Z</time></trkpt><trkpt lat="59.3236774206" lon="34.6080935653"><ele>171.82</ele><time>2026-08-18T17:04:19Z</time></trkpt><trkpt lat="59.3235802744" lon="34.6081456169"><ele>171.24</ele><time>2026-08-18T17:04:30Z</time></trkpt><trkpt lat="59.3234440684" lon="34.6081600338"><ele>171.77</ele><time>2026-08-18T17:04:44Z</time></trkpt><trkpt lat="59.3234280590" lon="34.6081482992"><ele>171.37</ele><time>2026-08-18T17:04:46Z</time></trkpt><trkpt lat="59.3233427312" lon="34.6082434338"><ele>171.38</ele><time>2026-08-18T17:04:56Z</time></trkpt><trkpt lat="59.3232999835" lon="34.6083173621"><ele>171.60</ele><time>2026-08-18T17:05:02Z</time></trkpt><trkpt lat="59.3232935295" lon="34.6083621215"><ele>171.48</ele><time>2026-08-18T17:05:04Z</time></trkpt><trkpt lat="59.3232406396" lon="34.6085469425"><ele>172.05</ele><time>2026-08-18T17:05:17Z</time></trkpt><trkpt lat="59.3232339341" lon="34.6086025983"><ele>170.64</ele><time>2026-08-18T17:05:20Z</time></trkpt><trkpt lat="59.3232320901" lon="34.6086487826"><ele>172.02</ele><time>2026-08-18T17:05:25Z</time></trkpt><trkpt lat="59.3232299946" lon="34.6086827293"><ele>171.78</ele><time>2026-08-18T17:05:39Z</time></trkpt><trkpt lat="59.3232228700" lon="34.6086450946"><ele>171.81</ele><time>2026-08-18T17:06:36Z</time></trkpt><trkpt lat="59.3231930304" lon="34.6086083818"><ele>172.34</ele><time>2026-08-18T17:06:59Z</time></trkpt><trkpt lat="59.3231606763" lon="34.6087098867"><ele>172.44</ele><time>2026-08-18T17:07:25Z</time></trkpt><trkpt lat="59.3231010810" lon="34.6089849807"><ele>172.93</ele><time>2026-08-18T17:07:38Z</time></trkpt><trkpt lat="59.3230686430" lon="34.6091123857"><ele>173.24</ele><time>2026-08-18T17:07:57Z</time></trkpt><trkpt lat="59.3229799625" lon="34.6092178300"><ele>173.29</ele><time>2026-08-18T17:08:13Z</time></trkpt><trkpt lat="59.3228876777" lon="34.6094202530"><ele>173.35</ele><time>2026-08-18T17:08:27Z</time></trkpt><trkpt lat="59.3227903638" lon="34.6096353326"><ele>174.65</ele><time>2026-08-18T17:08:43Z</time></trkpt><trkpt lat="59.3227020185" lon="34.6098584589"><ele>175.13</ele><time>2026-08-18T17:09:06Z</time></trkpt><trkpt lat="59.3226299342" lon="34.6100483928"><ele>173.25</ele><time>2026-08-18T17:09:21Z</time></trkpt><trkpt lat="59.3226169422" lon="34.6101008635"><ele>174.75</ele><time>2026-08-18T17:09:32Z</time></trkpt><trkpt lat="59.3226239830" lon="34.6100591216"><ele>177.93</ele><time>2026-08-18T17:09:56Z</time></trkpt><trkpt lat="59.3226234801" lon="34.6100547630"><ele>176.47</ele><time>2026-08-18T17:09:57Z</time></trkpt><trkpt lat="59.3226056267" lon="34.6100320481"><ele>174.94</ele><time>2026-08-18T17:10:29Z</time></trkpt><trkpt lat="59.3226268329" lon="34.6101859398"><ele>173.28</ele><time>2026-08-18T17:10:51Z</time></trkpt><trkpt lat="59.3226558343" lon="34.6102645621"><ele>174.83</ele><time>2026-08-18T17:10:56Z</time></trkpt><trkpt lat="59.3227462750" lon="34.6104951482"><ele>174.32</ele><time>2026-08-18T17:11:10Z</time></trkpt><trkpt lat="59.3228011765" lon="34.6106333658"><ele>173.50</ele><time>2026-08-18T17:11:25Z</time></trkpt><trkpt lat="59.3228023499" lon="34.6106742695"><ele>173.50</ele><time>2026-08-18T17:11:36Z</time></trkpt><trkpt lat="59.3228194490" lon="34.6107722539"><ele>172.86</ele><time>2026-08-18T17:11:41Z</time></trkpt><trkpt lat="59.3228811398" lon="34.6110265609"><ele>171.48</ele><time>2026-08-18T17:11:53Z</time></trkpt><trkpt lat="59.3229499552" lon="34.6112755872"><ele>171.27</ele><time>2026-08-18T17:12:06Z</time></trkpt><trkpt lat="59.3229850754" lon="34.6115281340"><ele>170.92</ele><time>2026-08-18T17:12:17Z</time></trkpt><trkpt lat="59.3230064493" lon="34.6117830276"><ele>170.98</ele><time>2026-08-18T17:12:28Z</time></trkpt><trkpt lat="59.3230321817" lon="34.6119060740"><ele>170.62</ele><time>2026-08-18T17:12:33Z</time></trkpt><trkpt lat="59.3230816349" lon="34.6121734567"><ele>170.57</ele><time>2026-08-18T17:12:46Z</time></trkpt><trkpt lat="59.3230979796" lon="34.6122617181"><ele>170.35</ele><time>2026-08-18T17:12:49Z</time></trkpt><trkpt lat="59.3231460918" lon="34.6123784781"><ele>170.69</ele><time>2026-08-18T17:13:07Z</time></trkpt><trkpt lat="59.3231479358" lon="34.6123824175"><ele>170.35</ele><time>2026-08-18T17:13:08Z</time></trkpt><trkpt lat="59.3231647834" lon="34.6124551725"><ele>170.34</ele><time>2026-08-18T17:13:12Z</time></trkpt><trkpt lat="59.3231767695" lon="34.6125753690"><ele>170.35</ele><time>2026-08-18T17:13:17Z</time></trkpt><trkpt lat="59.3232070282" lon="34.6128952224"><ele>169.23</ele><time>2026-08-18T17:13:31Z</time></trkpt><trkpt lat="59.3232495245" lon="34.6131035965"><ele>169.04</ele><time>2026-08-18T17:13:41Z</time></trkpt><trkpt lat="59.3232820462" lon="34.6131595876"><ele>169.24</ele><time>2026-08-18T17:13:44Z</time></trkpt><trkpt lat="59.3233805336" lon="34.6134862304"><ele>169.18</ele><time>2026-08-18T17:14:00Z</time></trkpt><trkpt lat="59.3234502710" lon="34.6137369331"><ele>168.80</ele><time>2026-08-18T17:14:11Z</time></trkpt><trkpt lat="59.3234957848" lon="34.6138469875"><ele>168.85</ele><time>2026-08-18T17:14:17Z</time></trkpt><trkpt lat="59.3235188350" lon="34.6139637474"><ele>168.83</ele><time>2026-08-18T17:14:22Z</time></trkpt><trkpt lat="59.3235591520" lon="34.6140178945"><ele>168.97</ele><time>2026-08-18T17:14:26Z</time></trkpt><trkpt lat="59.3236719724" lon="34.6142422780"><ele>168.70</ele><time>2026-08-18T17:14:40Z</time></trkpt><trkpt lat="59.3238434661" lon="34.6144470479"><ele>167.62</ele><time>2026-08-18T17:14:56Z</time></trkpt><trkpt lat="59.3238846213" lon="34.6145079844"><ele>170.02</ele><time>2026-08-18T17:15:00Z</time></trkpt><trkpt lat="59.3240488227" lon="34.6146861836"><ele>169.64</ele><time>2026-08-18T17:15:15Z</time></trkpt><trkpt lat="59.3240725435" lon="34.6147101559"><ele>169.91</ele><time>2026-08-18T17:15:17Z</time></trkpt><trkpt lat="59.3242120184" lon="34.6147734392"><ele>170.19</ele><time>2026-08-18T17:15:28Z</time></trkpt><trkpt lat="59.3243902177" lon="34.6150623634"><ele>169.71</ele><time>2026-08-18T17:15:46Z</time></trkpt><trkpt lat="59.3245623820" lon="34.6153797861"><ele>168.31</ele><time>2026-08-18T17:16:04Z</time></trkpt><trkpt lat="59.3246340472" lon="34.6154987253"><ele>168.33</ele><time>2026-08-18T17:16:10Z</time></trkpt><trkpt lat="59.3246560916" lon="34.6155238710"><ele>169.66</ele><time>2026-08-18T17:16:12Z</time></trkpt><trkpt lat="59.3247345462" lon="34.6156471688"><ele>170.16</ele><time>2026-08-18T17:16:21Z</time></trkpt><trkpt lat="59.3248101510" lon="34.6160163917"><ele>171.01</ele><time>2026-08-18T17:16:36Z</time></trkpt><trkpt lat="59.3247943930" lon="34.6163743827"><ele>171.98</ele><time>2026-08-18T17:16:51Z</time></trkpt><trkpt lat="59.3247948959" lon="34.6164815873"><ele>172.31</ele><time>2026-08-18T17:16:55Z</time></trkpt><trkpt lat="59.3247440178" lon="34.6169123333"><ele>171.84</ele><time>2026-08-18T17:17:12Z</time></trkpt><trkpt lat="59.3247254938" lon="34.6173550654"><ele>169.84</ele><time>2026-08-18T17:17:31Z</time></trkpt><trkpt lat="59.3247128371" lon="34.6176892519"><ele>168.98</ele><time>2026-08-18T17:17:45Z</time></trkpt><trkpt lat="59.3247079756" lon="34.6180178225"><ele>168.56</ele><time>2026-08-18T17:18:00Z</time></trkpt><trkpt lat="59.3247007672" lon="34.6181129571"><ele>168.53</ele><time>2026-08-18T17:18:03Z</time></trkpt><trkpt lat="59.3247080594" lon="34.6183909848"><ele>168.12</ele><time>2026-08-18T17:18:18Z</time></trkpt><trkpt lat="59.3247040361" lon="34.6185841877"><ele>168.79</ele><time>2026-08-18T17:18:29Z</time></trkpt><trkpt lat="59.3246840872" lon="34.6187589504"><ele>168.80</ele><time>2026-08-18T17:18:38Z</time></trkpt><trkpt lat="59.3246806506" lon="34.6187951602"><ele>168.81</ele><time>2026-08-18T17:18:40Z</time></trkpt><trkpt lat="59.3246500567" lon="34.6190505568"><ele>169.50</ele><time>2026-08-18T17:18:53Z</time></trkpt><trkpt lat="59.3246322870" lon="34.6192830708"><ele>169.62</ele><time>2026-08-18T17:19:05Z</time></trkpt><trkpt lat="59.3245972507" lon="34.6196050197"><ele>170.36</ele><time>2026-08-18T17:19:19Z</time></trkpt><trkpt lat="59.3245945685" lon="34.6196331829"><ele>170.09</ele><time>2026-08-18T17:19:20Z</time></trkpt><trkpt lat="59.3245611247" lon="34.6199060977"><ele>170.78</ele><time>2026-08-18T17:19:32Z</time></trkpt><trkpt lat="59.3245711830" lon="34.6201878972"><ele>170.99</ele><time>2026-08-18T17:19:44Z</time></trkpt><trkpt lat="59.3245553412" lon="34.6205352433"><ele>169.09</ele><time>2026-08-18T17:19:57Z</time></trkpt><trkpt lat="59.3245790619" lon="34.6207967587"><ele>168.31</ele><time>2026-08-18T17:20:09Z</time></trkpt><trkpt lat="59.3247114960" lon="34.6209309530"><ele>168.83</ele><time>2026-08-18T17:20:23Z</time></trkpt><trkpt lat="59.3248555809" lon="34.6210115869"><ele>168.74</ele><time>2026-08-18T17:20:35Z</time></trkpt><trkpt lat="59.3249728438" lon="34.6210487187"><ele>168.53</ele><time>2026-08-18T17:20:48Z</time></trkpt><trkpt lat="59.3251724169" lon="34.6211558394"><ele>167.99</ele><time>2026-08-18T17:21:02Z</time></trkpt><trkpt lat="59.3252911884" lon="34.6213460248"><ele>168.19</ele><time>2026-08-18T17:21:15Z</time></trkpt><trkpt lat="59.3254061881" lon="34.6216335241"><ele>168.03</ele><time>2026-08-18T17:21:30Z</time></trkpt><trkpt lat="59.3254202697" lon="34.6216714941"><ele>168.01</ele><time>2026-08-18T17:21:32Z</time></trkpt><trkpt lat="59.3254743330" lon="34.6219739970"><ele>168.81</ele><time>2026-08-18T17:21:44Z</time></trkpt><trkpt lat="59.3254791945" lon="34.6221203450"><ele>169.36</ele><time>2026-08-18T17:21:51Z</time></trkpt><trkpt lat="59.3255029991" lon="34.6225106902"><ele>168.91</ele><time>2026-08-18T17:22:07Z</time></trkpt><trkpt lat="59.3255134765" lon="34.6227523405"><ele>168.94</ele><time>2026-08-18T17:22:16Z</time></trkpt><trkpt lat="59.3255441543" lon="34.6230347268"><ele>168.95</ele><time>2026-08-18T17:22:27Z</time></trkpt><trkpt lat="59.3255738262" lon="34.6231490560"><ele>168.18</ele><time>2026-08-18T17:22:33Z</time></trkpt><trkpt lat="59.3255935237" lon="34.6232892852"><ele>167.60</ele><time>2026-08-18T17:22:39Z</time></trkpt><trkpt lat="59.3256144784" lon="34.6236337814"><ele>167.64</ele><time>2026-08-18T17:22:53Z</time></trkpt><trkpt lat="59.3255822919" lon="34.6237633657"><ele>167.46</ele><time>2026-08-18T17:22:59Z</time></trkpt><trkpt lat="59.3255430646" lon="34.6238397248"><ele>167.82</ele><time>2026-08-18T17:23:04Z</time></trkpt><trkpt lat="59.3254868221" lon="34.6239724942"><ele>168.00</ele><time>2026-08-18T17:23:11Z</time></trkpt><trkpt lat="59.3253645301" lon="34.6243443992"><ele>168.71</ele><time>2026-08-18T17:23:28Z</time></trkpt><trkpt lat="59.3252786994" lon="34.6245976165"><ele>169.73</ele><time>2026-08-18T17:23:41Z</time></trkpt><trkpt lat="59.3252117280" lon="34.6248240955"><ele>170.52</ele><time>2026-08-18T17:23:54Z</time></trkpt><trkpt lat="59.3252030946" lon="34.6248395182"><ele>170.54</ele><time>2026-08-18T17:23:55Z</time></trkpt><trkpt lat="59.3251086306" lon="34.6251104213"><ele>170.14</ele><time>2026-08-18T17:24:08Z</time></trkpt><trkpt lat="59.3250010908" lon="34.6253595315"><ele>169.75</ele><time>2026-08-18T17:24:24Z</time></trkpt><trkpt lat="59.3248876836" lon="34.6256396547"><ele>169.28</ele><time>2026-08-18T17:24:36Z</time></trkpt><trkpt lat="59.3247771263" lon="34.6259098873"><ele>169.16</ele><time>2026-08-18T17:24:49Z</time></trkpt><trkpt lat="59.3246770464" lon="34.6262279805"><ele>169.63</ele><time>2026-08-18T17:25:04Z</time></trkpt><trkpt lat="59.3246723525" lon="34.6262371168"><ele>169.59</ele><time>2026-08-18T17:25:05Z</time></trkpt><trkpt lat="59.3246569298" lon="34.6262936946"><ele>169.78</ele><time>2026-08-18T17:25:07Z</time></trkpt><trkpt lat="59.3245493900" lon="34.6265733987"><ele>170.67</ele><time>2026-08-18T17:25:22Z</time></trkpt><trkpt lat="59.3244680855" lon="34.6267030668"><ele>170.20</ele><time>2026-08-18T17:25:30Z</time></trkpt><trkpt lat="59.3243489787" lon="34.6269289590"><ele>168.55</ele><time>2026-08-18T17:25:45Z</time></trkpt><trkpt lat="59.3242912274" lon="34.6270511672"><ele>168.37</ele><time>2026-08-18T17:26:00Z</time></trkpt><trkpt lat="59.3242496531" lon="34.6271209884"><ele>167.93</ele><time>2026-08-18T17:26:05Z</time></trkpt><trkpt lat="59.3240204919" lon="34.6273621358"><ele>167.91</ele><time>2026-08-18T17:26:20Z</time></trkpt><trkpt lat="59.3238803465" lon="34.6274431888"><ele>167.57</ele><time>2026-08-18T17:26:34Z</time></trkpt><trkpt lat="59.3237130437" lon="34.6275529917"><ele>167.66</ele><time>2026-08-18T17:26:50Z</time></trkpt><trkpt lat="59.3235773407" lon="34.6277611982"><ele>168.62</ele><time>2026-08-18T17:27:06Z</time></trkpt><trkpt lat="59.3235103693" lon="34.6279473603"><ele>168.62</ele><time>2026-08-18T17:27:17Z</time></trkpt><trkpt lat="59.3233927712" lon="34.6282445826"><ele>167.98</ele><time>2026-08-18T17:27:29Z</time></trkpt><trkpt lat="59.3233554717" lon="34.6283669583"><ele>167.26</ele><time>2026-08-18T17:27:35Z</time></trkpt><trkpt lat="59.3232785258" lon="34.6285901684"><ele>167.77</ele><time>2026-08-18T17:27:50Z</time></trkpt><trkpt lat="59.3232330959" lon="34.6287493408"><ele>168.60</ele><time>2026-08-18T17:28:31Z</time></trkpt><trkpt lat="59.3231622688" lon="34.6289169788"><ele>168.38</ele><time>2026-08-18T17:28:38Z</time></trkpt><trkpt lat="59.3231429905" lon="34.6290056594"><ele>167.92</ele><time>2026-08-18T17:28:42Z</time></trkpt><trkpt lat="59.3230598420" lon="34.6291882172"><ele>168.03</ele><time>2026-08-18T17:28:54Z</time></trkpt><trkpt lat="59.3229062855" lon="34.6293955855"><ele>167.57</ele><time>2026-08-18T17:29:07Z</time></trkpt><trkpt lat="59.3228134979" lon="34.6296607889"><ele>167.64</ele><time>2026-08-18T17:29:20Z</time></trkpt><trkpt lat="59.3227960635" lon="34.6297037881"><ele>167.54</ele><time>2026-08-18T17:29:22Z</time></trkpt><trkpt lat="59.3227680679" lon="34.6298515610"><ele>167.33</ele><time>2026-08-18T17:29:28Z</time></trkpt><trkpt lat="59.3226181995" lon="34.6301389765"><ele>167.03</ele><time>2026-08-18T17:29:46Z</time></trkpt><trkpt lat="59.3224506453" lon="34.6303581633"><ele>167.08</ele><time>2026-08-18T17:30:03Z</time></trkpt><trkpt lat="59.3222741224" lon="34.6306336764"><ele>166.89</ele><time>2026-08-18T17:30:20Z</time></trkpt><trkpt lat="59.3221454602" lon="34.6308563836"><ele>167.02</ele><time>2026-08-18T17:30:37Z</time></trkpt><trkpt lat="59.3220575340" lon="34.6309933439"><ele>167.16</ele><time>2026-08-18T17:30:44Z</time></trkpt><trkpt lat="59.3219621480" lon="34.6311471518"><ele>167.26</ele><time>2026-08-18T17:30:52Z</time></trkpt><trkpt lat="59.3217804283" lon="34.6312481537"><ele>167.55</ele><time>2026-08-18T17:31:07Z</time></trkpt><trkpt lat="59.3217044882" lon="34.6313450485"><ele>167.52</ele><time>2026-08-18T17:31:14Z</time></trkpt><trkpt lat="59.3216410372" lon="34.6315124352"><ele>167.25</ele><time>2026-08-18T17:31:23Z</time></trkpt><trkpt lat="59.3216338288" lon="34.6316400915"><ele>167.11</ele><time>2026-08-18T17:31:28Z</time></trkpt><trkpt lat="59.3216276262" lon="34.6319217235"><ele>167.44</ele><time>2026-08-18T17:31:43Z</time></trkpt><trkpt lat="59.3215918355" lon="34.6319959871"><ele>167.18</ele><time>2026-08-18T17:31:47Z</time></trkpt><trkpt lat="59.3214973714" lon="34.6321912855"><ele>167.41</ele><time>2026-08-18T17:32:00Z</time></trkpt><trkpt lat="59.3213182501" lon="34.6324498672"><ele>167.33</ele><time>2026-08-18T17:32:15Z</time></trkpt><trkpt lat="59.3213081919" lon="34.6324628592"><ele>167.33</ele><time>2026-08-18T17:32:16Z</time></trkpt><trkpt lat="59.3211684655" lon="34.6326072793"><ele>166.84</ele><time>2026-08-18T17:32:30Z</time></trkpt><trkpt lat="59.3209898472" lon="34.6327978838"><ele>166.75</ele><time>2026-08-18T17:32:47Z</time></trkpt><trkpt lat="59.3208223768" lon="34.6329649352"><ele>167.16</ele><time>2026-08-18T17:33:03Z</time></trkpt><trkpt lat="59.3208103906" lon="34.6329839621"><ele>167.20</ele><time>2026-08-18T17:33:04Z</time></trkpt><trkpt lat="59.3206351250" lon="34.6332469862"><ele>167.51</ele><time>2026-08-18T17:33:20Z</time></trkpt><trkpt lat="59.3205396552" lon="34.6334358305"><ele>166.93</ele><time>2026-08-18T17:33:29Z</time></trkpt><trkpt lat="59.3203806505" lon="34.6337782312"><ele>166.36</ele><time>2026-08-18T17:33:46Z</time></trkpt><trkpt lat="59.3203528225" lon="34.6338733658"><ele>166.63</ele><time>2026-08-18T17:33:54Z</time></trkpt><trkpt lat="59.3202924728" lon="34.6341288462"><ele>166.75</ele><time>2026-08-18T17:34:06Z</time></trkpt><trkpt lat="59.3202919699" lon="34.6341804788"><ele>166.31</ele><time>2026-08-18T17:34:22Z</time></trkpt><trkpt lat="59.3202837557" lon="34.6343779564"><ele>166.80</ele><time>2026-08-18T17:34:30Z</time></trkpt><trkpt lat="59.3203109968" lon="34.6346795373"><ele>167.16</ele><time>2026-08-18T17:34:44Z</time></trkpt><trkpt lat="59.3202708475" lon="34.6350196749"><ele>167.85</ele><time>2026-08-18T17:35:00Z</time></trkpt><trkpt lat="59.3202309497" lon="34.6354245208"><ele>168.12</ele><time>2026-08-18T17:35:17Z</time></trkpt><trkpt lat="59.3202331290" lon="34.6354889777"><ele>168.13</ele><time>2026-08-18T17:35:20Z</time></trkpt><trkpt lat="59.3202183768" lon="34.6356721222"><ele>168.03</ele><time>2026-08-18T17:35:27Z</time></trkpt><trkpt lat="59.3201645650" lon="34.6361009404"><ele>167.11</ele><time>2026-08-18T17:35:44Z</time></trkpt><trkpt lat="59.3201232422" lon="34.6364442632"><ele>166.87</ele><time>2026-08-18T17:35:57Z</time></trkpt><trkpt lat="59.3200826738" lon="34.6367070358"><ele>166.88</ele><time>2026-08-18T17:36:09Z</time></trkpt><trkpt lat="59.3200907204" lon="34.6368393861"><ele>168.43</ele><time>2026-08-18T17:36:14Z</time></trkpt><trkpt lat="59.3200869486" lon="34.6371939406"><ele>168.25</ele><time>2026-08-18T17:36:29Z</time></trkpt><trkpt lat="59.3200895470" lon="34.6376264468"><ele>167.94</ele><time>2026-08-18T17:36:46Z</time></trkpt><trkpt lat="59.3201072328" lon="34.6380751301"><ele>167.53</ele><time>2026-08-18T17:37:03Z</time></trkpt><trkpt lat="59.3201812450" lon="34.6383767948"><ele>167.47</ele><time>2026-08-18T17:37:16Z</time></trkpt><trkpt lat="59.3203198817" lon="34.6386082191"><ele>167.83</ele><time>2026-08-18T17:37:30Z</time></trkpt><trkpt lat="59.3204628769" lon="34.6388519648"><ele>167.16</ele><time>2026-08-18T17:37:44Z</time></trkpt><trkpt lat="59.3205193710" lon="34.6390313376"><ele>167.04</ele><time>2026-08-18T17:37:52Z</time></trkpt><trkpt lat="59.3204660621" lon="34.6394445654"><ele>167.62</ele><time>2026-08-18T17:38:07Z</time></trkpt><trkpt lat="59.3204079755" lon="34.6395787597"><ele>167.61</ele><time>2026-08-18T17:38:14Z</time></trkpt><trkpt lat="59.3203745317" lon="34.6396619920"><ele>167.69</ele><time>2026-08-18T17:38:18Z</time></trkpt><trkpt lat="59.3202308659" lon="34.6399957594"><ele>168.13</ele><time>2026-08-18T17:38:35Z</time></trkpt><trkpt lat="59.3201557640" lon="34.6402206458"><ele>168.11</ele><time>2026-08-18T17:38:48Z</time></trkpt><trkpt lat="59.3201467954" lon="34.6403840929"><ele>168.25</ele><time>2026-08-18T17:38:56Z</time></trkpt><trkpt lat="59.3200994376" lon="34.6405760385"><ele>168.91</ele><time>2026-08-18T17:39:04Z</time></trkpt><trkpt lat="59.3200440332" lon="34.6408868395"><ele>169.37</ele><time>2026-08-18T17:39:19Z</time></trkpt><trkpt lat="59.3200412672" lon="34.6409063693"><ele>169.32</ele><time>2026-08-18T17:39:20Z</time></trkpt><trkpt lat="59.3200144451" lon="34.6410190221"><ele>168.93</ele><time>2026-08-18T17:39:26Z</time></trkpt><trkpt lat="59.3200217374" lon="34.6410763543"><ele>168.92</ele><time>2026-08-18T17:39:29Z</time></trkpt><trkpt lat="59.3199865334" lon="34.6412953734"><ele>168.92</ele><time>2026-08-18T17:39:42Z</time></trkpt><trkpt lat="59.3199775647" lon="34.6413427312"><ele>169.02</ele><time>2026-08-18T17:39:46Z</time></trkpt><trkpt lat="59.3199070729" lon="34.6415675338"><ele>168.76</ele><time>2026-08-18T17:40:01Z</time></trkpt><trkpt lat="59.3198509980" lon="34.6416925918"><ele>168.77</ele><time>2026-08-18T17:40:10Z</time></trkpt><trkpt lat="59.3197310530" lon="34.6418570448"><ele>168.30</ele><time>2026-08-18T17:40:25Z</time></trkpt><trkpt lat="59.3195479922" lon="34.6420226712"><ele>167.30</ele><time>2026-08-18T17:40:41Z</time></trkpt><trkpt lat="59.3195172306" lon="34.6421210747"><ele>166.97</ele><time>2026-08-18T17:40:49Z</time></trkpt><trkpt lat="59.3194912467" lon="34.6421890520"><ele>166.46</ele><time>2026-08-18T17:40:54Z</time></trkpt><trkpt lat="59.3194525223" lon="34.6423415188"><ele>166.49</ele><time>2026-08-18T17:41:06Z</time></trkpt><trkpt lat="59.3194436375" lon="34.6426764596"><ele>166.25</ele><time>2026-08-18T17:41:19Z</time></trkpt><trkpt lat="59.3194276281" lon="34.6427207999"><ele>166.16</ele><time>2026-08-18T17:41:22Z</time></trkpt><trkpt lat="59.3193920888" lon="34.6430161782"><ele>165.95</ele><time>2026-08-18T17:41:40Z</time></trkpt><trkpt lat="59.3193948548" lon="34.6429896913"><ele>165.47</ele><time>2026-08-18T17:41:50Z</time></trkpt><trkpt lat="59.3193307333" lon="34.6434139833"><ele>166.39</ele><time>2026-08-18T17:42:07Z</time></trkpt><trkpt lat="59.3191881571" lon="34.6437756624"><ele>166.52</ele><time>2026-08-18T17:42:26Z</time></trkpt><trkpt lat="59.3190458324" lon="34.6441270318"><ele>167.16</ele><time>2026-08-18T17:42:44Z</time></trkpt><trkpt lat="59.3190122209" lon="34.6441891417"><ele>167.22</ele><time>2026-08-18T17:42:48Z</time></trkpt><trkpt lat="59.3189946190" lon="34.6442472283"><ele>167.47</ele><time>2026-08-18T17:42:51Z</time></trkpt><trkpt lat="59.3189656176" lon="34.6443388425"><ele>167.82</ele><time>2026-08-18T17:42:55Z</time></trkpt><trkpt lat="59.3189183436" lon="34.6444852743"><ele>169.37</ele><time>2026-08-18T17:43:01Z</time></trkpt><trkpt lat="59.3188440800" lon="34.6447992604"><ele>170.45</ele><time>2026-08-18T17:43:15Z</time></trkpt><trkpt lat="59.3187981471" lon="34.6451177727"><ele>171.40</ele><time>2026-08-18T17:43:27Z</time></trkpt><trkpt lat="59.3187876698" lon="34.6451998316"><ele>171.39</ele><time>2026-08-18T17:43:30Z</time></trkpt><trkpt lat="59.3187543936" lon="34.6453244705"><ele>171.45</ele><time>2026-08-18T17:43:35Z</time></trkpt><trkpt lat="59.3187313434" lon="34.6454540547"><ele>171.20</ele><time>2026-08-18T17:43:42Z</time></trkpt><trkpt lat="59.3185729254" lon="34.6457304899"><ele>170.39</ele><time>2026-08-18T17:43:58Z</time></trkpt><trkpt lat="59.3185327761" lon="34.6457823738"><ele>169.99</ele><time>2026-08-18T17:44:02Z</time></trkpt><trkpt lat="59.3183781300" lon="34.6460001357"><ele>169.59</ele><time>2026-08-18T17:44:16Z</time></trkpt><trkpt lat="59.3183400761" lon="34.6460498404"><ele>169.62</ele><time>2026-08-18T17:44:20Z</time></trkpt><trkpt lat="59.3182639685" lon="34.6461721323"><ele>169.36</ele><time>2026-08-18T17:44:25Z</time></trkpt><trkpt lat="59.3181465380" lon="34.6465722844"><ele>169.31</ele><time>2026-08-18T17:44:42Z</time></trkpt><trkpt lat="59.3180698436" lon="34.6469719335"><ele>168.24</ele><time>2026-08-18T17:44:59Z</time></trkpt><trkpt lat="59.3179790676" lon="34.6473850776"><ele>167.85</ele><time>2026-08-18T17:45:15Z</time></trkpt><trkpt lat="59.3179293629" lon="34.6476023365"><ele>167.71</ele><time>2026-08-18T17:45:23Z</time></trkpt><trkpt lat="59.3178925663" lon="34.6477276459"><ele>167.00</ele><time>2026-08-18T17:45:28Z</time></trkpt><trkpt lat="59.3178753834" lon="34.6477971319"><ele>166.83</ele><time>2026-08-18T17:45:31Z</time></trkpt><trkpt lat="59.3177842721" lon="34.6481747366"><ele>166.51</ele><time>2026-08-18T17:45:47Z</time></trkpt><trkpt lat="59.3177125230" lon="34.6485673450"><ele>165.87</ele><time>2026-08-18T17:46:02Z</time></trkpt><trkpt lat="59.3176427856" lon="34.6489372384"><ele>165.66</ele><time>2026-08-18T17:46:17Z</time></trkpt><trkpt lat="59.3176206574" lon="34.6489753760"><ele>165.46</ele><time>2026-08-18T17:46:19Z</time></trkpt><trkpt lat="59.3175882194" lon="34.6490222309"><ele>165.16</ele><time>2026-08-18T17:46:22Z</time></trkpt><trkpt lat="59.3174911570" lon="34.6492211334"><ele>164.91</ele><time>2026-08-18T17:46:34Z</time></trkpt><trkpt lat="59.3173942622" lon="34.6494096424"><ele>164.71</ele><time>2026-08-18T17:46:43Z</time></trkpt><trkpt lat="59.3173376843" lon="34.6496212017"><ele>164.60</ele><time>2026-08-18T17:46:52Z</time></trkpt><trkpt lat="59.3173081800" lon="34.6500894986"><ele>164.58</ele><time>2026-08-18T17:47:09Z</time></trkpt><trkpt lat="59.3173012231" lon="34.6501825377"><ele>164.98</ele><time>2026-08-18T17:47:12Z</time></trkpt><trkpt lat="59.3172940984" lon="34.6505848691"><ele>164.88</ele><time>2026-08-18T17:47:27Z</time></trkpt><trkpt lat="59.3172994629" lon="34.6509082429"><ele>165.32</ele><time>2026-08-18T17:47:39Z</time></trkpt><trkpt lat="59.3173081800" lon="34.6512742806"><ele>165.25</ele><time>2026-08-18T17:47:54Z</time></trkpt><trkpt lat="59.3173084315" lon="34.6518124826"><ele>165.26</ele><time>2026-08-18T17:48:14Z</time></trkpt><trkpt lat="59.3173376843" lon="34.6523484215"><ele>164.58</ele><time>2026-08-18T17:48:34Z</time></trkpt><trkpt lat="59.3173414562" lon="34.6524754912"><ele>164.56</ele><time>2026-08-18T17:48:39Z</time></trkpt><trkpt lat="59.3173584715" lon="34.6526299696"><ele>164.80</ele><time>2026-08-18T17:48:45Z</time></trkpt><trkpt lat="59.3173733912" lon="34.6527023893"><ele>164.92</ele><time>2026-08-18T17:48:48Z</time></trkpt><trkpt lat="59.3174084276" lon="34.6530885436"><ele>165.03</ele><time>2026-08-18T17:49:02Z</time></trkpt><trkpt lat="59.3174406979" lon="34.6535455249"><ele>165.35</ele><time>2026-08-18T17:49:20Z</time></trkpt><trkpt lat="59.3174737226" lon="34.6541073639"><ele>165.77</ele><time>2026-08-18T17:49:41Z</time></trkpt><trkpt lat="59.3175455555" lon="34.6545270458"><ele>165.97</ele><time>2026-08-18T17:49:58Z</time></trkpt><trkpt lat="59.3176260218" lon="34.6548784990"><ele>165.79</ele><time>2026-08-18T17:50:13Z</time></trkpt><trkpt lat="59.3176807556" lon="34.6553083230"><ele>166.21</ele><time>2026-08-18T17:50:30Z</time></trkpt><trkpt lat="59.3177095894" lon="34.6557325311"><ele>166.78</ele><time>2026-08-18T17:50:47Z</time></trkpt><trkpt lat="59.3178064842" lon="34.6562536340"><ele>165.91</ele><time>2026-08-18T17:51:08Z</time></trkpt><trkpt lat="59.3179158680" lon="34.6566874813"><ele>164.94</ele><time>2026-08-18T17:51:26Z</time></trkpt><trkpt lat="59.3180104997" lon="34.6570884716"><ele>163.27</ele><time>2026-08-18T17:51:42Z</time></trkpt><trkpt lat="59.3180311192" lon="34.6572124399"><ele>164.94</ele><time>2026-08-18T17:51:47Z</time></trkpt><trkpt lat="59.3181018624" lon="34.6575975884"><ele>165.24</ele><time>2026-08-18T17:52:04Z</time></trkpt><trkpt lat="59.3182029482" lon="34.6580706630"><ele>164.57</ele><time>2026-08-18T17:52:22Z</time></trkpt><trkpt lat="59.3182428461" lon="34.6584281512"><ele>163.63</ele><time>2026-08-18T17:52:36Z</time></trkpt><trkpt lat="59.3182406668" lon="34.6588415466"><ele>164.56</ele><time>2026-08-18T17:52:52Z</time></trkpt><trkpt lat="59.3182656448" lon="34.6593969315"><ele>165.46</ele><time>2026-08-18T17:53:14Z</time></trkpt><trkpt lat="59.3182710931" lon="34.6596146934"><ele>164.97</ele><time>2026-08-18T17:53:26Z</time></trkpt><trkpt lat="59.3182837497" lon="34.6596763842"><ele>165.06</ele><time>2026-08-18T17:53:30Z</time></trkpt><trkpt lat="59.3183275871" lon="34.6600667294"><ele>164.83</ele><time>2026-08-18T17:53:45Z</time></trkpt><trkpt lat="59.3183450215" lon="34.6604546439"><ele>164.50</ele><time>2026-08-18T17:53:59Z</time></trkpt><trkpt lat="59.3183473684" lon="34.6606075298"><ele>164.55</ele><time>2026-08-18T17:54:05Z</time></trkpt><trkpt lat="59.3183548283" lon="34.6606850624"><ele>164.75</ele><time>2026-08-18T17:54:08Z</time></trkpt><trkpt lat="59.3183681555" lon="34.6610633377"><ele>164.23</ele><time>2026-08-18T17:54:22Z</time></trkpt><trkpt lat="59.3183862604" lon="34.6614122763"><ele>164.48</ele><time>2026-08-18T17:54:35Z</time></trkpt><trkpt lat="59.3184082210" lon="34.6616982669"><ele>164.41</ele><time>2026-08-18T17:54:46Z</time></trkpt><trkpt lat="59.3184698280" lon="34.6620999277"><ele>164.11</ele><time>2026-08-18T17:55:01Z</time></trkpt><trkpt lat="59.3185588438" lon="34.6624240559"><ele>164.72</ele><time>2026-08-18T17:55:14Z</time></trkpt><trkpt lat="59.3186756875" lon="34.6627001557"><ele>164.83</ele><time>2026-08-18T17:55:28Z</time></trkpt><trkpt lat="59.3187915254" lon="34.6629374474"><ele>164.47</ele><time>2026-08-18T17:55:40Z</time></trkpt><trkpt lat="59.3189028371" lon="34.6632164810"><ele>164.50</ele><time>2026-08-18T17:55:54Z</time></trkpt><trkpt lat="59.3190252967" lon="34.6634769905"><ele>164.75</ele><time>2026-08-18T17:56:07Z</time></trkpt><trkpt lat="59.3191566411" lon="34.6637723688"><ele>164.33</ele><time>2026-08-18T17:56:21Z</time></trkpt><trkpt lat="59.3192117941" lon="34.6640548389"><ele>164.50</ele><time>2026-08-18T17:56:32Z</time></trkpt><trkpt lat="59.3192223553" lon="34.6642795578"><ele>164.67</ele><time>2026-08-18T17:56:42Z</time></trkpt><trkpt lat="59.3192358501" lon="34.6643986646"><ele>164.60</ele><time>2026-08-18T17:56:46Z</time></trkpt><trkpt lat="59.3192786817" lon="34.6648024209"><ele>164.06</ele><time>2026-08-18T17:57:00Z</time></trkpt><trkpt lat="59.3192809448" lon="34.6648285724"><ele>163.95</ele><time>2026-08-18T17:57:01Z</time></trkpt><trkpt lat="59.3192953616" lon="34.6649443265"><ele>164.30</ele><time>2026-08-18T17:57:05Z</time></trkpt><trkpt lat="59.3193283863" lon="34.6652479190"><ele>164.99</ele><time>2026-08-18T17:57:17Z</time></trkpt><trkpt lat="59.3193902448" lon="34.6656409465"><ele>166.16</ele><time>2026-08-18T17:57:33Z</time></trkpt><trkpt lat="59.3194497563" lon="34.6659689303"><ele>166.30</ele><time>2026-08-18T17:57:47Z</time></trkpt><trkpt lat="59.3194252811" lon="34.6661555953"><ele>165.82</ele><time>2026-08-18T17:58:03Z</time></trkpt><trkpt lat="59.3195199966" lon="34.6664321981"><ele>165.36</ele><time>2026-08-18T17:58:16Z</time></trkpt><trkpt lat="59.3196650874" lon="34.6669235453"><ele>164.07</ele><time>2026-08-18T17:58:36Z</time></trkpt><trkpt lat="59.3197792489" lon="34.6673662774"><ele>163.50</ele><time>2026-08-18T17:58:54Z</time></trkpt><trkpt lat="59.3198463880" lon="34.6676888969"><ele>164.11</ele><time>2026-08-18T17:59:09Z</time></trkpt><trkpt lat="59.3198568653" lon="34.6676627453"><ele>164.16</ele><time>2026-08-18T17:59:35Z</time></trkpt><trkpt lat="59.3198567815" lon="34.6676788386"><ele>164.21</ele><time>2026-08-18T17:59:41Z</time></trkpt><trkpt lat="59.3198703602" lon="34.6677327342"><ele>164.21</ele><time>2026-08-18T17:59:44Z</time></trkpt><trkpt lat="59.3199421931" lon="34.6680209041"><ele>164.82</ele><time>2026-08-18T17:59:58Z</time></trkpt><trkpt lat="59.3200307898" lon="34.6684001852"><ele>164.70</ele><time>2026-08-18T18:00:13Z</time></trkpt><trkpt lat="59.3200905528" lon="34.6686636284"><ele>164.90</ele><time>2026-08-18T18:00:24Z</time></trkpt><trkpt lat="59.3201263435" lon="34.6688245609"><ele>164.93</ele><time>2026-08-18T18:00:31Z</time></trkpt><trkpt lat="59.3201661576" lon="34.6689837333"><ele>164.77</ele><time>2026-08-18T18:00:37Z</time></trkpt><trkpt lat="59.3202246632" lon="34.6692084521"><ele>166.05</ele><time>2026-08-18T18:00:47Z</time></trkpt><trkpt lat="59.3202355597" lon="34.6692588273"><ele>165.04</ele><time>2026-08-18T18:00:49Z</time></trkpt><trkpt lat="59.3202954903" lon="34.6695483383"><ele>164.95</ele><time>2026-08-18T18:01:00Z</time></trkpt><trkpt lat="59.3203855958" lon="34.6699020546"><ele>164.67</ele><time>2026-08-18T18:01:15Z</time></trkpt><trkpt lat="59.3204739410" lon="34.6702244226"><ele>164.74</ele><time>2026-08-18T18:01:28Z</time></trkpt><trkpt lat="59.3205737695" lon="34.6705916338"><ele>165.43</ele><time>2026-08-18T18:01:43Z</time></trkpt><trkpt lat="59.3206641264" lon="34.6709573362"><ele>166.50</ele><time>2026-08-18T18:01:58Z</time></trkpt><trkpt lat="59.3207190279" lon="34.6712061949"><ele>166.22</ele><time>2026-08-18T18:02:11Z</time></trkpt><trkpt lat="59.3207232188" lon="34.6712250542"><ele>166.92</ele><time>2026-08-18T18:02:13Z</time></trkpt><trkpt lat="59.3208682258" lon="34.6715043392"><ele>164.97</ele><time>2026-08-18T18:02:27Z</time></trkpt><trkpt lat="59.3209762685" lon="34.6716965362"><ele>164.63</ele><time>2026-08-18T18:02:37Z</time></trkpt><trkpt lat="59.3211243767" lon="34.6719796769"><ele>164.10</ele><time>2026-08-18T18:02:54Z</time></trkpt><trkpt lat="59.3212092854" lon="34.6720988676"><ele>164.19</ele><time>2026-08-18T18:03:10Z</time></trkpt><trkpt lat="59.3212200981" lon="34.6720607299"><ele>164.18</ele><time>2026-08-18T18:03:28Z</time></trkpt><trkpt lat="59.3212195951" lon="34.6720674355"><ele>163.70</ele><time>2026-08-18T18:03:55Z</time></trkpt><trkpt lat="59.3212152366" lon="34.6720303874"><ele>164.42</ele><time>2026-08-18T18:04:20Z</time></trkpt><trkpt lat="59.3212848902" lon="34.6722024679"><ele>163.60</ele><time>2026-08-18T18:04:44Z</time></trkpt><trkpt lat="59.3212975468" lon="34.6722431201"><ele>163.40</ele><time>2026-08-18T18:05:04Z</time></trkpt><trkpt lat="59.3212886620" lon="34.6722414438"><ele>163.45</ele><time>2026-08-18T18:05:27Z</time></trkpt><trkpt lat="59.3212889973" lon="34.6722384263"><ele>163.56</ele><time>2026-08-18T18:05:59Z</time></trkpt><trkpt lat="59.3212856445" lon="34.6722383425"><ele>163.52</ele><time>2026-08-18T18:06:59Z</time></trkpt><trkpt lat="59.3212944455" lon="34.6722432878"><ele>163.28</ele><time>2026-08-18T18:07:50Z</time></trkpt><trkpt lat="59.3212948646" lon="34.6722399350"><ele>163.07</ele><time>2026-08-18T18:09:09Z</time></trkpt><trkpt lat="59.3212943617" lon="34.6722412761"><ele>163.05</ele><time>2026-08-18T18:09:22Z</time></trkpt><trkpt lat="59.3213091977" lon="34.6722695231"><ele>163.04</ele><time>2026-08-18T18:09:25Z</time></trkpt><trkpt lat="59.3214250356" lon="34.6725143585"><ele>163.62</ele><time>2026-08-18T18:09:39Z</time></trkpt><trkpt lat="59.3215424661" lon="34.6727733593"><ele>163.25</ele><time>2026-08-18T18:09:52Z</time></trkpt><trkpt lat="59.3216531910" lon="34.6730586793"><ele>163.91</ele><time>2026-08-18T18:10:07Z</time></trkpt><trkpt lat="59.3217517622" lon="34.6732444223"><ele>163.90</ele><time>2026-08-18T18:10:23Z</time></trkpt><trkpt lat="59.3217896484" lon="34.6733251400"><ele>163.71</ele><time>2026-08-18T18:10:28Z</time></trkpt><trkpt lat="59.3220146187" lon="34.6736762580"><ele>163.73</ele><time>2026-08-18T18:10:50Z</time></trkpt><trkpt lat="59.3222083244" lon="34.6738609951"><ele>163.87</ele><time>2026-08-18T18:11:06Z</time></trkpt><trkpt lat="59.3224231526" lon="34.6739985421"><ele>163.13</ele><time>2026-08-18T18:11:22Z</time></trkpt><trkpt lat="59.3227116577" lon="34.6741637494"><ele>162.75</ele><time>2026-08-18T18:11:43Z</time></trkpt><trkpt lat="59.3228243943" lon="34.6742182318"><ele>163.20</ele><time>2026-08-18T18:11:54Z</time></trkpt><trkpt lat="59.3230023421" lon="34.6742640808"><ele>164.06</ele><time>2026-08-18T18:12:12Z</time></trkpt><trkpt lat="59.3231753446" lon="34.6743261907"><ele>164.72</ele><time>2026-08-18T18:12:25Z</time></trkpt><trkpt lat="59.3233478442" lon="34.6744096745"><ele>165.47</ele><time>2026-08-18T18:12:39Z</time></trkpt><trkpt lat="59.3235563859" lon="34.6744057350"><ele>165.96</ele><time>2026-08-18T18:12:54Z</time></trkpt><trkpt lat="59.3237307295" lon="34.6745315474"><ele>166.61</ele><time>2026-08-18T18:13:08Z</time></trkpt><trkpt lat="59.3239051569" lon="34.6747355629"><ele>166.62</ele><time>2026-08-18T18:13:23Z</time></trkpt><trkpt lat="59.3240113556" lon="34.6748946514"><ele>166.90</ele><time>2026-08-18T18:13:33Z</time></trkpt><trkpt lat="59.3240338191" lon="34.6749141812"><ele>166.92</ele><time>2026-08-18T18:13:35Z</time></trkpt><trkpt lat="59.3241297919" lon="34.6750695817"><ele>166.80</ele><time>2026-08-18T18:13:45Z</time></trkpt><trkpt lat="59.3242882937" lon="34.6752129961"><ele>166.70</ele><time>2026-08-18T18:13:58Z</time></trkpt><trkpt lat="59.3243890442" lon="34.6752954740"><ele>166.33</ele><time>2026-08-18T18:14:06Z</time></trkpt><trkpt lat="59.3244135194" lon="34.6753119864"><ele>167.42</ele><time>2026-08-18T18:14:08Z</time></trkpt><trkpt lat="59.3245345540" lon="34.6754412353"><ele>167.14</ele><time>2026-08-18T18:14:18Z</time></trkpt><trkpt lat="59.3246198818" lon="34.6755822189"><ele>166.97</ele><time>2026-08-18T18:14:26Z</time></trkpt><trkpt lat="59.3246163614" lon="34.6756155789"><ele>166.98</ele><time>2026-08-18T18:14:28Z</time></trkpt><trkpt lat="59.3246614560" lon="34.6756912675"><ele>167.00</ele><time>2026-08-18T18:14:33Z</time></trkpt><trkpt lat="59.3247722648" lon="34.6759018209"><ele>166.91</ele><time>2026-08-18T18:14:47Z</time></trkpt><trkpt lat="59.3248838279" lon="34.6762297209"><ele>167.01</ele><time>2026-08-18T18:15:02Z</time></trkpt><trkpt lat="59.3249788787" lon="34.6765990276"><ele>167.16</ele><time>2026-08-18T18:15:17Z</time></trkpt><trkpt lat="59.3249913678" lon="34.6766427811"><ele>167.12</ele><time>2026-08-18T18:15:19Z</time></trkpt><trkpt lat="59.3250034377" lon="34.6767096687"><ele>167.09</ele><time>2026-08-18T18:15:22Z</time></trkpt><trkpt lat="59.3250626978" lon="34.6769442782"><ele>167.26</ele><time>2026-08-18T18:15:31Z</time></trkpt><trkpt lat="59.3250945490" lon="34.6771298535"><ele>166.62</ele><time>2026-08-18T18:15:39Z</time></trkpt><trkpt lat="59.3251016736" lon="34.6771798935"><ele>166.54</ele><time>2026-08-18T18:15:42Z</time></trkpt><trkpt lat="59.3250905257" lon="34.6772740223"><ele>166.58</ele><time>2026-08-18T18:15:53Z</time></trkpt><trkpt lat="59.3250745162" lon="34.6772950608"><ele>166.56</ele><time>2026-08-18T18:15:58Z</time></trkpt><trkpt lat="59.3251598440" lon="34.6775404830"><ele>166.17</ele><time>2026-08-18T18:16:13Z</time></trkpt><trkpt lat="59.3252053577" lon="34.6776649542"><ele>166.05</ele><time>2026-08-18T18:16:30Z</time></trkpt><trkpt lat="59.3252534699" lon="34.6776924469"><ele>166.00</ele><time>2026-08-18T18:17:15Z</time></trkpt><trkpt lat="59.3252553977" lon="34.6779827960"><ele>165.65</ele><time>2026-08-18T18:17:29Z</time></trkpt><trkpt lat="59.3252584990" lon="34.6780336741"><ele>165.64</ele><time>2026-08-18T18:17:32Z</time></trkpt><trkpt lat="59.3252665456" lon="34.6781357657"><ele>165.23</ele><time>2026-08-18T18:17:36Z</time></trkpt><trkpt lat="59.3252699822" lon="34.6784824412"><ele>164.35</ele><time>2026-08-18T18:17:50Z</time></trkpt><trkpt lat="59.3252717424" lon="34.6786227543"><ele>164.17</ele><time>2026-08-18T18:17:56Z</time></trkpt><trkpt lat="59.3253270630" lon="34.6789588686"><ele>163.31</ele><time>2026-08-18T18:18:10Z</time></trkpt><trkpt lat="59.3253564835" lon="34.6793336235"><ele>163.68</ele><time>2026-08-18T18:18:24Z</time></trkpt><trkpt lat="59.3253385462" lon="34.6797246393"><ele>162.14</ele><time>2026-08-18T18:18:39Z</time></trkpt><trkpt lat="59.3253707327" lon="34.6799853165"><ele>162.29</ele><time>2026-08-18T18:18:49Z</time></trkpt><trkpt lat="59.3254501931" lon="34.6803910844"><ele>162.43</ele><time>2026-08-18T18:19:05Z</time></trkpt><trkpt lat="59.3255597446" lon="34.6807633247"><ele>162.23</ele><time>2026-08-18T18:19:20Z</time></trkpt><trkpt lat="59.3256233633" lon="34.6809528396"><ele>162.05</ele><time>2026-08-18T18:19:28Z</time></trkpt><trkpt lat="59.3256361876" lon="34.6809976827"><ele>161.99</ele><time>2026-08-18T18:19:30Z</time></trkpt><trkpt lat="59.3256763369" lon="34.6811845992"><ele>161.90</ele><time>2026-08-18T18:19:37Z</time></trkpt><trkpt lat="59.3257234432" lon="34.6814310271"><ele>161.99</ele><time>2026-08-18T18:19:46Z</time></trkpt><trkpt lat="59.3257340882" lon="34.6814470366"><ele>161.62</ele><time>2026-08-18T18:19:53Z</time></trkpt><trkpt lat="59.3257538695" lon="34.6816863399"><ele>161.89</ele><time>2026-08-18T18:20:04Z</time></trkpt><trkpt lat="59.3257854693" lon="34.6818139963"><ele>161.90</ele><time>2026-08-18T18:20:09Z</time></trkpt><trkpt lat="59.3258420471" lon="34.6821761783"><ele>161.78</ele><time>2026-08-18T18:20:25Z</time></trkpt><trkpt lat="59.3259025645" lon="34.6823729854"><ele>162.01</ele><time>2026-08-18T18:20:34Z</time></trkpt><trkpt lat="59.3259359244" lon="34.6825041622"><ele>162.03</ele><time>2026-08-18T18:20:40Z</time></trkpt><trkpt lat="59.3260069191" lon="34.6828634944"><ele>161.26</ele><time>2026-08-18T18:20:55Z</time></trkpt><trkpt lat="59.3260305561" lon="34.6830615588"><ele>161.14</ele><time>2026-08-18T18:21:02Z</time></trkpt><trkpt lat="59.3259997107" lon="34.6831702720"><ele>161.07</ele><time>2026-08-18T18:21:10Z</time></trkpt><trkpt lat="59.3260000460" lon="34.6832346451"><ele>161.10</ele><time>2026-08-18T18:21:14Z</time></trkpt><trkpt lat="59.3260379322" lon="34.6836104896"><ele>161.42</ele><time>2026-08-18T18:21:29Z</time></trkpt><trkpt lat="59.3260710407" lon="34.6838241443"><ele>162.15</ele><time>2026-08-18T18:21:38Z</time></trkpt><trkpt lat="59.3260744773" lon="34.6839548182"><ele>162.25</ele><time>2026-08-18T18:21:43Z</time></trkpt><trkpt lat="59.3260852899" lon="34.6840151679"><ele>162.20</ele><time>2026-08-18T18:21:45Z</time></trkpt><trkpt lat="59.3261153810" lon="34.6843817923"><ele>162.47</ele><time>2026-08-18T18:21:59Z</time></trkpt><trkpt lat="59.3262068275" lon="34.6847166494"><ele>161.89</ele><time>2026-08-18T18:22:13Z</time></trkpt><trkpt lat="59.3263412733" lon="34.6850932483"><ele>161.80</ele><time>2026-08-18T18:22:31Z</time></trkpt><trkpt lat="59.3264702708" lon="34.6854338888"><ele>161.73</ele><time>2026-08-18T18:22:46Z</time></trkpt><trkpt lat="59.3265960831" lon="34.6858485416"><ele>161.51</ele><time>2026-08-18T18:23:04Z</time></trkpt><trkpt lat="59.3266513199" lon="34.6861162595"><ele>161.17</ele><time>2026-08-18T18:23:17Z</time></trkpt><trkpt lat="59.3266639765" lon="34.6862094663"><ele>161.09</ele><time>2026-08-18T18:23:22Z</time></trkpt><trkpt lat="59.3267675769" lon="34.6865898371"><ele>161.62</ele><time>2026-08-18T18:23:38Z</time></trkpt><trkpt lat="59.3267684989" lon="34.6866954491"><ele>161.29</ele><time>2026-08-18T18:23:48Z</time></trkpt><trkpt lat="59.3267874420" lon="34.6867454890"><ele>161.37</ele><time>2026-08-18T18:23:51Z</time></trkpt><trkpt lat="59.3268342968" lon="34.6869602334"><ele>161.31</ele><time>2026-08-18T18:24:01Z</time></trkpt><trkpt lat="59.3269385677" lon="34.6873170510"><ele>162.09</ele><time>2026-08-18T18:24:17Z</time></trkpt><trkpt lat="59.3270519748" lon="34.6877106652"><ele>162.12</ele><time>2026-08-18T18:24:34Z</time></trkpt><trkpt lat="59.3271306809" lon="34.6878511459"><ele>162.65</ele><time>2026-08-18T18:24:41Z</time></trkpt><trkpt lat="59.3271797989" lon="34.6878925525"><ele>162.91</ele><time>2026-08-18T18:24:44Z</time></trkpt><trkpt lat="59.3272306770" lon="34.6879708394"><ele>163.15</ele><time>2026-08-18T18:24:48Z</time></trkpt><trkpt lat="59.3273859937" lon="34.6881897748"><ele>162.69</ele><time>2026-08-18T18:25:02Z</time></trkpt><trkpt lat="59.3275264744" lon="34.6884026751"><ele>162.80</ele><time>2026-08-18T18:25:15Z</time></trkpt><trkpt lat="59.3276225310" lon="34.6886599995"><ele>162.19</ele><time>2026-08-18T18:25:27Z</time></trkpt><trkpt lat="59.3278089445" lon="34.6889367700"><ele>162.37</ele><time>2026-08-18T18:25:42Z</time></trkpt><trkpt lat="59.3279391993" lon="34.6891956031"><ele>162.61</ele><time>2026-08-18T18:25:56Z</time></trkpt><trkpt lat="59.3280576356" lon="34.6895383392"><ele>161.98</ele><time>2026-08-18T18:26:11Z</time></trkpt><trkpt lat="59.3281660974" lon="34.6899246611"><ele>161.50</ele><time>2026-08-18T18:26:27Z</time></trkpt><trkpt lat="59.3282634951" lon="34.6902607754"><ele>161.59</ele><time>2026-08-18T18:26:42Z</time></trkpt><trkpt lat="59.3283346575" lon="34.6904621925"><ele>161.06</ele><time>2026-08-18T18:26:55Z</time></trkpt><trkpt lat="59.3283627369" lon="34.6905245539"><ele>161.09</ele><time>2026-08-18T18:26:58Z</time></trkpt><trkpt lat="59.3284061551" lon="34.6906089596"><ele>161.16</ele><time>2026-08-18T18:27:03Z</time></trkpt><trkpt lat="59.3284285348" lon="34.6907186788"><ele>160.90</ele><time>2026-08-18T18:27:07Z</time></trkpt><trkpt lat="59.3284907285" lon="34.6909238677"><ele>161.18</ele><time>2026-08-18T18:27:17Z</time></trkpt><trkpt lat="59.3286229949" lon="34.6913083456"><ele>161.55</ele><time>2026-08-18T18:27:34Z</time></trkpt><trkpt lat="59.3287454545" lon="34.6916700248"><ele>161.29</ele><time>2026-08-18T18:27:47Z</time></trkpt><trkpt lat="59.3287976738" lon="34.6919159498"><ele>161.39</ele><time>2026-08-18T18:27:58Z</time></trkpt><trkpt lat="59.3289085664" lon="34.6923388168"><ele>161.85</ele><time>2026-08-18T18:28:15Z</time></trkpt><trkpt lat="59.3289738614" lon="34.6926572453"><ele>162.01</ele><time>2026-08-18T18:28:28Z</time></trkpt><trkpt lat="59.3290849216" lon="34.6929224487"><ele>162.23</ele><time>2026-08-18T18:28:41Z</time></trkpt><trkpt lat="59.3292718381" lon="34.6932152286"><ele>162.33</ele><time>2026-08-18T18:28:56Z</time></trkpt><trkpt lat="59.3293920346" lon="34.6934318170"><ele>162.54</ele><time>2026-08-18T18:29:08Z</time></trkpt><trkpt lat="59.3295776937" lon="34.6936450526"><ele>161.77</ele><time>2026-08-18T18:29:24Z</time></trkpt><trkpt lat="59.3297155760" lon="34.6938981861"><ele>161.57</ele><time>2026-08-18T18:29:39Z</time></trkpt><trkpt lat="59.3298860639" lon="34.6941741183"><ele>161.24</ele><time>2026-08-18T18:29:54Z</time></trkpt><trkpt lat="59.3299707212" lon="34.6944396570"><ele>161.38</ele><time>2026-08-18T18:30:07Z</time></trkpt><trkpt lat="59.3299863953" lon="34.6944809798"><ele>161.23</ele><time>2026-08-18T18:30:09Z</time></trkpt><trkpt lat="59.3300968688" lon="34.6948365401"><ele>161.26</ele><time>2026-08-18T18:30:24Z</time></trkpt><trkpt lat="59.3302132934" lon="34.6951389592"><ele>161.06</ele><time>2026-08-18T18:30:38Z</time></trkpt><trkpt lat="59.3304067478" lon="34.6954838745"><ele>161.45</ele><time>2026-08-18T18:30:56Z</time></trkpt><trkpt lat="59.3305968493" lon="34.6957916580"><ele>160.83</ele><time>2026-08-18T18:31:13Z</time></trkpt><trkpt lat="59.3306292873" lon="34.6958373394"><ele>160.24</ele><time>2026-08-18T18:31:16Z</time></trkpt><trkpt lat="59.3307963386" lon="34.6960930713"><ele>160.94</ele><time>2026-08-18T18:31:32Z</time></trkpt><trkpt lat="59.3309408426" lon="34.6963404212"><ele>161.17</ele><time>2026-08-18T18:31:46Z</time></trkpt><trkpt lat="59.3311052956" lon="34.6965383179"><ele>160.88</ele><time>2026-08-18T18:31:59Z</time></trkpt><trkpt lat="59.3311618734" lon="34.6966288425"><ele>161.61</ele><time>2026-08-18T18:32:05Z</time></trkpt><trkpt lat="59.3313645478" lon="34.6968912799"><ele>161.85</ele><time>2026-08-18T18:32:23Z</time></trkpt><trkpt lat="59.3315479439" lon="34.6971896756"><ele>161.08</ele><time>2026-08-18T18:32:39Z</time></trkpt><trkpt lat="59.3316220399" lon="34.6975613292"><ele>161.09</ele><time>2026-08-18T18:32:55Z</time></trkpt><trkpt lat="59.3316260632" lon="34.6975867264"><ele>161.09</ele><time>2026-08-18T18:32:56Z</time></trkpt><trkpt lat="59.3316373788" lon="34.6976584755"><ele>161.15</ele><time>2026-08-18T18:32:59Z</time></trkpt><trkpt lat="59.3316767737" lon="34.6978679392"><ele>161.53</ele><time>2026-08-18T18:33:09Z</time></trkpt><trkpt lat="59.3317267299" lon="34.6980377566"><ele>161.52</ele><time>2026-08-18T18:33:17Z</time></trkpt><trkpt lat="59.3318255525" lon="34.6983687580"><ele>161.44</ele><time>2026-08-18T18:33:32Z</time></trkpt><trkpt lat="59.3318999000" lon="34.6986493841"><ele>161.03</ele><time>2026-08-18T18:33:46Z</time></trkpt><trkpt lat="59.3319133949" lon="34.6986590233"><ele>161.02</ele><time>2026-08-18T18:33:47Z</time></trkpt><trkpt lat="59.3319797795" lon="34.6986703388"><ele>161.02</ele><time>2026-08-18T18:33:51Z</time></trkpt><trkpt lat="59.3320070207" lon="34.6987022739"><ele>161.04</ele><time>2026-08-18T18:33:54Z</time></trkpt><trkpt lat="59.3320512772" lon="34.6987557504"><ele>161.02</ele><time>2026-08-18T18:33:58Z</time></trkpt><trkpt lat="59.3321533687" lon="34.6991209500"><ele>161.27</ele><time>2026-08-18T18:34:14Z</time></trkpt><trkpt lat="59.3322096951" lon="34.6994039230"><ele>160.80</ele><time>2026-08-18T18:34:25Z</time></trkpt><trkpt lat="59.3322502635" lon="34.6994962916"><ele>160.64</ele><time>2026-08-18T18:34:29Z</time></trkpt><trkpt lat="59.3323536962" lon="34.6998138819"><ele>161.08</ele><time>2026-08-18T18:34:44Z</time></trkpt><trkpt lat="59.3324359227" lon="34.7000596393"><ele>161.15</ele><time>2026-08-18T18:34:55Z</time></trkpt><trkpt lat="59.3324633315" lon="34.7001494933"><ele>160.61</ele><time>2026-08-18T18:34:59Z</time></trkpt><trkpt lat="59.3324967753" lon="34.7002467234"><ele>160.59</ele><time>2026-08-18T18:35:04Z</time></trkpt><trkpt lat="59.3325300515" lon="34.7003269382"><ele>160.97</ele><time>2026-08-18T18:35:08Z</time></trkpt><trkpt lat="59.3326197378" lon="34.7006670758"><ele>160.38</ele><time>2026-08-18T18:35:23Z</time></trkpt><trkpt lat="59.3327496573" lon="34.7009762842"><ele>160.38</ele><time>2026-08-18T18:35:38Z</time></trkpt><trkpt lat="59.3327574525" lon="34.7010186967"><ele>160.37</ele><time>2026-08-18T18:35:40Z</time></trkpt><trkpt lat="59.3329022918" lon="34.7013163380"><ele>160.08</ele><time>2026-08-18T18:35:55Z</time></trkpt><trkpt lat="59.3330902979" lon="34.7017118800"><ele>159.74</ele><time>2026-08-18T18:36:14Z</time></trkpt><trkpt lat="59.3332543317" lon="34.7020332422"><ele>159.97</ele><time>2026-08-18T18:36:32Z</time></trkpt><trkpt lat="59.3333820719" lon="34.7022363357"><ele>160.04</ele><time>2026-08-18T18:36:44Z</time></trkpt><trkpt lat="59.3334546592" lon="34.7025300376"><ele>160.66</ele><time>2026-08-18T18:36:58Z</time></trkpt><trkpt lat="59.3334670644" lon="34.7026137728"><ele>161.06</ele><time>2026-08-18T18:37:02Z</time></trkpt><trkpt lat="59.3335695751" lon="34.7026473004"><ele>161.35</ele><time>2026-08-18T18:37:17Z</time></trkpt><trkpt lat="59.3335706647" lon="34.7026246693"><ele>160.66</ele><time>2026-08-18T18:37:44Z</time></trkpt><trkpt lat="59.3335796334" lon="34.7026554309"><ele>161.24</ele><time>2026-08-18T18:38:23Z</time></trkpt><trkpt lat="59.3335908651" lon="34.7026642319"><ele>161.26</ele><time>2026-08-18T18:38:52Z</time></trkpt><trkpt lat="59.3335646298" lon="34.7026828397"><ele>161.16</ele><time>2026-08-18T18:39:16Z</time></trkpt><trkpt lat="59.3335756939" lon="34.7026590351"><ele>161.14</ele><time>2026-08-18T18:39:30Z</time></trkpt><trkpt lat="59.3335455190" lon="34.7026292793"><ele>160.92</ele><time>2026-08-18T18:39:45Z</time></trkpt><trkpt lat="59.3335553259" lon="34.7026184667"><ele>161.22</ele><time>2026-08-18T18:39:59Z</time></trkpt><trkpt lat="59.3335852493" lon="34.7025895491"><ele>160.88</ele><time>2026-08-18T18:40:53Z</time></trkpt><trkpt lat="59.3335750233" lon="34.7026384994"><ele>161.00</ele><time>2026-08-18T18:41:18Z</time></trkpt><trkpt lat="59.3335805554" lon="34.7026358172"><ele>160.45</ele><time>2026-08-18T18:41:40Z</time></trkpt><trkpt lat="59.3335635401" lon="34.7026500665"><ele>161.09</ele><time>2026-08-18T18:42:02Z</time></trkpt><trkpt lat="59.3335697427" lon="34.7026441991"><ele>161.54</ele><time>2026-08-18T18:42:21Z</time></trkpt><trkpt lat="59.3335489556" lon="34.7026499826"><ele>161.46</ele><time>2026-08-18T18:42:47Z</time></trkpt><trkpt lat="59.3335419986" lon="34.7026395891"><ele>161.46</ele><time>2026-08-18T18:44:47Z</time></trkpt><trkpt lat="59.3335399870" lon="34.7026371583"><ele>161.41</ele><time>2026-08-18T18:46:26Z</time></trkpt><trkpt lat="59.3335415795" lon="34.7026380803"><ele>161.71</ele><time>2026-08-18T18:48:07Z</time></trkpt><trkpt lat="59.3335377239" lon="34.7026384994"><ele>161.82</ele><time>2026-08-18T18:49:57Z</time></trkpt><trkpt lat="59.3335355446" lon="34.7026335541"><ele>161.91</ele><time>2026-08-18T18:51:25Z</time></trkpt><trkpt lat="59.3335416634" lon="34.7026244178"><ele>161.93</ele><time>2026-08-18T18:52:41Z</time></trkpt><trkpt lat="59.3335421663" lon="34.7026206460"><ele>161.86</ele><time>2026-08-18T18:54:16Z</time></trkpt><trkpt lat="59.3335454352" lon="34.7026242502"><ele>161.98</ele><time>2026-08-18T18:55:45Z</time></trkpt><trkpt lat="59.3335475307" lon="34.7026210651"><ele>162.08</ele><time>2026-08-18T18:57:07Z</time></trkpt><trkpt lat="59.3335418310" lon="34.7026186343"><ele>162.42</ele><time>2026-08-18T18:58:36Z</time></trkpt><trkpt lat="59.3335426692" lon="34.7026205622"><ele>162.31</ele><time>2026-08-18T18:59:57Z</time></trkpt><trkpt lat="59.3335551582" lon="34.7026635613"><ele>162.41</ele><time>2026-08-18T19:01:09Z</time></trkpt><trkpt lat="59.3335543200" lon="34.7026550956"><ele>161.63</ele><time>2026-08-18T19:02:55Z</time></trkpt><trkpt lat="59.3335452676" lon="34.7026463784"><ele>161.37</ele><time>2026-08-18T19:04:19Z</time></trkpt><trkpt lat="59.3335443456" lon="34.7026364878"><ele>161.71</ele><time>2026-08-18T19:06:15Z</time></trkpt></trkseg></trk></gpx>